<?xml version='1.0' encoding='UTF-8'?><gpx version="1.1" creator="JPX - https://github.com/jenetics/jpx" xmlns="http://www.topografix.com/GPX/1/1"><trk><trkseg><trkpt lat="44.6837837" lon="9.2158851"><ele>1372.0</ele><time>2026-04-25T13:59:55.294Z</time></trkpt><trkpt lat="44.6838305" lon="9.2157257"><ele>1372.0</ele><time>2026-04-25T13:59:57.294Z</time></trkpt><trkpt lat="44.683869" lon="9.2156041"><ele>1372.0</ele><time>2026-04-25T13:59:58.294Z</time></trkpt><trkpt lat="44.6839094" lon="9.2154738"><ele>1372.0</ele><time>2026-04-25T13:59:59.294Z</time></trkpt><trkpt lat="44.6839482" lon="9.2153354"><ele>1372.0</ele><time>2026-04-25T14:00:00.294Z</time></trkpt><trkpt lat="44.6839808" lon="9.21519"><ele>1371.5</ele><time>2026-04-25T14:00:01.294Z</time></trkpt><trkpt lat="44.6840074" lon="9.2150317"><ele>1371.0</ele><time>2026-04-25T14:00:02.294Z</time></trkpt><trkpt lat="44.6840204" lon="9.214862"><ele>1370.5</ele><time>2026-04-25T14:00:03.294Z</time></trkpt><trkpt lat="44.6840318" lon="9.2146829"><ele>1370.0</ele><time>2026-04-25T14:00:04.294Z</time></trkpt><trkpt lat="44.6840373" lon="9.2145034"><ele>1372.25</ele><time>2026-04-25T14:00:05.294Z</time></trkpt><trkpt lat="44.6840269" lon="9.2143281"><ele>1374.5</ele><time>2026-04-25T14:00:06.294Z</time></trkpt><trkpt lat="44.6839953" lon="9.2141676"><ele>1376.75</ele><time>2026-04-25T14:00:07.294Z</time></trkpt><trkpt lat="44.6839518" lon="9.2140158"><ele>1379.0</ele><time>2026-04-25T14:00:08.294Z</time></trkpt><trkpt lat="44.6839087" lon="9.2138865"><ele>1381.0</ele><time>2026-04-25T14:00:09.294Z</time></trkpt><trkpt lat="44.6838825" lon="9.2137517"><ele>1383.0</ele><time>2026-04-25T14:00:10.294Z</time></trkpt><trkpt lat="44.6838823" lon="9.2136136"><ele>1385.0</ele><time>2026-04-25T14:00:11.293Z</time></trkpt><trkpt lat="44.6839034" lon="9.2134714"><ele>1387.0</ele><time>2026-04-25T14:00:12.293Z</time></trkpt><trkpt lat="44.6839301" lon="9.2133284"><ele>1389.0</ele><time>2026-04-25T14:00:13.294Z</time></trkpt><trkpt lat="44.683959" lon="9.2131851"><ele>1391.0</ele><time>2026-04-25T14:00:14.293Z</time></trkpt><trkpt lat="44.6839883" lon="9.2130272"><ele>1393.0</ele><time>2026-04-25T14:00:15.294Z</time></trkpt><trkpt lat="44.6840238" lon="9.2128664"><ele>1395.0</ele><time>2026-04-25T14:00:16.294Z</time></trkpt><trkpt lat="44.6840566" lon="9.2127068"><ele>1397.0</ele><time>2026-04-25T14:00:17.293Z</time></trkpt><trkpt lat="44.6840858" lon="9.2125515"><ele>1397.0</ele><time>2026-04-25T14:00:18.294Z</time></trkpt><trkpt lat="44.6841048" lon="9.2123866"><ele>1397.0</ele><time>2026-04-25T14:00:19.294Z</time></trkpt><trkpt lat="44.684117" lon="9.2122218"><ele>1397.0</ele><time>2026-04-25T14:00:20.293Z</time></trkpt><trkpt lat="44.684125" lon="9.2120681"><ele>1397.0</ele><time>2026-04-25T14:00:21.294Z</time></trkpt><trkpt lat="44.6841314" lon="9.2119399"><ele>1397.0</ele><time>2026-04-25T14:00:22.294Z</time></trkpt><trkpt lat="44.6841073" lon="9.2118207"><ele>1398.6666666666667</ele><time>2026-04-25T14:00:23.294Z</time></trkpt><trkpt lat="44.6840702" lon="9.2117063"><ele>1400.3333333333335</ele><time>2026-04-25T14:00:24.294Z</time></trkpt><trkpt lat="44.6840051" lon="9.2116409"><ele>1402.0</ele><time>2026-04-25T14:00:25.293Z</time></trkpt><trkpt lat="44.6839297" lon="9.2115729"><ele>1403.6666666666667</ele><time>2026-04-25T14:00:26.294Z</time></trkpt><trkpt lat="44.6838547" lon="9.2115034"><ele>1405.3333333333333</ele><time>2026-04-25T14:00:27.294Z</time></trkpt><trkpt lat="44.6837841" lon="9.2114315"><ele>1407.0</ele><time>2026-04-25T14:00:28.294Z</time></trkpt><trkpt lat="44.6837199" lon="9.2113702"><ele>1409.3333333333333</ele><time>2026-04-25T14:00:29.294Z</time></trkpt><trkpt lat="44.6836728" lon="9.2112454"><ele>1411.6666666666667</ele><time>2026-04-25T14:00:31.294Z</time></trkpt><trkpt lat="44.6837492" lon="9.2111699"><ele>1414.0</ele><time>2026-04-25T14:00:34.294Z</time></trkpt><trkpt lat="44.6838087" lon="9.211205"><ele>1416.3333333333335</ele><time>2026-04-25T14:00:35.294Z</time></trkpt><trkpt lat="44.6838775" lon="9.2112684"><ele>1418.6666666666667</ele><time>2026-04-25T14:00:36.294Z</time></trkpt><trkpt lat="44.6839496" lon="9.2113566"><ele>1421.0</ele><time>2026-04-25T14:00:37.293Z</time></trkpt><trkpt lat="44.6840301" lon="9.2114147"><ele>1421.0</ele><time>2026-04-25T14:00:38.294Z</time></trkpt><trkpt lat="44.6840972" lon="9.211449"><ele>1421.0</ele><time>2026-04-25T14:00:39.293Z</time></trkpt><trkpt lat="44.6841854" lon="9.2113789"><ele>1421.0</ele><time>2026-04-25T14:00:41.294Z</time></trkpt><trkpt lat="44.6842056" lon="9.2112882"><ele>1421.0</ele><time>2026-04-25T14:00:42.294Z</time></trkpt><trkpt lat="44.6841374" lon="9.211133"><ele>1421.0</ele><time>2026-04-25T14:00:44.294Z</time></trkpt><trkpt lat="44.6840554" lon="9.2110844"><ele>1421.0</ele><time>2026-04-25T14:00:45.294Z</time></trkpt><trkpt lat="44.6839757" lon="9.2110361"><ele>1421.0</ele><time>2026-04-25T14:00:46.294Z</time></trkpt><trkpt lat="44.6839138" lon="9.2109801"><ele>1421.0</ele><time>2026-04-25T14:00:47.294Z</time></trkpt><trkpt lat="44.6838799" lon="9.2108355"><ele>1421.0</ele><time>2026-04-25T14:00:49.294Z</time></trkpt><trkpt lat="44.6839445" lon="9.2107172"><ele>1421.0</ele><time>2026-04-25T14:00:51.294Z</time></trkpt><trkpt lat="44.6840164" lon="9.2106941"><ele>1421.0</ele><time>2026-04-25T14:00:52.294Z</time></trkpt><trkpt lat="44.684106" lon="9.2107035"><ele>1421.0</ele><time>2026-04-25T14:00:53.294Z</time></trkpt><trkpt lat="44.6842013" lon="9.2107507"><ele>1421.0</ele><time>2026-04-25T14:00:54.294Z</time></trkpt><trkpt lat="44.6842757" lon="9.2108382"><ele>1421.0</ele><time>2026-04-25T14:00:55.294Z</time></trkpt><trkpt lat="44.6843237" lon="9.2109587"><ele>1421.0</ele><time>2026-04-25T14:00:56.294Z</time></trkpt><trkpt lat="44.6843572" lon="9.2110757"><ele>1421.0</ele><time>2026-04-25T14:00:57.294Z</time></trkpt><trkpt lat="44.6843933" lon="9.2111708"><ele>1422.1999999999998</ele><time>2026-04-25T14:00:58.294Z</time></trkpt><trkpt lat="44.6845034" lon="9.2112389"><ele>1423.3999999999999</ele><time>2026-04-25T14:01:00.294Z</time></trkpt><trkpt lat="44.6845756" lon="9.2112223"><ele>1424.6</ele><time>2026-04-25T14:01:01.294Z</time></trkpt><trkpt lat="44.6846618" lon="9.2111807"><ele>1425.8</ele><time>2026-04-25T14:01:02.294Z</time></trkpt><trkpt lat="44.6847557" lon="9.2111225"><ele>1427.0</ele><time>2026-04-25T14:01:03.293Z</time></trkpt><trkpt lat="44.6848622" lon="9.2110576"><ele>1427.0</ele><time>2026-04-25T14:01:04.294Z</time></trkpt><trkpt lat="44.6849761" lon="9.2109745"><ele>1427.0</ele><time>2026-04-25T14:01:05.294Z</time></trkpt><trkpt lat="44.6850842" lon="9.210886"><ele>1427.0</ele><time>2026-04-25T14:01:06.294Z</time></trkpt><trkpt lat="44.6851794" lon="9.2107766"><ele>1427.0</ele><time>2026-04-25T14:01:07.294Z</time></trkpt><trkpt lat="44.6852638" lon="9.2106622"><ele>1428.0</ele><time>2026-04-25T14:01:08.294Z</time></trkpt><trkpt lat="44.6853457" lon="9.210527"><ele>1429.0</ele><time>2026-04-25T14:01:09.294Z</time></trkpt><trkpt lat="44.6854329" lon="9.2103892"><ele>1430.0</ele><time>2026-04-25T14:01:10.294Z</time></trkpt><trkpt lat="44.6855191" lon="9.2102553"><ele>1431.0</ele><time>2026-04-25T14:01:11.294Z</time></trkpt><trkpt lat="44.6856149" lon="9.2101321"><ele>1431.0</ele><time>2026-04-25T14:01:12.294Z</time></trkpt><trkpt lat="44.6857173" lon="9.2099936"><ele>1431.0</ele><time>2026-04-25T14:01:13.294Z</time></trkpt><trkpt lat="44.685818" lon="9.2098507"><ele>1431.0</ele><time>2026-04-25T14:01:14.294Z</time></trkpt><trkpt lat="44.6859193" lon="9.2097084"><ele>1431.0</ele><time>2026-04-25T14:01:15.294Z</time></trkpt><trkpt lat="44.6860256" lon="9.2095695"><ele>1432.75</ele><time>2026-04-25T14:01:16.294Z</time></trkpt><trkpt lat="44.6861268" lon="9.2094224"><ele>1434.5</ele><time>2026-04-25T14:01:17.294Z</time></trkpt><trkpt lat="44.6862345" lon="9.2092772"><ele>1436.25</ele><time>2026-04-25T14:01:18.294Z</time></trkpt><trkpt lat="44.6863498" lon="9.2091322"><ele>1438.0</ele><time>2026-04-25T14:01:19.294Z</time></trkpt><trkpt lat="44.6864713" lon="9.2089972"><ele>1440.6666666666665</ele><time>2026-04-25T14:01:20.293Z</time></trkpt><trkpt lat="44.6866041" lon="9.2088651"><ele>1443.3333333333333</ele><time>2026-04-25T14:01:21.294Z</time></trkpt><trkpt lat="44.6867481" lon="9.2087354"><ele>1446.0</ele><time>2026-04-25T14:01:22.294Z</time></trkpt><trkpt lat="44.6868933" lon="9.2086059"><ele>1444.6666666666667</ele><time>2026-04-25T14:01:23.294Z</time></trkpt><trkpt lat="44.6870468" lon="9.2084789"><ele>1443.3333333333335</ele><time>2026-04-25T14:01:24.293Z</time></trkpt><trkpt lat="44.6871874" lon="9.2083557"><ele>1442.0</ele><time>2026-04-25T14:01:25.294Z</time></trkpt><trkpt lat="44.6873263" lon="9.20823"><ele>1445.6666666666667</ele><time>2026-04-25T14:01:26.294Z</time></trkpt><trkpt lat="44.6874539" lon="9.2081199"><ele>1449.3333333333333</ele><time>2026-04-25T14:01:27.294Z</time></trkpt><trkpt lat="44.6875817" lon="9.2080152"><ele>1453.0</ele><time>2026-04-25T14:01:28.293Z</time></trkpt><trkpt lat="44.6877204" lon="9.2079272"><ele>1452.3333333333333</ele><time>2026-04-25T14:01:29.294Z</time></trkpt><trkpt lat="44.6878757" lon="9.2078778"><ele>1451.6666666666667</ele><time>2026-04-25T14:01:30.294Z</time></trkpt><trkpt lat="44.6880367" lon="9.2078284"><ele>1451.0</ele><time>2026-04-25T14:01:31.293Z</time></trkpt><trkpt lat="44.6882022" lon="9.2077754"><ele>1451.0</ele><time>2026-04-25T14:01:32.294Z</time></trkpt><trkpt lat="44.6883706" lon="9.2077212"><ele>1451.0</ele><time>2026-04-25T14:01:33.294Z</time></trkpt><trkpt lat="44.6885405" lon="9.2076633"><ele>1451.0</ele><time>2026-04-25T14:01:34.294Z</time></trkpt><trkpt lat="44.6886998" lon="9.2076056"><ele>1450.75</ele><time>2026-04-25T14:01:35.294Z</time></trkpt><trkpt lat="44.688853" lon="9.207564"><ele>1450.5</ele><time>2026-04-25T14:01:36.294Z</time></trkpt><trkpt lat="44.6889892" lon="9.2075122"><ele>1450.25</ele><time>2026-04-25T14:01:37.294Z</time></trkpt><trkpt lat="44.6891238" lon="9.2074804"><ele>1450.0</ele><time>2026-04-25T14:01:38.294Z</time></trkpt><trkpt lat="44.6892549" lon="9.2074845"><ele>1450.0</ele><time>2026-04-25T14:01:39.294Z</time></trkpt><trkpt lat="44.6893836" lon="9.2075189"><ele>1450.0</ele><time>2026-04-25T14:01:40.294Z</time></trkpt><trkpt lat="44.6894944" lon="9.2075961"><ele>1450.0</ele><time>2026-04-25T14:01:41.294Z</time></trkpt><trkpt lat="44.6896063" lon="9.2076708"><ele>1450.0</ele><time>2026-04-25T14:01:42.294Z</time></trkpt><trkpt lat="44.6897175" lon="9.2077384"><ele>1454.0</ele><time>2026-04-25T14:01:43.294Z</time></trkpt><trkpt lat="44.6898274" lon="9.2078046"><ele>1458.0</ele><time>2026-04-25T14:01:44.294Z</time></trkpt><trkpt lat="44.6899464" lon="9.2078556"><ele>1462.0</ele><time>2026-04-25T14:01:45.294Z</time></trkpt><trkpt lat="44.690067" lon="9.2078741"><ele>1466.0</ele><time>2026-04-25T14:01:46.294Z</time></trkpt><trkpt lat="44.6901891" lon="9.2078705"><ele>1468.1999999999998</ele><time>2026-04-25T14:01:47.294Z</time></trkpt><trkpt lat="44.6903026" lon="9.2078712"><ele>1470.3999999999999</ele><time>2026-04-25T14:01:48.294Z</time></trkpt><trkpt lat="44.6904218" lon="9.2078796"><ele>1472.6</ele><time>2026-04-25T14:01:49.294Z</time></trkpt><trkpt lat="44.6905248" lon="9.2079105"><ele>1474.8</ele><time>2026-04-25T14:01:50.294Z</time></trkpt><trkpt lat="44.6906219" lon="9.2079768"><ele>1477.0</ele><time>2026-04-25T14:01:51.294Z</time></trkpt><trkpt lat="44.6907188" lon="9.2080704"><ele>1475.25</ele><time>2026-04-25T14:01:52.294Z</time></trkpt><trkpt lat="44.6908211" lon="9.2081789"><ele>1473.5</ele><time>2026-04-25T14:01:53.294Z</time></trkpt><trkpt lat="44.6909246" lon="9.2082783"><ele>1471.75</ele><time>2026-04-25T14:01:54.294Z</time></trkpt><trkpt lat="44.6910186" lon="9.2083742"><ele>1470.0</ele><time>2026-04-25T14:01:55.293Z</time></trkpt><trkpt lat="44.6911013" lon="9.2084666"><ele>1470.0</ele><time>2026-04-25T14:01:56.294Z</time></trkpt><trkpt lat="44.6911876" lon="9.2085503"><ele>1470.0</ele><time>2026-04-25T14:01:57.294Z</time></trkpt><trkpt lat="44.6912834" lon="9.2086164"><ele>1470.0</ele><time>2026-04-25T14:01:58.294Z</time></trkpt><trkpt lat="44.691383" lon="9.2086379"><ele>1470.0</ele><time>2026-04-25T14:01:59.294Z</time></trkpt><trkpt lat="44.691488" lon="9.208628"><ele>1470.0</ele><time>2026-04-25T14:02:00.294Z</time></trkpt><trkpt lat="44.6915915" lon="9.2086237"><ele>1470.0</ele><time>2026-04-25T14:02:01.294Z</time></trkpt><trkpt lat="44.6917084" lon="9.2086077"><ele>1470.0</ele><time>2026-04-25T14:02:02.293Z</time></trkpt><trkpt lat="44.6918273" lon="9.2085817"><ele>1470.0</ele><time>2026-04-25T14:02:03.294Z</time></trkpt><trkpt lat="44.6919296" lon="9.2085306"><ele>1470.0</ele><time>2026-04-25T14:02:04.294Z</time></trkpt><trkpt lat="44.6920105" lon="9.2084675"><ele>1470.0</ele><time>2026-04-25T14:02:05.294Z</time></trkpt><trkpt lat="44.6920794" lon="9.2083647"><ele>1470.6</ele><time>2026-04-25T14:02:06.294Z</time></trkpt><trkpt lat="44.6921316" lon="9.2082281"><ele>1471.2</ele><time>2026-04-25T14:02:07.294Z</time></trkpt><trkpt lat="44.6921596" lon="9.2080831"><ele>1471.8000000000002</ele><time>2026-04-25T14:02:08.294Z</time></trkpt><trkpt lat="44.692186" lon="9.207931"><ele>1472.4</ele><time>2026-04-25T14:02:09.294Z</time></trkpt><trkpt lat="44.6922099" lon="9.2077663"><ele>1473.0</ele><time>2026-04-25T14:02:10.294Z</time></trkpt><trkpt lat="44.692239" lon="9.2076029"><ele>1473.0</ele><time>2026-04-25T14:02:11.294Z</time></trkpt><trkpt lat="44.6922814" lon="9.2074284"><ele>1473.0</ele><time>2026-04-25T14:02:12.294Z</time></trkpt><trkpt lat="44.6923267" lon="9.2072953"><ele>1473.0</ele><time>2026-04-25T14:02:13.294Z</time></trkpt><trkpt lat="44.6923797" lon="9.2071988"><ele>1473.0</ele><time>2026-04-25T14:02:14.294Z</time></trkpt><trkpt lat="44.6924495" lon="9.2071234"><ele>1473.0</ele><time>2026-04-25T14:02:15.294Z</time></trkpt><trkpt lat="44.6925295" lon="9.2070386"><ele>1475.0</ele><time>2026-04-25T14:02:16.294Z</time></trkpt><trkpt lat="44.692616" lon="9.2069284"><ele>1477.0</ele><time>2026-04-25T14:02:17.293Z</time></trkpt><trkpt lat="44.6927103" lon="9.2068171"><ele>1479.0</ele><time>2026-04-25T14:02:18.294Z</time></trkpt><trkpt lat="44.6928169" lon="9.2067283"><ele>1481.0</ele><time>2026-04-25T14:02:19.294Z</time></trkpt><trkpt lat="44.6929307" lon="9.2066652"><ele>1481.25</ele><time>2026-04-25T14:02:20.294Z</time></trkpt><trkpt lat="44.6930444" lon="9.2066362"><ele>1481.5</ele><time>2026-04-25T14:02:21.294Z</time></trkpt><trkpt lat="44.6931728" lon="9.2066544"><ele>1481.75</ele><time>2026-04-25T14:02:22.294Z</time></trkpt><trkpt lat="44.6933022" lon="9.206704"><ele>1482.0</ele><time>2026-04-25T14:02:23.294Z</time></trkpt><trkpt lat="44.6934362" lon="9.2067662"><ele>1482.0</ele><time>2026-04-25T14:02:24.294Z</time></trkpt><trkpt lat="44.6935765" lon="9.206827"><ele>1482.0</ele><time>2026-04-25T14:02:25.294Z</time></trkpt><trkpt lat="44.6937221" lon="9.2068828"><ele>1482.0</ele><time>2026-04-25T14:02:26.294Z</time></trkpt><trkpt lat="44.6938712" lon="9.2069193"><ele>1482.0</ele><time>2026-04-25T14:02:27.294Z</time></trkpt><trkpt lat="44.6940299" lon="9.2069315"><ele>1482.0</ele><time>2026-04-25T14:02:28.294Z</time></trkpt><trkpt lat="44.6941742" lon="9.2069506"><ele>1482.0</ele><time>2026-04-25T14:02:29.294Z</time></trkpt><trkpt lat="44.6943204" lon="9.2069693"><ele>1482.0</ele><time>2026-04-25T14:02:30.294Z</time></trkpt><trkpt lat="44.694477" lon="9.2069924"><ele>1482.0</ele><time>2026-04-25T14:02:31.294Z</time></trkpt><trkpt lat="44.6946368" lon="9.2070129"><ele>1481.75</ele><time>2026-04-25T14:02:32.294Z</time></trkpt><trkpt lat="44.69479" lon="9.2070345"><ele>1481.5</ele><time>2026-04-25T14:02:33.294Z</time></trkpt><trkpt lat="44.6949338" lon="9.2070632"><ele>1481.25</ele><time>2026-04-25T14:02:34.294Z</time></trkpt><trkpt lat="44.6950702" lon="9.2071126"><ele>1481.0</ele><time>2026-04-25T14:02:35.294Z</time></trkpt><trkpt lat="44.695211" lon="9.2071956"><ele>1482.6666666666667</ele><time>2026-04-25T14:02:36.293Z</time></trkpt><trkpt lat="44.695353" lon="9.2073067"><ele>1484.3333333333333</ele><time>2026-04-25T14:02:37.294Z</time></trkpt><trkpt lat="44.6954974" lon="9.2074171"><ele>1486.0</ele><time>2026-04-25T14:02:38.294Z</time></trkpt><trkpt lat="44.6956423" lon="9.2075342"><ele>1481.0</ele><time>2026-04-25T14:02:39.294Z</time></trkpt><trkpt lat="44.6957833" lon="9.2076568"><ele>1476.0</ele><time>2026-04-25T14:02:40.294Z</time></trkpt><trkpt lat="44.6959192" lon="9.2077835"><ele>1471.0</ele><time>2026-04-25T14:02:41.294Z</time></trkpt><trkpt lat="44.6960551" lon="9.2079019"><ele>1469.0</ele><time>2026-04-25T14:02:42.294Z</time></trkpt><trkpt lat="44.6961935" lon="9.2080122"><ele>1467.0</ele><time>2026-04-25T14:02:43.294Z</time></trkpt><trkpt lat="44.696338" lon="9.2081284"><ele>1465.0</ele><time>2026-04-25T14:02:44.294Z</time></trkpt><trkpt lat="44.6964818" lon="9.2082507"><ele>1465.0</ele><time>2026-04-25T14:02:45.294Z</time></trkpt><trkpt lat="44.6966237" lon="9.2083724"><ele>1465.0</ele><time>2026-04-25T14:02:46.293Z</time></trkpt><trkpt lat="44.6967583" lon="9.2084912"><ele>1465.0</ele><time>2026-04-25T14:02:47.294Z</time></trkpt><trkpt lat="44.696885" lon="9.2085876"><ele>1467.5</ele><time>2026-04-25T14:02:48.294Z</time></trkpt><trkpt lat="44.6970112" lon="9.2086859"><ele>1470.0</ele><time>2026-04-25T14:02:49.294Z</time></trkpt><trkpt lat="44.697148" lon="9.2087379"><ele>1472.5</ele><time>2026-04-25T14:02:50.294Z</time></trkpt><trkpt lat="44.6972942" lon="9.2087528"><ele>1475.0</ele><time>2026-04-25T14:02:51.294Z</time></trkpt><trkpt lat="44.6974415" lon="9.2087426"><ele>1475.0</ele><time>2026-04-25T14:02:52.293Z</time></trkpt><trkpt lat="44.6975848" lon="9.2087172"><ele>1475.0</ele><time>2026-04-25T14:02:53.294Z</time></trkpt><trkpt lat="44.697713" lon="9.2086968"><ele>1475.0</ele><time>2026-04-25T14:02:54.294Z</time></trkpt><trkpt lat="44.6978257" lon="9.2087052"><ele>1475.0</ele><time>2026-04-25T14:02:55.294Z</time></trkpt><trkpt lat="44.6979086" lon="9.2087874"><ele>1475.2</ele><time>2026-04-25T14:02:56.293Z</time></trkpt><trkpt lat="44.6979679" lon="9.2089222"><ele>1475.4</ele><time>2026-04-25T14:02:57.294Z</time></trkpt><trkpt lat="44.6980191" lon="9.2090613"><ele>1475.6</ele><time>2026-04-25T14:02:58.294Z</time></trkpt><trkpt lat="44.6980838" lon="9.2091815"><ele>1475.8</ele><time>2026-04-25T14:02:59.294Z</time></trkpt><trkpt lat="44.6981629" lon="9.2092857"><ele>1476.0</ele><time>2026-04-25T14:03:00.294Z</time></trkpt><trkpt lat="44.6982667" lon="9.2093796"><ele>1474.0</ele><time>2026-04-25T14:03:01.294Z</time></trkpt><trkpt lat="44.6983841" lon="9.2094629"><ele>1472.0</ele><time>2026-04-25T14:03:02.294Z</time></trkpt><trkpt lat="44.6984959" lon="9.2095626"><ele>1470.0</ele><time>2026-04-25T14:03:03.294Z</time></trkpt><trkpt lat="44.6986138" lon="9.2096598"><ele>1468.0</ele><time>2026-04-25T14:03:04.294Z</time></trkpt><trkpt lat="44.698738" lon="9.2097482"><ele>1464.5</ele><time>2026-04-25T14:03:05.294Z</time></trkpt><trkpt lat="44.6988645" lon="9.2098305"><ele>1461.0</ele><time>2026-04-25T14:03:06.294Z</time></trkpt><trkpt lat="44.6989996" lon="9.2099201"><ele>1457.5</ele><time>2026-04-25T14:03:07.294Z</time></trkpt><trkpt lat="44.6991251" lon="9.2100258"><ele>1454.0</ele><time>2026-04-25T14:03:08.293Z</time></trkpt><trkpt lat="44.6992372" lon="9.2101277"><ele>1454.0</ele><time>2026-04-25T14:03:09.294Z</time></trkpt><trkpt lat="44.6993436" lon="9.2102497"><ele>1454.0</ele><time>2026-04-25T14:03:10.294Z</time></trkpt><trkpt lat="44.6994297" lon="9.2103877"><ele>1454.0</ele><time>2026-04-25T14:03:11.294Z</time></trkpt><trkpt lat="44.6995145" lon="9.2105235"><ele>1454.0</ele><time>2026-04-25T14:03:12.294Z</time></trkpt><trkpt lat="44.6995956" lon="9.2106386"><ele>1452.75</ele><time>2026-04-25T14:03:13.294Z</time></trkpt><trkpt lat="44.6996938" lon="9.2107192"><ele>1451.5</ele><time>2026-04-25T14:03:14.294Z</time></trkpt><trkpt lat="44.6998163" lon="9.2107541"><ele>1450.25</ele><time>2026-04-25T14:03:15.294Z</time></trkpt><trkpt lat="44.6999544" lon="9.2107617"><ele>1449.0</ele><time>2026-04-25T14:03:16.293Z</time></trkpt><trkpt lat="44.7000935" lon="9.2107717"><ele>1449.0</ele><time>2026-04-25T14:03:17.294Z</time></trkpt><trkpt lat="44.700222" lon="9.2108099"><ele>1449.0</ele><time>2026-04-25T14:03:18.294Z</time></trkpt><trkpt lat="44.7003425" lon="9.210866"><ele>1449.0</ele><time>2026-04-25T14:03:19.293Z</time></trkpt><trkpt lat="44.7004591" lon="9.2109366"><ele>1449.0</ele><time>2026-04-25T14:03:20.294Z</time></trkpt><trkpt lat="44.7005782" lon="9.2109794"><ele>1448.8333333333333</ele><time>2026-04-25T14:03:21.294Z</time></trkpt><trkpt lat="44.7006911" lon="9.2110141"><ele>1448.6666666666667</ele><time>2026-04-25T14:03:22.294Z</time></trkpt><trkpt lat="44.7007859" lon="9.2110464"><ele>1448.5</ele><time>2026-04-25T14:03:23.294Z</time></trkpt><trkpt lat="44.7008481" lon="9.2111039"><ele>1448.3333333333335</ele><time>2026-04-25T14:03:24.294Z</time></trkpt><trkpt lat="44.7008907" lon="9.211198"><ele>1448.1666666666667</ele><time>2026-04-25T14:03:25.294Z</time></trkpt><trkpt lat="44.7009116" lon="9.2113052"><ele>1448.0</ele><time>2026-04-25T14:03:26.294Z</time></trkpt><trkpt lat="44.700917" lon="9.2114329"><ele>1444.75</ele><time>2026-04-25T14:03:27.294Z</time></trkpt><trkpt lat="44.7009222" lon="9.2115897"><ele>1441.5</ele><time>2026-04-25T14:03:28.294Z</time></trkpt><trkpt lat="44.7009509" lon="9.2117588"><ele>1438.25</ele><time>2026-04-25T14:03:29.293Z</time></trkpt><trkpt lat="44.701005" lon="9.2119268"><ele>1435.0</ele><time>2026-04-25T14:03:30.294Z</time></trkpt><trkpt lat="44.701072" lon="9.2121064"><ele>1436.75</ele><time>2026-04-25T14:03:31.294Z</time></trkpt><trkpt lat="44.7011229" lon="9.2122927"><ele>1438.5</ele><time>2026-04-25T14:03:32.294Z</time></trkpt><trkpt lat="44.7011516" lon="9.2124878"><ele>1440.25</ele><time>2026-04-25T14:03:33.294Z</time></trkpt><trkpt lat="44.7011792" lon="9.212677"><ele>1442.0</ele><time>2026-04-25T14:03:34.294Z</time></trkpt><trkpt lat="44.7012301" lon="9.2128616"><ele>1442.0</ele><time>2026-04-25T14:03:35.294Z</time></trkpt><trkpt lat="44.7012892" lon="9.213053"><ele>1442.0</ele><time>2026-04-25T14:03:36.293Z</time></trkpt><trkpt lat="44.7013566" lon="9.2132327"><ele>1442.0</ele><time>2026-04-25T14:03:37.294Z</time></trkpt><trkpt lat="44.701431" lon="9.2133975"><ele>1442.0</ele><time>2026-04-25T14:03:38.294Z</time></trkpt><trkpt lat="44.701506" lon="9.2135506"><ele>1440.0</ele><time>2026-04-25T14:03:39.294Z</time></trkpt><trkpt lat="44.701586" lon="9.213702"><ele>1438.0</ele><time>2026-04-25T14:03:40.294Z</time></trkpt><trkpt lat="44.7016699" lon="9.2138233"><ele>1436.0</ele><time>2026-04-25T14:03:41.294Z</time></trkpt><trkpt lat="44.7017717" lon="9.2139158"><ele>1434.0</ele><time>2026-04-25T14:03:42.294Z</time></trkpt><trkpt lat="44.7018863" lon="9.2139959"><ele>1435.25</ele><time>2026-04-25T14:03:43.294Z</time></trkpt><trkpt lat="44.7019962" lon="9.2140874"><ele>1436.5</ele><time>2026-04-25T14:03:44.294Z</time></trkpt><trkpt lat="44.7020988" lon="9.2141989"><ele>1437.75</ele><time>2026-04-25T14:03:45.294Z</time></trkpt><trkpt lat="44.7021879" lon="9.2143278"><ele>1439.0</ele><time>2026-04-25T14:03:46.294Z</time></trkpt><trkpt lat="44.702268" lon="9.2144697"><ele>1439.0</ele><time>2026-04-25T14:03:47.294Z</time></trkpt><trkpt lat="44.7023236" lon="9.2146253"><ele>1439.0</ele><time>2026-04-25T14:03:48.294Z</time></trkpt><trkpt lat="44.7023532" lon="9.214801"><ele>1439.0</ele><time>2026-04-25T14:03:49.294Z</time></trkpt><trkpt lat="44.7023669" lon="9.2149734"><ele>1439.0</ele><time>2026-04-25T14:03:50.294Z</time></trkpt><trkpt lat="44.7023805" lon="9.2151373"><ele>1436.6</ele><time>2026-04-25T14:03:51.294Z</time></trkpt><trkpt lat="44.7024107" lon="9.2152966"><ele>1434.2</ele><time>2026-04-25T14:03:52.294Z</time></trkpt><trkpt lat="44.7024714" lon="9.2154261"><ele>1431.8</ele><time>2026-04-25T14:03:53.294Z</time></trkpt><trkpt lat="44.70255" lon="9.2155141"><ele>1429.3999999999999</ele><time>2026-04-25T14:03:54.294Z</time></trkpt><trkpt lat="44.7026551" lon="9.215575"><ele>1427.0</ele><time>2026-04-25T14:03:55.294Z</time></trkpt><trkpt lat="44.7027633" lon="9.2156056"><ele>1423.0</ele><time>2026-04-25T14:03:56.294Z</time></trkpt><trkpt lat="44.7028734" lon="9.2155906"><ele>1419.0</ele><time>2026-04-25T14:03:57.293Z</time></trkpt><trkpt lat="44.7029579" lon="9.2155382"><ele>1415.0</ele><time>2026-04-25T14:03:58.294Z</time></trkpt><trkpt lat="44.7030303" lon="9.2154512"><ele>1411.0</ele><time>2026-04-25T14:03:59.294Z</time></trkpt><trkpt lat="44.70309" lon="9.2153342"><ele>1407.0</ele><time>2026-04-25T14:04:00.294Z</time></trkpt><trkpt lat="44.7031346" lon="9.2151838"><ele>1407.0</ele><time>2026-04-25T14:04:01.294Z</time></trkpt><trkpt lat="44.7031607" lon="9.2149643"><ele>1407.0</ele><time>2026-04-25T14:04:02.294Z</time></trkpt><trkpt lat="44.7031928" lon="9.2147373"><ele>1407.0</ele><time>2026-04-25T14:04:03.294Z</time></trkpt><trkpt lat="44.7032382" lon="9.2145153"><ele>1410.0</ele><time>2026-04-25T14:04:04.294Z</time></trkpt><trkpt lat="44.7032879" lon="9.2142932"><ele>1413.0</ele><time>2026-04-25T14:04:05.294Z</time></trkpt><trkpt lat="44.70333" lon="9.2140596"><ele>1416.0</ele><time>2026-04-25T14:04:06.294Z</time></trkpt><trkpt lat="44.703372" lon="9.2138506"><ele>1418.5</ele><time>2026-04-25T14:04:07.294Z</time></trkpt><trkpt lat="44.7034117" lon="9.213653"><ele>1421.0</ele><time>2026-04-25T14:04:08.294Z</time></trkpt><trkpt lat="44.7034663" lon="9.2134489"><ele>1423.5</ele><time>2026-04-25T14:04:09.293Z</time></trkpt><trkpt lat="44.7035156" lon="9.2132519"><ele>1426.0</ele><time>2026-04-25T14:04:10.294Z</time></trkpt><trkpt lat="44.703587" lon="9.2130694"><ele>1414.0</ele><time>2026-04-25T14:04:11.294Z</time></trkpt><trkpt lat="44.7036561" lon="9.212896"><ele>1402.0</ele><time>2026-04-25T14:04:12.294Z</time></trkpt><trkpt lat="44.7037489" lon="9.2127172"><ele>1390.0</ele><time>2026-04-25T14:04:13.294Z</time></trkpt><trkpt lat="44.7038247" lon="9.2125119"><ele>1395.5</ele><time>2026-04-25T14:04:14.294Z</time></trkpt><trkpt lat="44.7039028" lon="9.2123128"><ele>1401.0</ele><time>2026-04-25T14:04:15.294Z</time></trkpt><trkpt lat="44.7039742" lon="9.2121394"><ele>1406.5</ele><time>2026-04-25T14:04:16.294Z</time></trkpt><trkpt lat="44.7040452" lon="9.2119674"><ele>1412.0</ele><time>2026-04-25T14:04:17.294Z</time></trkpt><trkpt lat="44.7040999" lon="9.2118105"><ele>1412.0</ele><time>2026-04-25T14:04:18.294Z</time></trkpt><trkpt lat="44.7041562" lon="9.2116837"><ele>1412.0</ele><time>2026-04-25T14:04:19.294Z</time></trkpt><trkpt lat="44.704214" lon="9.2115731"><ele>1412.0</ele><time>2026-04-25T14:04:20.294Z</time></trkpt><trkpt lat="44.704267" lon="9.2114844"><ele>1412.0</ele><time>2026-04-25T14:04:21.294Z</time></trkpt><trkpt lat="44.7043386" lon="9.2114044"><ele>1412.0</ele><time>2026-04-25T14:04:22.294Z</time></trkpt><trkpt lat="44.7044403" lon="9.2113298"><ele>1411.5</ele><time>2026-04-25T14:04:23.294Z</time></trkpt><trkpt lat="44.7045411" lon="9.2112642"><ele>1411.0</ele><time>2026-04-25T14:04:24.294Z</time></trkpt><trkpt lat="44.704659" lon="9.2111867"><ele>1410.5</ele><time>2026-04-25T14:04:25.294Z</time></trkpt><trkpt lat="44.7047707" lon="9.211107"><ele>1410.0</ele><time>2026-04-25T14:04:26.294Z</time></trkpt><trkpt lat="44.7048917" lon="9.2110298"><ele>1410.0</ele><time>2026-04-25T14:04:27.294Z</time></trkpt><trkpt lat="44.7050023" lon="9.2109732"><ele>1410.0</ele><time>2026-04-25T14:04:28.294Z</time></trkpt><trkpt lat="44.7051505" lon="9.2109405"><ele>1410.0</ele><time>2026-04-25T14:04:29.294Z</time></trkpt><trkpt lat="44.705297" lon="9.2108939"><ele>1410.0</ele><time>2026-04-25T14:04:30.294Z</time></trkpt><trkpt lat="44.7054359" lon="9.2108783"><ele>1407.5</ele><time>2026-04-25T14:04:31.293Z</time></trkpt><trkpt lat="44.7055642" lon="9.2108654"><ele>1405.0</ele><time>2026-04-25T14:04:32.293Z</time></trkpt><trkpt lat="44.7056916" lon="9.2108228"><ele>1402.5</ele><time>2026-04-25T14:04:33.294Z</time></trkpt><trkpt lat="44.7058147" lon="9.2108387"><ele>1400.0</ele><time>2026-04-25T14:04:34.294Z</time></trkpt><trkpt lat="44.7059511" lon="9.2108691"><ele>1397.0</ele><time>2026-04-25T14:04:35.294Z</time></trkpt><trkpt lat="44.7060803" lon="9.2109169"><ele>1394.0</ele><time>2026-04-25T14:04:36.294Z</time></trkpt><trkpt lat="44.7062008" lon="9.2109731"><ele>1391.0</ele><time>2026-04-25T14:04:37.294Z</time></trkpt><trkpt lat="44.7063318" lon="9.2109977"><ele>1388.0</ele><time>2026-04-25T14:04:38.294Z</time></trkpt><trkpt lat="44.7064615" lon="9.2109949"><ele>1388.0</ele><time>2026-04-25T14:04:39.294Z</time></trkpt><trkpt lat="44.7065721" lon="9.2109744"><ele>1388.0</ele><time>2026-04-25T14:04:40.294Z</time></trkpt><trkpt lat="44.7066439" lon="9.2109293"><ele>1388.0</ele><time>2026-04-25T14:04:41.294Z</time></trkpt><trkpt lat="44.7067251" lon="9.2108433"><ele>1388.0</ele><time>2026-04-25T14:04:42.294Z</time></trkpt><trkpt lat="44.7067985" lon="9.2107271"><ele>1388.0</ele><time>2026-04-25T14:04:43.294Z</time></trkpt><trkpt lat="44.7068906" lon="9.210601"><ele>1386.5</ele><time>2026-04-25T14:04:44.293Z</time></trkpt><trkpt lat="44.7069996" lon="9.2104462"><ele>1385.0</ele><time>2026-04-25T14:04:45.294Z</time></trkpt><trkpt lat="44.7070914" lon="9.2102986"><ele>1383.5</ele><time>2026-04-25T14:04:46.294Z</time></trkpt><trkpt lat="44.7071826" lon="9.2101571"><ele>1382.0</ele><time>2026-04-25T14:04:47.293Z</time></trkpt><trkpt lat="44.7072682" lon="9.2100229"><ele>1382.0</ele><time>2026-04-25T14:04:48.294Z</time></trkpt><trkpt lat="44.7073561" lon="9.2098825"><ele>1382.0</ele><time>2026-04-25T14:04:49.294Z</time></trkpt><trkpt lat="44.7074582" lon="9.2097639"><ele>1382.0</ele><time>2026-04-25T14:04:50.294Z</time></trkpt><trkpt lat="44.7075869" lon="9.2096639"><ele>1382.0</ele><time>2026-04-25T14:04:51.294Z</time></trkpt><trkpt lat="44.7077112" lon="9.2095646"><ele>1384.0</ele><time>2026-04-25T14:04:52.294Z</time></trkpt><trkpt lat="44.7078312" lon="9.2094579"><ele>1386.0</ele><time>2026-04-25T14:04:53.294Z</time></trkpt><trkpt lat="44.7079401" lon="9.2093571"><ele>1388.0</ele><time>2026-04-25T14:04:54.294Z</time></trkpt><trkpt lat="44.7080513" lon="9.2092673"><ele>1390.0</ele><time>2026-04-25T14:04:55.294Z</time></trkpt><trkpt lat="44.7081571" lon="9.2091909"><ele>1390.0</ele><time>2026-04-25T14:04:56.294Z</time></trkpt><trkpt lat="44.708274" lon="9.2091357"><ele>1390.0</ele><time>2026-04-25T14:04:57.294Z</time></trkpt><trkpt lat="44.7083928" lon="9.2091036"><ele>1390.0</ele><time>2026-04-25T14:04:58.294Z</time></trkpt><trkpt lat="44.7085186" lon="9.209086"><ele>1390.0</ele><time>2026-04-25T14:04:59.294Z</time></trkpt><trkpt lat="44.7086435" lon="9.2090563"><ele>1387.75</ele><time>2026-04-25T14:05:00.294Z</time></trkpt><trkpt lat="44.7087686" lon="9.2090171"><ele>1385.5</ele><time>2026-04-25T14:05:01.294Z</time></trkpt><trkpt lat="44.7089134" lon="9.2090316"><ele>1383.25</ele><time>2026-04-25T14:05:02.294Z</time></trkpt><trkpt lat="44.7090674" lon="9.2090567"><ele>1381.0</ele><time>2026-04-25T14:05:03.294Z</time></trkpt><trkpt lat="44.7092149" lon="9.2091095"><ele>1381.0</ele><time>2026-04-25T14:05:04.294Z</time></trkpt><trkpt lat="44.7093532" lon="9.2091722"><ele>1381.0</ele><time>2026-04-25T14:05:05.294Z</time></trkpt><trkpt lat="44.7094959" lon="9.2092221"><ele>1381.0</ele><time>2026-04-25T14:05:06.294Z</time></trkpt><trkpt lat="44.7096389" lon="9.2092748"><ele>1381.0</ele><time>2026-04-25T14:05:07.294Z</time></trkpt><trkpt lat="44.7097813" lon="9.2093117"><ele>1382.0</ele><time>2026-04-25T14:05:08.294Z</time></trkpt><trkpt lat="44.7099169" lon="9.209343"><ele>1383.0</ele><time>2026-04-25T14:05:09.294Z</time></trkpt><trkpt lat="44.7100446" lon="9.2093815"><ele>1384.0</ele><time>2026-04-25T14:05:10.294Z</time></trkpt><trkpt lat="44.7101725" lon="9.2094029"><ele>1385.0</ele><time>2026-04-25T14:05:11.294Z</time></trkpt><trkpt lat="44.7103039" lon="9.2094179"><ele>1386.0</ele><time>2026-04-25T14:05:12.294Z</time></trkpt><trkpt lat="44.7104376" lon="9.2094189"><ele>1387.0</ele><time>2026-04-25T14:05:13.293Z</time></trkpt><trkpt lat="44.7105772" lon="9.2094251"><ele>1388.0</ele><time>2026-04-25T14:05:14.294Z</time></trkpt><trkpt lat="44.7107238" lon="9.2094043"><ele>1389.0</ele><time>2026-04-25T14:05:15.294Z</time></trkpt><trkpt lat="44.7108639" lon="9.2093718"><ele>1389.0</ele><time>2026-04-25T14:05:16.294Z</time></trkpt><trkpt lat="44.7109952" lon="9.209328"><ele>1389.0</ele><time>2026-04-25T14:05:17.293Z</time></trkpt><trkpt lat="44.711112" lon="9.209288"><ele>1389.0</ele><time>2026-04-25T14:05:18.294Z</time></trkpt><trkpt lat="44.7112245" lon="9.2092753"><ele>1389.0</ele><time>2026-04-25T14:05:19.294Z</time></trkpt><trkpt lat="44.7113303" lon="9.2093018"><ele>1390.75</ele><time>2026-04-25T14:05:20.294Z</time></trkpt><trkpt lat="44.7114318" lon="9.2093491"><ele>1392.5</ele><time>2026-04-25T14:05:21.294Z</time></trkpt><trkpt lat="44.7115387" lon="9.2094114"><ele>1394.25</ele><time>2026-04-25T14:05:22.294Z</time></trkpt><trkpt lat="44.7116621" lon="9.20948"><ele>1396.0</ele><time>2026-04-25T14:05:23.294Z</time></trkpt><trkpt lat="44.7117877" lon="9.2095262"><ele>1396.5</ele><time>2026-04-25T14:05:24.294Z</time></trkpt><trkpt lat="44.7119181" lon="9.209558"><ele>1397.0</ele><time>2026-04-25T14:05:25.294Z</time></trkpt><trkpt lat="44.7120485" lon="9.2095744"><ele>1397.5</ele><time>2026-04-25T14:05:26.294Z</time></trkpt><trkpt lat="44.712179" lon="9.2095803"><ele>1398.0</ele><time>2026-04-25T14:05:27.294Z</time></trkpt><trkpt lat="44.7123122" lon="9.2095921"><ele>1398.0</ele><time>2026-04-25T14:05:28.294Z</time></trkpt><trkpt lat="44.7124395" lon="9.2096018"><ele>1398.0</ele><time>2026-04-25T14:05:29.293Z</time></trkpt><trkpt lat="44.7125666" lon="9.2096144"><ele>1398.0</ele><time>2026-04-25T14:05:30.294Z</time></trkpt><trkpt lat="44.7126896" lon="9.2096148"><ele>1398.0</ele><time>2026-04-25T14:05:31.294Z</time></trkpt><trkpt lat="44.7128069" lon="9.2095906"><ele>1395.6666666666667</ele><time>2026-04-25T14:05:32.294Z</time></trkpt><trkpt lat="44.712908" lon="9.2095691"><ele>1393.3333333333333</ele><time>2026-04-25T14:05:33.294Z</time></trkpt><trkpt lat="44.7130025" lon="9.2095336"><ele>1391.0</ele><time>2026-04-25T14:05:34.294Z</time></trkpt><trkpt lat="44.7130717" lon="9.2094813"><ele>1388.6666666666665</ele><time>2026-04-25T14:05:35.294Z</time></trkpt><trkpt lat="44.7131244" lon="9.2093954"><ele>1386.3333333333333</ele><time>2026-04-25T14:05:36.294Z</time></trkpt><trkpt lat="44.713166" lon="9.2092907"><ele>1384.0</ele><time>2026-04-25T14:05:37.294Z</time></trkpt><trkpt lat="44.7131888" lon="9.2091584"><ele>1384.0</ele><time>2026-04-25T14:05:38.293Z</time></trkpt><trkpt lat="44.7132201" lon="9.2090185"><ele>1384.0</ele><time>2026-04-25T14:05:39.294Z</time></trkpt><trkpt lat="44.713277" lon="9.2088829"><ele>1384.0</ele><time>2026-04-25T14:05:40.294Z</time></trkpt><trkpt lat="44.7133418" lon="9.2087693"><ele>1384.0</ele><time>2026-04-25T14:05:41.294Z</time></trkpt><trkpt lat="44.7134394" lon="9.2086606"><ele>1384.0</ele><time>2026-04-25T14:05:42.294Z</time></trkpt><trkpt lat="44.7135518" lon="9.2085542"><ele>1383.25</ele><time>2026-04-25T14:05:43.294Z</time></trkpt><trkpt lat="44.7136641" lon="9.2084356"><ele>1382.5</ele><time>2026-04-25T14:05:44.294Z</time></trkpt><trkpt lat="44.7137666" lon="9.2083263"><ele>1381.75</ele><time>2026-04-25T14:05:45.294Z</time></trkpt><trkpt lat="44.7138717" lon="9.2082217"><ele>1381.0</ele><time>2026-04-25T14:05:46.294Z</time></trkpt><trkpt lat="44.7139756" lon="9.2081544"><ele>1386.25</ele><time>2026-04-25T14:05:47.294Z</time></trkpt><trkpt lat="44.7141086" lon="9.2081147"><ele>1391.5</ele><time>2026-04-25T14:05:48.294Z</time></trkpt><trkpt lat="44.7142502" lon="9.2080913"><ele>1396.75</ele><time>2026-04-25T14:05:49.294Z</time></trkpt><trkpt lat="44.714388" lon="9.208057"><ele>1402.0</ele><time>2026-04-25T14:05:50.294Z</time></trkpt><trkpt lat="44.7145311" lon="9.2080244"><ele>1402.0</ele><time>2026-04-25T14:05:51.294Z</time></trkpt><trkpt lat="44.7146762" lon="9.2079978"><ele>1402.0</ele><time>2026-04-25T14:05:52.294Z</time></trkpt><trkpt lat="44.7148144" lon="9.2079946"><ele>1402.0</ele><time>2026-04-25T14:05:53.294Z</time></trkpt><trkpt lat="44.7149372" lon="9.2080264"><ele>1402.0</ele><time>2026-04-25T14:05:54.293Z</time></trkpt><trkpt lat="44.7150637" lon="9.208111"><ele>1395.5</ele><time>2026-04-25T14:05:55.294Z</time></trkpt><trkpt lat="44.7151869" lon="9.2082109"><ele>1389.0</ele><time>2026-04-25T14:05:56.294Z</time></trkpt><trkpt lat="44.7153106" lon="9.2083404"><ele>1382.5</ele><time>2026-04-25T14:05:57.294Z</time></trkpt><trkpt lat="44.7154271" lon="9.208461"><ele>1376.0</ele><time>2026-04-25T14:05:58.294Z</time></trkpt><trkpt lat="44.7155436" lon="9.2086006"><ele>1376.0</ele><time>2026-04-25T14:05:59.294Z</time></trkpt><trkpt lat="44.7156526" lon="9.2087434"><ele>1376.0</ele><time>2026-04-25T14:06:00.294Z</time></trkpt><trkpt lat="44.7157569" lon="9.2088572"><ele>1376.0</ele><time>2026-04-25T14:06:01.294Z</time></trkpt><trkpt lat="44.7158364" lon="9.2089394"><ele>1376.0</ele><time>2026-04-25T14:06:02.294Z</time></trkpt><trkpt lat="44.7159195" lon="9.209001"><ele>1374.5</ele><time>2026-04-25T14:06:03.294Z</time></trkpt><trkpt lat="44.7160038" lon="9.2090276"><ele>1373.0</ele><time>2026-04-25T14:06:04.294Z</time></trkpt><trkpt lat="44.7160845" lon="9.2090131"><ele>1371.5</ele><time>2026-04-25T14:06:05.294Z</time></trkpt><trkpt lat="44.7161633" lon="9.2089656"><ele>1370.0</ele><time>2026-04-25T14:06:06.294Z</time></trkpt><trkpt lat="44.7162424" lon="9.208898"><ele>1368.5</ele><time>2026-04-25T14:06:07.294Z</time></trkpt><trkpt lat="44.7163118" lon="9.208855"><ele>1367.0</ele><time>2026-04-25T14:06:08.294Z</time></trkpt><trkpt lat="44.7163818" lon="9.2088365"><ele>1367.0</ele><time>2026-04-25T14:06:09.294Z</time></trkpt><trkpt lat="44.71645" lon="9.2088545"><ele>1367.0</ele><time>2026-04-25T14:06:10.293Z</time></trkpt><trkpt lat="44.7165228" lon="9.2088979"><ele>1367.0</ele><time>2026-04-25T14:06:11.294Z</time></trkpt><trkpt lat="44.7166018" lon="9.2089764"><ele>1367.0</ele><time>2026-04-25T14:06:12.294Z</time></trkpt><trkpt lat="44.7167044" lon="9.2090592"><ele>1367.0</ele><time>2026-04-25T14:06:13.294Z</time></trkpt><trkpt lat="44.7168053" lon="9.2091509"><ele>1367.0</ele><time>2026-04-25T14:06:14.294Z</time></trkpt><trkpt lat="44.7168979" lon="9.2092677"><ele>1367.0</ele><time>2026-04-25T14:06:15.294Z</time></trkpt><trkpt lat="44.7169828" lon="9.2094095"><ele>1367.0</ele><time>2026-04-25T14:06:16.294Z</time></trkpt><trkpt lat="44.7170692" lon="9.2095467"><ele>1367.0</ele><time>2026-04-25T14:06:17.294Z</time></trkpt><trkpt lat="44.7171541" lon="9.2096748"><ele>1364.1999999999998</ele><time>2026-04-25T14:06:18.294Z</time></trkpt><trkpt lat="44.7172467" lon="9.2097771"><ele>1361.4</ele><time>2026-04-25T14:06:19.294Z</time></trkpt><trkpt lat="44.7173419" lon="9.2098414"><ele>1358.6</ele><time>2026-04-25T14:06:20.294Z</time></trkpt><trkpt lat="44.7174444" lon="9.2098921"><ele>1355.8000000000002</ele><time>2026-04-25T14:06:21.294Z</time></trkpt><trkpt lat="44.7175519" lon="9.2099134"><ele>1353.0</ele><time>2026-04-25T14:06:22.293Z</time></trkpt><trkpt lat="44.7176678" lon="9.2099242"><ele>1353.25</ele><time>2026-04-25T14:06:23.294Z</time></trkpt><trkpt lat="44.7177887" lon="9.2099332"><ele>1353.5</ele><time>2026-04-25T14:06:24.294Z</time></trkpt><trkpt lat="44.7179153" lon="9.2099417"><ele>1353.75</ele><time>2026-04-25T14:06:25.294Z</time></trkpt><trkpt lat="44.7180406" lon="9.2099458"><ele>1354.0</ele><time>2026-04-25T14:06:26.294Z</time></trkpt><trkpt lat="44.7181604" lon="9.2099573"><ele>1354.0</ele><time>2026-04-25T14:06:27.294Z</time></trkpt><trkpt lat="44.7182874" lon="9.2099633"><ele>1354.0</ele><time>2026-04-25T14:06:28.293Z</time></trkpt><trkpt lat="44.7184273" lon="9.209977"><ele>1354.0</ele><time>2026-04-25T14:06:29.294Z</time></trkpt><trkpt lat="44.7185602" lon="9.2099856"><ele>1354.0</ele><time>2026-04-25T14:06:30.294Z</time></trkpt><trkpt lat="44.7186829" lon="9.2099963"><ele>1354.2</ele><time>2026-04-25T14:06:31.294Z</time></trkpt><trkpt lat="44.7187957" lon="9.2099999"><ele>1354.4</ele><time>2026-04-25T14:06:32.293Z</time></trkpt><trkpt lat="44.7189071" lon="9.2099863"><ele>1354.6</ele><time>2026-04-25T14:06:33.294Z</time></trkpt><trkpt lat="44.7190197" lon="9.2099836"><ele>1354.8</ele><time>2026-04-25T14:06:34.294Z</time></trkpt><trkpt lat="44.7191193" lon="9.2099729"><ele>1355.0</ele><time>2026-04-25T14:06:35.293Z</time></trkpt><trkpt lat="44.7192033" lon="9.2100159"><ele>1355.0</ele><time>2026-04-25T14:06:36.294Z</time></trkpt><trkpt lat="44.7192898" lon="9.2100758"><ele>1355.0</ele><time>2026-04-25T14:06:37.294Z</time></trkpt><trkpt lat="44.7193616" lon="9.2101321"><ele>1355.0</ele><time>2026-04-25T14:06:38.293Z</time></trkpt><trkpt lat="44.7194427" lon="9.210157"><ele>1355.0</ele><time>2026-04-25T14:06:39.294Z</time></trkpt><trkpt lat="44.7195247" lon="9.2101543"><ele>1355.0</ele><time>2026-04-25T14:06:40.294Z</time></trkpt><trkpt lat="44.7196056" lon="9.210126"><ele>1355.0</ele><time>2026-04-25T14:06:41.294Z</time></trkpt><trkpt lat="44.7196943" lon="9.2100589"><ele>1358.75</ele><time>2026-04-25T14:06:42.293Z</time></trkpt><trkpt lat="44.7197877" lon="9.2099599"><ele>1362.5</ele><time>2026-04-25T14:06:43.294Z</time></trkpt><trkpt lat="44.7198875" lon="9.2098595"><ele>1366.25</ele><time>2026-04-25T14:06:44.294Z</time></trkpt><trkpt lat="44.72" lon="9.209772"><ele>1370.0</ele><time>2026-04-25T14:06:45.294Z</time></trkpt><trkpt lat="44.7201276" lon="9.2096764"><ele>1362.5</ele><time>2026-04-25T14:06:46.294Z</time></trkpt><trkpt lat="44.7202558" lon="9.2095698"><ele>1355.0</ele><time>2026-04-25T14:06:47.293Z</time></trkpt><trkpt lat="44.72038" lon="9.209464"><ele>1347.5</ele><time>2026-04-25T14:06:48.294Z</time></trkpt><trkpt lat="44.720491" lon="9.2093564"><ele>1340.0</ele><time>2026-04-25T14:06:49.294Z</time></trkpt><trkpt lat="44.7206048" lon="9.2092562"><ele>1340.0</ele><time>2026-04-25T14:06:50.294Z</time></trkpt><trkpt lat="44.7207131" lon="9.2091641"><ele>1340.0</ele><time>2026-04-25T14:06:51.294Z</time></trkpt><trkpt lat="44.7208022" lon="9.2090902"><ele>1340.0</ele><time>2026-04-25T14:06:52.294Z</time></trkpt><trkpt lat="44.7208772" lon="9.2090302"><ele>1340.0</ele><time>2026-04-25T14:06:53.294Z</time></trkpt><trkpt lat="44.7209388" lon="9.2089992"><ele>1340.0</ele><time>2026-04-25T14:06:54.294Z</time></trkpt><trkpt lat="44.7210089" lon="9.2090064"><ele>1341.4</ele><time>2026-04-25T14:06:55.293Z</time></trkpt><trkpt lat="44.7210875" lon="9.2090321"><ele>1342.8</ele><time>2026-04-25T14:06:56.294Z</time></trkpt><trkpt lat="44.7211711" lon="9.2090784"><ele>1344.1999999999998</ele><time>2026-04-25T14:06:57.294Z</time></trkpt><trkpt lat="44.721267" lon="9.2091427"><ele>1345.6</ele><time>2026-04-25T14:06:58.294Z</time></trkpt><trkpt lat="44.7213604" lon="9.2092054"><ele>1347.0</ele><time>2026-04-25T14:06:59.294Z</time></trkpt><trkpt lat="44.7214308" lon="9.2092774"><ele>1347.0</ele><time>2026-04-25T14:07:00.294Z</time></trkpt><trkpt lat="44.7214781" lon="9.2093732"><ele>1347.0</ele><time>2026-04-25T14:07:01.294Z</time></trkpt><trkpt lat="44.7215063" lon="9.2094806"><ele>1347.0</ele><time>2026-04-25T14:07:02.294Z</time></trkpt><trkpt lat="44.7215272" lon="9.2096164"><ele>1347.0</ele><time>2026-04-25T14:07:03.294Z</time></trkpt><trkpt lat="44.7215698" lon="9.2097629"><ele>1347.0</ele><time>2026-04-25T14:07:04.294Z</time></trkpt><trkpt lat="44.7216327" lon="9.2099087"><ele>1345.75</ele><time>2026-04-25T14:07:05.294Z</time></trkpt><trkpt lat="44.7217067" lon="9.2100332"><ele>1344.5</ele><time>2026-04-25T14:07:06.294Z</time></trkpt><trkpt lat="44.7217864" lon="9.2101524"><ele>1343.25</ele><time>2026-04-25T14:07:07.294Z</time></trkpt><trkpt lat="44.7218827" lon="9.210245"><ele>1342.0</ele><time>2026-04-25T14:07:08.294Z</time></trkpt><trkpt lat="44.7219985" lon="9.2103185"><ele>1342.0</ele><time>2026-04-25T14:07:09.294Z</time></trkpt><trkpt lat="44.7221319" lon="9.2103653"><ele>1342.0</ele><time>2026-04-25T14:07:10.294Z</time></trkpt><trkpt lat="44.7222853" lon="9.2103965"><ele>1342.0</ele><time>2026-04-25T14:07:11.294Z</time></trkpt><trkpt lat="44.7224493" lon="9.2104405"><ele>1342.0</ele><time>2026-04-25T14:07:12.294Z</time></trkpt><trkpt lat="44.7226157" lon="9.2104836"><ele>1342.0</ele><time>2026-04-25T14:07:13.294Z</time></trkpt><trkpt lat="44.7227751" lon="9.2105193"><ele>1342.0</ele><time>2026-04-25T14:07:14.294Z</time></trkpt><trkpt lat="44.7229276" lon="9.2105531"><ele>1337.75</ele><time>2026-04-25T14:07:15.294Z</time></trkpt><trkpt lat="44.7230648" lon="9.2105836"><ele>1333.5</ele><time>2026-04-25T14:07:16.294Z</time></trkpt><trkpt lat="44.7232025" lon="9.2106198"><ele>1329.25</ele><time>2026-04-25T14:07:17.294Z</time></trkpt><trkpt lat="44.7233422" lon="9.210657"><ele>1325.0</ele><time>2026-04-25T14:07:18.294Z</time></trkpt><trkpt lat="44.72347" lon="9.2106989"><ele>1329.6</ele><time>2026-04-25T14:07:19.294Z</time></trkpt><trkpt lat="44.7235801" lon="9.2107738"><ele>1334.2</ele><time>2026-04-25T14:07:20.294Z</time></trkpt><trkpt lat="44.7236537" lon="9.2108834"><ele>1338.8000000000002</ele><time>2026-04-25T14:07:21.294Z</time></trkpt><trkpt lat="44.7236976" lon="9.2110161"><ele>1343.4</ele><time>2026-04-25T14:07:22.294Z</time></trkpt><trkpt lat="44.723724" lon="9.2111639"><ele>1348.0</ele><time>2026-04-25T14:07:23.294Z</time></trkpt><trkpt lat="44.7237305" lon="9.2113334"><ele>1346.25</ele><time>2026-04-25T14:07:24.294Z</time></trkpt><trkpt lat="44.7237229" lon="9.211516"><ele>1344.5</ele><time>2026-04-25T14:07:25.294Z</time></trkpt><trkpt lat="44.7237004" lon="9.2117023"><ele>1342.75</ele><time>2026-04-25T14:07:26.294Z</time></trkpt><trkpt lat="44.7236677" lon="9.2118831"><ele>1341.0</ele><time>2026-04-25T14:07:27.294Z</time></trkpt><trkpt lat="44.7236363" lon="9.2120542"><ele>1341.0</ele><time>2026-04-25T14:07:28.294Z</time></trkpt><trkpt lat="44.723587" lon="9.2122064"><ele>1341.0</ele><time>2026-04-25T14:07:29.293Z</time></trkpt><trkpt lat="44.7235127" lon="9.2123174"><ele>1341.0</ele><time>2026-04-25T14:07:30.294Z</time></trkpt><trkpt lat="44.7234309" lon="9.2124205"><ele>1341.0</ele><time>2026-04-25T14:07:31.294Z</time></trkpt><trkpt lat="44.7233557" lon="9.2125556"><ele>1337.0</ele><time>2026-04-25T14:07:32.294Z</time></trkpt><trkpt lat="44.7232948" lon="9.2127184"><ele>1333.0</ele><time>2026-04-25T14:07:33.294Z</time></trkpt><trkpt lat="44.7232309" lon="9.2128972"><ele>1329.0</ele><time>2026-04-25T14:07:34.294Z</time></trkpt><trkpt lat="44.7231646" lon="9.2130807"><ele>1325.0</ele><time>2026-04-25T14:07:35.294Z</time></trkpt><trkpt lat="44.7231066" lon="9.2132569"><ele>1325.0</ele><time>2026-04-25T14:07:36.294Z</time></trkpt><trkpt lat="44.7230499" lon="9.2134327"><ele>1325.0</ele><time>2026-04-25T14:07:37.294Z</time></trkpt><trkpt lat="44.7229992" lon="9.2136139"><ele>1325.0</ele><time>2026-04-25T14:07:38.294Z</time></trkpt><trkpt lat="44.7229535" lon="9.2138007"><ele>1325.0</ele><time>2026-04-25T14:07:39.294Z</time></trkpt><trkpt lat="44.7228955" lon="9.2139651"><ele>1326.75</ele><time>2026-04-25T14:07:40.294Z</time></trkpt><trkpt lat="44.7228157" lon="9.2141066"><ele>1328.5</ele><time>2026-04-25T14:07:41.294Z</time></trkpt><trkpt lat="44.7227196" lon="9.2142418"><ele>1330.25</ele><time>2026-04-25T14:07:42.294Z</time></trkpt><trkpt lat="44.7226382" lon="9.2143773"><ele>1332.0</ele><time>2026-04-25T14:07:43.294Z</time></trkpt><trkpt lat="44.7225842" lon="9.2145249"><ele>1326.25</ele><time>2026-04-25T14:07:44.293Z</time></trkpt><trkpt lat="44.7225566" lon="9.2146893"><ele>1320.5</ele><time>2026-04-25T14:07:45.294Z</time></trkpt><trkpt lat="44.7225346" lon="9.2148779"><ele>1314.75</ele><time>2026-04-25T14:07:46.294Z</time></trkpt><trkpt lat="44.7225037" lon="9.2150737"><ele>1309.0</ele><time>2026-04-25T14:07:47.294Z</time></trkpt><trkpt lat="44.7224556" lon="9.21524"><ele>1309.0</ele><time>2026-04-25T14:07:48.293Z</time></trkpt><trkpt lat="44.7223916" lon="9.2153863"><ele>1309.0</ele><time>2026-04-25T14:07:49.294Z</time></trkpt><trkpt lat="44.7223191" lon="9.2155179"><ele>1309.0</ele><time>2026-04-25T14:07:50.294Z</time></trkpt><trkpt lat="44.722247" lon="9.215643"><ele>1309.0</ele><time>2026-04-25T14:07:51.293Z</time></trkpt><trkpt lat="44.722192" lon="9.2157713"><ele>1308.8000000000002</ele><time>2026-04-25T14:07:52.294Z</time></trkpt><trkpt lat="44.7221764" lon="9.2159205"><ele>1308.6000000000001</ele><time>2026-04-25T14:07:53.294Z</time></trkpt><trkpt lat="44.7221912" lon="9.2160741"><ele>1308.4</ele><time>2026-04-25T14:07:54.293Z</time></trkpt><trkpt lat="44.7222204" lon="9.2162264"><ele>1308.2</ele><time>2026-04-25T14:07:55.293Z</time></trkpt><trkpt lat="44.722224" lon="9.2163704"><ele>1308.0</ele><time>2026-04-25T14:07:56.294Z</time></trkpt><trkpt lat="44.7221994" lon="9.2165083"><ele>1308.0</ele><time>2026-04-25T14:07:57.294Z</time></trkpt><trkpt lat="44.7221493" lon="9.2166538"><ele>1308.0</ele><time>2026-04-25T14:07:58.294Z</time></trkpt><trkpt lat="44.7221005" lon="9.2167905"><ele>1308.0</ele><time>2026-04-25T14:07:59.294Z</time></trkpt><trkpt lat="44.7220762" lon="9.2169325"><ele>1308.0</ele><time>2026-04-25T14:08:00.293Z</time></trkpt><trkpt lat="44.7220859" lon="9.2170825"><ele>1308.0</ele><time>2026-04-25T14:08:01.294Z</time></trkpt><trkpt lat="44.7221139" lon="9.2172367"><ele>1308.8000000000002</ele><time>2026-04-25T14:08:02.294Z</time></trkpt><trkpt lat="44.7221276" lon="9.2173809"><ele>1309.6</ele><time>2026-04-25T14:08:03.293Z</time></trkpt><trkpt lat="44.7221175" lon="9.2175122"><ele>1310.4</ele><time>2026-04-25T14:08:04.294Z</time></trkpt><trkpt lat="44.7220732" lon="9.2176459"><ele>1311.1999999999998</ele><time>2026-04-25T14:08:05.294Z</time></trkpt><trkpt lat="44.7220093" lon="9.2177887"><ele>1312.0</ele><time>2026-04-25T14:08:06.294Z</time></trkpt><trkpt lat="44.7219301" lon="9.2179372"><ele>1308.0</ele><time>2026-04-25T14:08:07.294Z</time></trkpt><trkpt lat="44.7218408" lon="9.2180843"><ele>1304.0</ele><time>2026-04-25T14:08:08.294Z</time></trkpt><trkpt lat="44.7217483" lon="9.2182317"><ele>1300.0</ele><time>2026-04-25T14:08:09.294Z</time></trkpt><trkpt lat="44.721655" lon="9.218377"><ele>1296.0</ele><time>2026-04-25T14:08:10.294Z</time></trkpt><trkpt lat="44.7215716" lon="9.2185047"><ele>1296.0</ele><time>2026-04-25T14:08:11.294Z</time></trkpt><trkpt lat="44.7214662" lon="9.2186013"><ele>1296.0</ele><time>2026-04-25T14:08:12.294Z</time></trkpt><trkpt lat="44.7213382" lon="9.2186813"><ele>1296.0</ele><time>2026-04-25T14:08:13.294Z</time></trkpt><trkpt lat="44.7212083" lon="9.218747"><ele>1296.0</ele><time>2026-04-25T14:08:14.294Z</time></trkpt><trkpt lat="44.7210786" lon="9.2188234"><ele>1294.25</ele><time>2026-04-25T14:08:15.294Z</time></trkpt><trkpt lat="44.7209505" lon="9.2189127"><ele>1292.5</ele><time>2026-04-25T14:08:16.294Z</time></trkpt><trkpt lat="44.7208253" lon="9.2190042"><ele>1290.75</ele><time>2026-04-25T14:08:17.294Z</time></trkpt><trkpt lat="44.7207008" lon="9.219087"><ele>1289.0</ele><time>2026-04-25T14:08:18.294Z</time></trkpt><trkpt lat="44.7205936" lon="9.219169"><ele>1289.0</ele><time>2026-04-25T14:08:19.294Z</time></trkpt><trkpt lat="44.7205034" lon="9.2192561"><ele>1289.0</ele><time>2026-04-25T14:08:20.294Z</time></trkpt><trkpt lat="44.7204416" lon="9.2193685"><ele>1289.0</ele><time>2026-04-25T14:08:21.294Z</time></trkpt><trkpt lat="44.7204014" lon="9.2195251"><ele>1289.0</ele><time>2026-04-25T14:08:22.294Z</time></trkpt><trkpt lat="44.7203875" lon="9.2197059"><ele>1291.5</ele><time>2026-04-25T14:08:23.294Z</time></trkpt><trkpt lat="44.720394" lon="9.2198857"><ele>1294.0</ele><time>2026-04-25T14:08:24.294Z</time></trkpt><trkpt lat="44.7204289" lon="9.2200692"><ele>1296.5</ele><time>2026-04-25T14:08:25.294Z</time></trkpt><trkpt lat="44.7204757" lon="9.2202593"><ele>1299.0</ele><time>2026-04-25T14:08:26.294Z</time></trkpt><trkpt lat="44.7205261" lon="9.2204305"><ele>1299.0</ele><time>2026-04-25T14:08:27.294Z</time></trkpt><trkpt lat="44.7205734" lon="9.2205743"><ele>1299.0</ele><time>2026-04-25T14:08:28.294Z</time></trkpt><trkpt lat="44.7206272" lon="9.2206919"><ele>1299.0</ele><time>2026-04-25T14:08:29.294Z</time></trkpt><trkpt lat="44.7206854" lon="9.2207829"><ele>1299.0</ele><time>2026-04-25T14:08:30.293Z</time></trkpt><trkpt lat="44.7207456" lon="9.2208425"><ele>1299.0</ele><time>2026-04-25T14:08:31.294Z</time></trkpt><trkpt lat="44.7208165" lon="9.2208805"><ele>1299.0</ele><time>2026-04-25T14:08:32.293Z</time></trkpt><trkpt lat="44.720895" lon="9.2209073"><ele>1295.6</ele><time>2026-04-25T14:08:33.294Z</time></trkpt><trkpt lat="44.7209739" lon="9.2209203"><ele>1292.2</ele><time>2026-04-25T14:08:34.294Z</time></trkpt><trkpt lat="44.7210548" lon="9.2209111"><ele>1288.8</ele><time>2026-04-25T14:08:35.294Z</time></trkpt><trkpt lat="44.7211518" lon="9.2208735"><ele>1285.3999999999999</ele><time>2026-04-25T14:08:36.294Z</time></trkpt><trkpt lat="44.7212758" lon="9.2208315"><ele>1282.0</ele><time>2026-04-25T14:08:37.294Z</time></trkpt><trkpt lat="44.7214026" lon="9.2207936"><ele>1282.0</ele><time>2026-04-25T14:08:38.294Z</time></trkpt><trkpt lat="44.7215142" lon="9.2207922"><ele>1282.0</ele><time>2026-04-25T14:08:39.294Z</time></trkpt><trkpt lat="44.721617" lon="9.2208233"><ele>1282.0</ele><time>2026-04-25T14:08:40.294Z</time></trkpt><trkpt lat="44.7216994" lon="9.2208974"><ele>1282.0</ele><time>2026-04-25T14:08:41.294Z</time></trkpt><trkpt lat="44.721762" lon="9.2210028"><ele>1282.0</ele><time>2026-04-25T14:08:42.293Z</time></trkpt><trkpt lat="44.7218228" lon="9.2210954"><ele>1281.6</ele><time>2026-04-25T14:08:43.294Z</time></trkpt><trkpt lat="44.7218991" lon="9.2211581"><ele>1281.1999999999998</ele><time>2026-04-25T14:08:44.294Z</time></trkpt><trkpt lat="44.7219867" lon="9.2211925"><ele>1280.8</ele><time>2026-04-25T14:08:45.294Z</time></trkpt><trkpt lat="44.722098" lon="9.2211777"><ele>1280.4</ele><time>2026-04-25T14:08:46.294Z</time></trkpt><trkpt lat="44.7222074" lon="9.221154"><ele>1280.0</ele><time>2026-04-25T14:08:47.294Z</time></trkpt><trkpt lat="44.7223173" lon="9.221128"><ele>1280.0</ele><time>2026-04-25T14:08:48.294Z</time></trkpt><trkpt lat="44.7224483" lon="9.2211251"><ele>1280.0</ele><time>2026-04-25T14:08:49.294Z</time></trkpt><trkpt lat="44.7225808" lon="9.2211287"><ele>1280.0</ele><time>2026-04-25T14:08:50.294Z</time></trkpt><trkpt lat="44.7227077" lon="9.221149"><ele>1280.0</ele><time>2026-04-25T14:08:51.294Z</time></trkpt><trkpt lat="44.7228441" lon="9.2211632"><ele>1279.0</ele><time>2026-04-25T14:08:52.294Z</time></trkpt><trkpt lat="44.7229856" lon="9.2211663"><ele>1278.0</ele><time>2026-04-25T14:08:53.294Z</time></trkpt><trkpt lat="44.7231192" lon="9.2211685"><ele>1277.0</ele><time>2026-04-25T14:08:54.294Z</time></trkpt><trkpt lat="44.72325" lon="9.2211777"><ele>1276.0</ele><time>2026-04-25T14:08:55.294Z</time></trkpt><trkpt lat="44.7233753" lon="9.2212202"><ele>1276.0</ele><time>2026-04-25T14:08:56.294Z</time></trkpt><trkpt lat="44.7235049" lon="9.2212804"><ele>1276.0</ele><time>2026-04-25T14:08:57.294Z</time></trkpt><trkpt lat="44.7236275" lon="9.2213591"><ele>1276.0</ele><time>2026-04-25T14:08:58.294Z</time></trkpt><trkpt lat="44.7237384" lon="9.2214551"><ele>1276.0</ele><time>2026-04-25T14:08:59.294Z</time></trkpt><trkpt lat="44.7238512" lon="9.2215248"><ele>1271.75</ele><time>2026-04-25T14:09:00.294Z</time></trkpt><trkpt lat="44.7239885" lon="9.2215555"><ele>1267.5</ele><time>2026-04-25T14:09:01.293Z</time></trkpt><trkpt lat="44.7241348" lon="9.2215687"><ele>1263.25</ele><time>2026-04-25T14:09:02.294Z</time></trkpt><trkpt lat="44.7242521" lon="9.221576"><ele>1259.0</ele><time>2026-04-25T14:09:03.294Z</time></trkpt><trkpt lat="44.7243487" lon="9.2216026"><ele>1259.0</ele><time>2026-04-25T14:09:04.293Z</time></trkpt><trkpt lat="44.7244198" lon="9.2216482"><ele>1259.0</ele><time>2026-04-25T14:09:05.294Z</time></trkpt><trkpt lat="44.7244608" lon="9.2218016"><ele>1259.0</ele><time>2026-04-25T14:09:07.294Z</time></trkpt><trkpt lat="44.7244234" lon="9.2218795"><ele>1259.0</ele><time>2026-04-25T14:09:08.294Z</time></trkpt><trkpt lat="44.7243445" lon="9.2219245"><ele>1259.0</ele><time>2026-04-25T14:09:09.294Z</time></trkpt><trkpt lat="44.7242471" lon="9.2219237"><ele>1259.0</ele><time>2026-04-25T14:09:10.294Z</time></trkpt><trkpt lat="44.7241411" lon="9.2219097"><ele>1259.0</ele><time>2026-04-25T14:09:11.294Z</time></trkpt><trkpt lat="44.7240194" lon="9.2218888"><ele>1259.0</ele><time>2026-04-25T14:09:12.293Z</time></trkpt><trkpt lat="44.7238682" lon="9.2218624"><ele>1259.0</ele><time>2026-04-25T14:09:13.294Z</time></trkpt><trkpt lat="44.7237153" lon="9.2218185"><ele>1259.0</ele><time>2026-04-25T14:09:14.293Z</time></trkpt><trkpt lat="44.723554" lon="9.2217579"><ele>1256.6666666666667</ele><time>2026-04-25T14:09:15.294Z</time></trkpt><trkpt lat="44.7233944" lon="9.221714"><ele>1254.3333333333333</ele><time>2026-04-25T14:09:16.294Z</time></trkpt><trkpt lat="44.7232232" lon="9.2216814"><ele>1252.0</ele><time>2026-04-25T14:09:17.294Z</time></trkpt><trkpt lat="44.7230712" lon="9.2216677"><ele>1252.0</ele><time>2026-04-25T14:09:18.294Z</time></trkpt><trkpt lat="44.7229448" lon="9.2216903"><ele>1252.0</ele><time>2026-04-25T14:09:19.294Z</time></trkpt><trkpt lat="44.7228289" lon="9.2217453"><ele>1252.0</ele><time>2026-04-25T14:09:20.294Z</time></trkpt><trkpt lat="44.7227186" lon="9.2218262"><ele>1252.0</ele><time>2026-04-25T14:09:21.293Z</time></trkpt><trkpt lat="44.7226126" lon="9.2219124"><ele>1252.75</ele><time>2026-04-25T14:09:22.294Z</time></trkpt><trkpt lat="44.7225062" lon="9.221997"><ele>1253.5</ele><time>2026-04-25T14:09:23.294Z</time></trkpt><trkpt lat="44.7224043" lon="9.222074"><ele>1254.25</ele><time>2026-04-25T14:09:24.294Z</time></trkpt><trkpt lat="44.7223022" lon="9.2221597"><ele>1255.0</ele><time>2026-04-25T14:09:25.294Z</time></trkpt><trkpt lat="44.7222078" lon="9.2222577"><ele>1249.75</ele><time>2026-04-25T14:09:26.294Z</time></trkpt><trkpt lat="44.7221097" lon="9.2223436"><ele>1244.5</ele><time>2026-04-25T14:09:27.294Z</time></trkpt><trkpt lat="44.7220095" lon="9.2224029"><ele>1239.25</ele><time>2026-04-25T14:09:28.294Z</time></trkpt><trkpt lat="44.7219011" lon="9.2224638"><ele>1234.0</ele><time>2026-04-25T14:09:29.294Z</time></trkpt><trkpt lat="44.7217815" lon="9.2225041"><ele>1234.0</ele><time>2026-04-25T14:09:30.294Z</time></trkpt><trkpt lat="44.721658" lon="9.2225291"><ele>1234.0</ele><time>2026-04-25T14:09:31.294Z</time></trkpt><trkpt lat="44.7215282" lon="9.2225515"><ele>1234.0</ele><time>2026-04-25T14:09:32.294Z</time></trkpt><trkpt lat="44.7213902" lon="9.2225696"><ele>1234.0</ele><time>2026-04-25T14:09:33.294Z</time></trkpt><trkpt lat="44.7212501" lon="9.2225772"><ele>1234.0</ele><time>2026-04-25T14:09:34.294Z</time></trkpt><trkpt lat="44.7211176" lon="9.2225736"><ele>1234.0</ele><time>2026-04-25T14:09:35.294Z</time></trkpt><trkpt lat="44.7209845" lon="9.2225678"><ele>1234.0</ele><time>2026-04-25T14:09:36.293Z</time></trkpt><trkpt lat="44.7208459" lon="9.2225824"><ele>1234.0</ele><time>2026-04-25T14:09:37.294Z</time></trkpt><trkpt lat="44.720713" lon="9.2226431"><ele>1234.75</ele><time>2026-04-25T14:09:38.294Z</time></trkpt><trkpt lat="44.7206001" lon="9.2227247"><ele>1235.5</ele><time>2026-04-25T14:09:39.293Z</time></trkpt><trkpt lat="44.7205066" lon="9.2228215"><ele>1236.25</ele><time>2026-04-25T14:09:40.294Z</time></trkpt><trkpt lat="44.7204375" lon="9.2229643"><ele>1237.0</ele><time>2026-04-25T14:09:41.294Z</time></trkpt><trkpt lat="44.7203823" lon="9.2231127"><ele>1234.5</ele><time>2026-04-25T14:09:42.294Z</time></trkpt><trkpt lat="44.7203245" lon="9.2232317"><ele>1232.0</ele><time>2026-04-25T14:09:43.294Z</time></trkpt><trkpt lat="44.7202606" lon="9.2233148"><ele>1229.5</ele><time>2026-04-25T14:09:44.294Z</time></trkpt><trkpt lat="44.720187" lon="9.2233664"><ele>1227.0</ele><time>2026-04-25T14:09:45.294Z</time></trkpt><trkpt lat="44.7201087" lon="9.223376"><ele>1224.5</ele><time>2026-04-25T14:09:46.294Z</time></trkpt><trkpt lat="44.7200211" lon="9.2233556"><ele>1222.0</ele><time>2026-04-25T14:09:47.294Z</time></trkpt><trkpt lat="44.7199209" lon="9.2233272"><ele>1222.0</ele><time>2026-04-25T14:09:48.294Z</time></trkpt><trkpt lat="44.7198336" lon="9.2233146"><ele>1222.0</ele><time>2026-04-25T14:09:49.294Z</time></trkpt><trkpt lat="44.7197612" lon="9.2233254"><ele>1222.0</ele><time>2026-04-25T14:09:50.294Z</time></trkpt><trkpt lat="44.7196964" lon="9.2234407"><ele>1222.0</ele><time>2026-04-25T14:09:52.294Z</time></trkpt><trkpt lat="44.7197569" lon="9.2235783"><ele>1222.0</ele><time>2026-04-25T14:09:54.293Z</time></trkpt><trkpt lat="44.7198317" lon="9.2236189"><ele>1222.0</ele><time>2026-04-25T14:09:55.294Z</time></trkpt><trkpt lat="44.7199479" lon="9.2236277"><ele>1222.0</ele><time>2026-04-25T14:09:56.294Z</time></trkpt><trkpt lat="44.7200844" lon="9.2236147"><ele>1222.0</ele><time>2026-04-25T14:09:57.294Z</time></trkpt><trkpt lat="44.7202185" lon="9.2235729"><ele>1222.0</ele><time>2026-04-25T14:09:58.294Z</time></trkpt><trkpt lat="44.7203419" lon="9.2234947"><ele>1219.25</ele><time>2026-04-25T14:09:59.294Z</time></trkpt><trkpt lat="44.7204553" lon="9.2233992"><ele>1216.5</ele><time>2026-04-25T14:10:00.294Z</time></trkpt><trkpt lat="44.7205775" lon="9.2232972"><ele>1213.75</ele><time>2026-04-25T14:10:01.294Z</time></trkpt><trkpt lat="44.7207041" lon="9.2231993"><ele>1211.0</ele><time>2026-04-25T14:10:02.294Z</time></trkpt><trkpt lat="44.7208249" lon="9.2231096"><ele>1209.3999999999999</ele><time>2026-04-25T14:10:03.294Z</time></trkpt><trkpt lat="44.7209343" lon="9.2230368"><ele>1207.8</ele><time>2026-04-25T14:10:04.294Z</time></trkpt><trkpt lat="44.7210154" lon="9.2229995"><ele>1206.1999999999998</ele><time>2026-04-25T14:10:05.294Z</time></trkpt><trkpt lat="44.7210787" lon="9.2229976"><ele>1204.6</ele><time>2026-04-25T14:10:06.293Z</time></trkpt><trkpt lat="44.7211267" lon="9.2231251"><ele>1203.0</ele><time>2026-04-25T14:10:08.293Z</time></trkpt><trkpt lat="44.7210903" lon="9.2232747"><ele>1205.0</ele><time>2026-04-25T14:10:10.293Z</time></trkpt><trkpt lat="44.721025" lon="9.2233684"><ele>1207.0</ele><time>2026-04-25T14:10:11.294Z</time></trkpt><trkpt lat="44.7209391" lon="9.2234554"><ele>1209.0</ele><time>2026-04-25T14:10:12.294Z</time></trkpt><trkpt lat="44.7208285" lon="9.2235282"><ele>1211.0</ele><time>2026-04-25T14:10:13.294Z</time></trkpt><trkpt lat="44.7206939" lon="9.223595"><ele>1211.0</ele><time>2026-04-25T14:10:14.294Z</time></trkpt><trkpt lat="44.7205444" lon="9.2236607"><ele>1211.0</ele><time>2026-04-25T14:10:15.294Z</time></trkpt><trkpt lat="44.7203909" lon="9.2237307"><ele>1211.0</ele><time>2026-04-25T14:10:16.294Z</time></trkpt><trkpt lat="44.7202422" lon="9.223815"><ele>1213.75</ele><time>2026-04-25T14:10:17.294Z</time></trkpt><trkpt lat="44.7201021" lon="9.2238758"><ele>1216.5</ele><time>2026-04-25T14:10:18.294Z</time></trkpt><trkpt lat="44.7199663" lon="9.2239269"><ele>1219.25</ele><time>2026-04-25T14:10:19.294Z</time></trkpt><trkpt lat="44.7198292" lon="9.2239706"><ele>1222.0</ele><time>2026-04-25T14:10:20.294Z</time></trkpt><trkpt lat="44.7197008" lon="9.2240074"><ele>1216.4</ele><time>2026-04-25T14:10:21.293Z</time></trkpt><trkpt lat="44.7195934" lon="9.2240394"><ele>1210.8000000000002</ele><time>2026-04-25T14:10:22.294Z</time></trkpt><trkpt lat="44.719516" lon="9.2240603"><ele>1205.2</ele><time>2026-04-25T14:10:23.294Z</time></trkpt><trkpt lat="44.7194369" lon="9.2241265"><ele>1199.6000000000001</ele><time>2026-04-25T14:10:25.294Z</time></trkpt><trkpt lat="44.719436" lon="9.2242471"><ele>1194.0</ele><time>2026-04-25T14:10:27.293Z</time></trkpt><trkpt lat="44.7195422" lon="9.2243331"><ele>1194.0</ele><time>2026-04-25T14:10:29.294Z</time></trkpt><trkpt lat="44.7196278" lon="9.2243285"><ele>1194.0</ele><time>2026-04-25T14:10:30.294Z</time></trkpt><trkpt lat="44.7197547" lon="9.2242867"><ele>1194.0</ele><time>2026-04-25T14:10:31.293Z</time></trkpt><trkpt lat="44.7198981" lon="9.2242326"><ele>1194.0</ele><time>2026-04-25T14:10:32.294Z</time></trkpt><trkpt lat="44.7200617" lon="9.2241593"><ele>1194.0</ele><time>2026-04-25T14:10:33.294Z</time></trkpt><trkpt lat="44.7202236" lon="9.2240949"><ele>1194.0</ele><time>2026-04-25T14:10:34.294Z</time></trkpt><trkpt lat="44.720369" lon="9.2240458"><ele>1194.0</ele><time>2026-04-25T14:10:35.293Z</time></trkpt><trkpt lat="44.7205081" lon="9.2239954"><ele>1198.25</ele><time>2026-04-25T14:10:36.294Z</time></trkpt><trkpt lat="44.7206333" lon="9.2239385"><ele>1202.5</ele><time>2026-04-25T14:10:37.293Z</time></trkpt><trkpt lat="44.7207613" lon="9.223902"><ele>1206.75</ele><time>2026-04-25T14:10:38.294Z</time></trkpt><trkpt lat="44.7208919" lon="9.2238772"><ele>1211.0</ele><time>2026-04-25T14:10:39.293Z</time></trkpt><trkpt lat="44.7210191" lon="9.2238519"><ele>1209.0</ele><time>2026-04-25T14:10:40.293Z</time></trkpt><trkpt lat="44.7211469" lon="9.2238367"><ele>1207.0</ele><time>2026-04-25T14:10:41.294Z</time></trkpt><trkpt lat="44.7212804" lon="9.2238175"><ele>1205.0</ele><time>2026-04-25T14:10:42.294Z</time></trkpt><trkpt lat="44.7214179" lon="9.2238191"><ele>1203.0</ele><time>2026-04-25T14:10:43.294Z</time></trkpt><trkpt lat="44.7215567" lon="9.2238341"><ele>1203.0</ele><time>2026-04-25T14:10:44.294Z</time></trkpt><trkpt lat="44.7216977" lon="9.2238624"><ele>1203.0</ele><time>2026-04-25T14:10:45.294Z</time></trkpt><trkpt lat="44.7218225" lon="9.2238956"><ele>1203.0</ele><time>2026-04-25T14:10:46.293Z</time></trkpt><trkpt lat="44.7219411" lon="9.2239093"><ele>1203.0</ele><time>2026-04-25T14:10:47.294Z</time></trkpt><trkpt lat="44.7220571" lon="9.2239106"><ele>1200.25</ele><time>2026-04-25T14:10:48.294Z</time></trkpt><trkpt lat="44.7221619" lon="9.2238717"><ele>1197.5</ele><time>2026-04-25T14:10:49.294Z</time></trkpt><trkpt lat="44.7222821" lon="9.2238046"><ele>1194.75</ele><time>2026-04-25T14:10:50.294Z</time></trkpt><trkpt lat="44.7224153" lon="9.2237328"><ele>1192.0</ele><time>2026-04-25T14:10:51.294Z</time></trkpt><trkpt lat="44.7225507" lon="9.2236952"><ele>1192.0</ele><time>2026-04-25T14:10:52.294Z</time></trkpt><trkpt lat="44.7226784" lon="9.2236628"><ele>1192.0</ele><time>2026-04-25T14:10:53.294Z</time></trkpt><trkpt lat="44.7228027" lon="9.2236305"><ele>1192.0</ele><time>2026-04-25T14:10:54.294Z</time></trkpt><trkpt lat="44.7229171" lon="9.2235979"><ele>1192.0</ele><time>2026-04-25T14:10:55.294Z</time></trkpt><trkpt lat="44.7230199" lon="9.2235575"><ele>1189.5</ele><time>2026-04-25T14:10:56.294Z</time></trkpt><trkpt lat="44.7231231" lon="9.2235202"><ele>1187.0</ele><time>2026-04-25T14:10:57.294Z</time></trkpt><trkpt lat="44.723234" lon="9.2234997"><ele>1184.5</ele><time>2026-04-25T14:10:58.294Z</time></trkpt><trkpt lat="44.7233525" lon="9.2234941"><ele>1182.0</ele><time>2026-04-25T14:10:59.294Z</time></trkpt><trkpt lat="44.7234724" lon="9.223495"><ele>1181.75</ele><time>2026-04-25T14:11:00.294Z</time></trkpt><trkpt lat="44.7236045" lon="9.2235034"><ele>1181.5</ele><time>2026-04-25T14:11:01.294Z</time></trkpt><trkpt lat="44.7237376" lon="9.2235268"><ele>1181.25</ele><time>2026-04-25T14:11:02.294Z</time></trkpt><trkpt lat="44.7238787" lon="9.2235579"><ele>1181.0</ele><time>2026-04-25T14:11:03.294Z</time></trkpt><trkpt lat="44.7240268" lon="9.2235913"><ele>1181.0</ele><time>2026-04-25T14:11:04.294Z</time></trkpt><trkpt lat="44.7241477" lon="9.2236472"><ele>1181.0</ele><time>2026-04-25T14:11:05.294Z</time></trkpt><trkpt lat="44.7242657" lon="9.2237195"><ele>1181.0</ele><time>2026-04-25T14:11:06.294Z</time></trkpt><trkpt lat="44.7243739" lon="9.2237596"><ele>1181.0</ele><time>2026-04-25T14:11:07.294Z</time></trkpt><trkpt lat="44.7244976" lon="9.2237651"><ele>1182.5</ele><time>2026-04-25T14:11:08.294Z</time></trkpt><trkpt lat="44.7246339" lon="9.2237576"><ele>1184.0</ele><time>2026-04-25T14:11:09.294Z</time></trkpt><trkpt lat="44.7247818" lon="9.2237714"><ele>1185.5</ele><time>2026-04-25T14:11:10.293Z</time></trkpt><trkpt lat="44.7249383" lon="9.2237998"><ele>1187.0</ele><time>2026-04-25T14:11:11.294Z</time></trkpt><trkpt lat="44.7250795" lon="9.2238491"><ele>1187.0</ele><time>2026-04-25T14:11:12.294Z</time></trkpt><trkpt lat="44.7252138" lon="9.2239018"><ele>1187.0</ele><time>2026-04-25T14:11:13.294Z</time></trkpt><trkpt lat="44.7253236" lon="9.2239785"><ele>1187.0</ele><time>2026-04-25T14:11:14.294Z</time></trkpt><trkpt lat="44.7254182" lon="9.2240777"><ele>1187.0</ele><time>2026-04-25T14:11:15.294Z</time></trkpt><trkpt lat="44.7254967" lon="9.2242043"><ele>1178.75</ele><time>2026-04-25T14:11:16.294Z</time></trkpt><trkpt lat="44.7255902" lon="9.224289"><ele>1170.5</ele><time>2026-04-25T14:11:17.293Z</time></trkpt><trkpt lat="44.7257143" lon="9.2243286"><ele>1162.25</ele><time>2026-04-25T14:11:18.294Z</time></trkpt><trkpt lat="44.725851" lon="9.2243496"><ele>1154.0</ele><time>2026-04-25T14:11:19.294Z</time></trkpt><trkpt lat="44.7259981" lon="9.2243729"><ele>1157.0</ele><time>2026-04-25T14:11:20.294Z</time></trkpt><trkpt lat="44.7261428" lon="9.2243997"><ele>1160.0</ele><time>2026-04-25T14:11:21.293Z</time></trkpt><trkpt lat="44.7262732" lon="9.224432"><ele>1163.0</ele><time>2026-04-25T14:11:22.294Z</time></trkpt><trkpt lat="44.7263995" lon="9.2244501"><ele>1166.0</ele><time>2026-04-25T14:11:23.294Z</time></trkpt><trkpt lat="44.7265139" lon="9.2244875"><ele>1166.0</ele><time>2026-04-25T14:11:24.294Z</time></trkpt><trkpt lat="44.7266209" lon="9.2245534"><ele>1166.0</ele><time>2026-04-25T14:11:25.294Z</time></trkpt><trkpt lat="44.7267162" lon="9.2246545"><ele>1166.0</ele><time>2026-04-25T14:11:26.294Z</time></trkpt><trkpt lat="44.7267859" lon="9.2247797"><ele>1166.0</ele><time>2026-04-25T14:11:27.294Z</time></trkpt><trkpt lat="44.7268472" lon="9.2249102"><ele>1162.75</ele><time>2026-04-25T14:11:28.294Z</time></trkpt><trkpt lat="44.7269176" lon="9.2250377"><ele>1159.5</ele><time>2026-04-25T14:11:29.294Z</time></trkpt><trkpt lat="44.7269886" lon="9.2251438"><ele>1156.25</ele><time>2026-04-25T14:11:30.294Z</time></trkpt><trkpt lat="44.7270769" lon="9.2252723"><ele>1153.0</ele><time>2026-04-25T14:11:31.294Z</time></trkpt><trkpt lat="44.7271737" lon="9.2253999"><ele>1153.0</ele><time>2026-04-25T14:11:32.294Z</time></trkpt><trkpt lat="44.7272748" lon="9.2255157"><ele>1153.0</ele><time>2026-04-25T14:11:33.294Z</time></trkpt><trkpt lat="44.727375" lon="9.225627"><ele>1153.0</ele><time>2026-04-25T14:11:34.294Z</time></trkpt><trkpt lat="44.7274625" lon="9.2257533"><ele>1153.0</ele><time>2026-04-25T14:11:35.294Z</time></trkpt><trkpt lat="44.7275301" lon="9.2258917"><ele>1152.2</ele><time>2026-04-25T14:11:36.294Z</time></trkpt><trkpt lat="44.7275659" lon="9.2260506"><ele>1151.4</ele><time>2026-04-25T14:11:37.294Z</time></trkpt><trkpt lat="44.7275821" lon="9.226203"><ele>1150.6000000000001</ele><time>2026-04-25T14:11:38.294Z</time></trkpt><trkpt lat="44.7276237" lon="9.226315"><ele>1149.8</ele><time>2026-04-25T14:11:39.294Z</time></trkpt><trkpt lat="44.7276805" lon="9.2264017"><ele>1149.0</ele><time>2026-04-25T14:11:40.294Z</time></trkpt><trkpt lat="44.7277517" lon="9.2264739"><ele>1145.1666666666667</ele><time>2026-04-25T14:11:41.294Z</time></trkpt><trkpt lat="44.7278291" lon="9.226536"><ele>1141.3333333333333</ele><time>2026-04-25T14:11:42.293Z</time></trkpt><trkpt lat="44.7279059" lon="9.2265816"><ele>1137.5</ele><time>2026-04-25T14:11:43.294Z</time></trkpt><trkpt lat="44.7279853" lon="9.2266005"><ele>1133.6666666666665</ele><time>2026-04-25T14:11:44.294Z</time></trkpt><trkpt lat="44.7280608" lon="9.2266004"><ele>1129.8333333333333</ele><time>2026-04-25T14:11:45.294Z</time></trkpt><trkpt lat="44.7281494" lon="9.2265839"><ele>1126.0</ele><time>2026-04-25T14:11:46.294Z</time></trkpt><trkpt lat="44.728262" lon="9.2265706"><ele>1126.0</ele><time>2026-04-25T14:11:47.293Z</time></trkpt><trkpt lat="44.7283861" lon="9.2265812"><ele>1126.0</ele><time>2026-04-25T14:11:48.294Z</time></trkpt><trkpt lat="44.7285184" lon="9.2266236"><ele>1126.0</ele><time>2026-04-25T14:11:49.294Z</time></trkpt><trkpt lat="44.7286445" lon="9.2266841"><ele>1126.0</ele><time>2026-04-25T14:11:50.294Z</time></trkpt><trkpt lat="44.7287516" lon="9.226764"><ele>1125.8</ele><time>2026-04-25T14:11:51.294Z</time></trkpt><trkpt lat="44.7288522" lon="9.2268401"><ele>1125.6</ele><time>2026-04-25T14:11:52.294Z</time></trkpt><trkpt lat="44.7289351" lon="9.2269133"><ele>1125.4</ele><time>2026-04-25T14:11:53.293Z</time></trkpt><trkpt lat="44.7290086" lon="9.2269952"><ele>1125.2</ele><time>2026-04-25T14:11:54.294Z</time></trkpt><trkpt lat="44.7290793" lon="9.2270963"><ele>1125.0</ele><time>2026-04-25T14:11:55.294Z</time></trkpt><trkpt lat="44.7291565" lon="9.2272054"><ele>1125.2</ele><time>2026-04-25T14:11:56.294Z</time></trkpt><trkpt lat="44.7292333" lon="9.2273147"><ele>1125.4</ele><time>2026-04-25T14:11:57.294Z</time></trkpt><trkpt lat="44.7293066" lon="9.2274139"><ele>1125.6</ele><time>2026-04-25T14:11:58.294Z</time></trkpt><trkpt lat="44.7293779" lon="9.2274946"><ele>1125.8</ele><time>2026-04-25T14:11:59.294Z</time></trkpt><trkpt lat="44.7294555" lon="9.2275478"><ele>1126.0</ele><time>2026-04-25T14:12:00.294Z</time></trkpt><trkpt lat="44.7295414" lon="9.2275855"><ele>1126.0</ele><time>2026-04-25T14:12:01.294Z</time></trkpt><trkpt lat="44.7296426" lon="9.2276156"><ele>1126.0</ele><time>2026-04-25T14:12:02.293Z</time></trkpt><trkpt lat="44.7297635" lon="9.2276507"><ele>1126.0</ele><time>2026-04-25T14:12:03.294Z</time></trkpt><trkpt lat="44.7298913" lon="9.2277096"><ele>1126.0</ele><time>2026-04-25T14:12:04.293Z</time></trkpt><trkpt lat="44.7300128" lon="9.2277672"><ele>1126.0</ele><time>2026-04-25T14:12:05.294Z</time></trkpt><trkpt lat="44.7301216" lon="9.2278311"><ele>1126.0</ele><time>2026-04-25T14:12:06.294Z</time></trkpt><trkpt lat="44.7302133" lon="9.2278827"><ele>1126.0</ele><time>2026-04-25T14:12:07.294Z</time></trkpt><trkpt lat="44.7302797" lon="9.2279367"><ele>1126.0</ele><time>2026-04-25T14:12:08.294Z</time></trkpt><trkpt lat="44.7303744" lon="9.2279895"><ele>1126.0</ele><time>2026-04-25T14:12:10.294Z</time></trkpt><trkpt lat="44.730425" lon="9.2279349"><ele>1118.0</ele><time>2026-04-25T14:12:12.294Z</time></trkpt><trkpt lat="44.7304504" lon="9.2277219"><ele>1110.0</ele><time>2026-04-25T14:12:14.294Z</time></trkpt><trkpt lat="44.7304624" lon="9.227572"><ele>1102.0</ele><time>2026-04-25T14:12:15.294Z</time></trkpt><trkpt lat="44.7304687" lon="9.2274225"><ele>1094.0</ele><time>2026-04-25T14:12:16.294Z</time></trkpt><trkpt lat="44.7304573" lon="9.2273035"><ele>1097.4</ele><time>2026-04-25T14:12:17.294Z</time></trkpt><trkpt lat="44.730426" lon="9.2271918"><ele>1100.8000000000002</ele><time>2026-04-25T14:12:18.294Z</time></trkpt><trkpt lat="44.7303784" lon="9.2271028"><ele>1104.1999999999998</ele><time>2026-04-25T14:12:19.294Z</time></trkpt><trkpt lat="44.7303163" lon="9.2270243"><ele>1107.6</ele><time>2026-04-25T14:12:20.294Z</time></trkpt><trkpt lat="44.7302412" lon="9.2269385"><ele>1111.0</ele><time>2026-04-25T14:12:21.294Z</time></trkpt><trkpt lat="44.7301168" lon="9.226848"><ele>1111.0</ele><time>2026-04-25T14:12:22.294Z</time></trkpt><trkpt lat="44.7299996" lon="9.2267674"><ele>1111.0</ele><time>2026-04-25T14:12:23.294Z</time></trkpt><trkpt lat="44.7298898" lon="9.2266939"><ele>1111.0</ele><time>2026-04-25T14:12:24.293Z</time></trkpt><trkpt lat="44.7297715" lon="9.2266367"><ele>1111.0</ele><time>2026-04-25T14:12:25.294Z</time></trkpt><trkpt lat="44.7296631" lon="9.2265784"><ele>1111.0</ele><time>2026-04-25T14:12:26.294Z</time></trkpt><trkpt lat="44.729565" lon="9.2264937"><ele>1111.0</ele><time>2026-04-25T14:12:27.294Z</time></trkpt><trkpt lat="44.7294769" lon="9.2264092"><ele>1111.0</ele><time>2026-04-25T14:12:28.294Z</time></trkpt><trkpt lat="44.7294068" lon="9.2263062"><ele>1111.0</ele><time>2026-04-25T14:12:29.294Z</time></trkpt><trkpt lat="44.7293474" lon="9.2261839"><ele>1111.0</ele><time>2026-04-25T14:12:30.293Z</time></trkpt><trkpt lat="44.7292943" lon="9.2260418"><ele>1111.0</ele><time>2026-04-25T14:12:31.293Z</time></trkpt><trkpt lat="44.7292439" lon="9.2258795"><ele>1111.0</ele><time>2026-04-25T14:12:32.294Z</time></trkpt><trkpt lat="44.7292018" lon="9.2257117"><ele>1111.0</ele><time>2026-04-25T14:12:33.294Z</time></trkpt><trkpt lat="44.7291634" lon="9.225547"><ele>1111.0</ele><time>2026-04-25T14:12:34.294Z</time></trkpt><trkpt lat="44.7291432" lon="9.2253852"><ele>1111.0</ele><time>2026-04-25T14:12:35.293Z</time></trkpt><trkpt lat="44.729119" lon="9.2252516"><ele>1111.0</ele><time>2026-04-25T14:12:36.294Z</time></trkpt><trkpt lat="44.7291041" lon="9.2251442"><ele>1111.0</ele><time>2026-04-25T14:12:37.294Z</time></trkpt><trkpt lat="44.7290939" lon="9.2250402"><ele>1111.0</ele><time>2026-04-25T14:12:38.294Z</time></trkpt><trkpt lat="44.7290996" lon="9.2249274"><ele>1111.0</ele><time>2026-04-25T14:12:39.294Z</time></trkpt><trkpt lat="44.7291011" lon="9.2248167"><ele>1111.0</ele><time>2026-04-25T14:12:40.294Z</time></trkpt><trkpt lat="44.7291761" lon="9.2246587"><ele>1111.0</ele><time>2026-04-25T14:12:42.294Z</time></trkpt><trkpt lat="44.7292423" lon="9.2246108"><ele>1111.0</ele><time>2026-04-25T14:12:43.294Z</time></trkpt><trkpt lat="44.7293197" lon="9.2245963"><ele>1111.0</ele><time>2026-04-25T14:12:44.294Z</time></trkpt><trkpt lat="44.7293951" lon="9.2246079"><ele>1111.0</ele><time>2026-04-25T14:12:45.294Z</time></trkpt><trkpt lat="44.7294598" lon="9.2246578"><ele>1111.0</ele><time>2026-04-25T14:12:46.294Z</time></trkpt><trkpt lat="44.7295253" lon="9.2247158"><ele>1111.0</ele><time>2026-04-25T14:12:47.293Z</time></trkpt><trkpt lat="44.7295934" lon="9.2247642"><ele>1111.0</ele><time>2026-04-25T14:12:48.293Z</time></trkpt><trkpt lat="44.7296754" lon="9.2247914"><ele>1111.0</ele><time>2026-04-25T14:12:49.294Z</time></trkpt><trkpt lat="44.7297729" lon="9.2248123"><ele>1111.0</ele><time>2026-04-25T14:12:50.294Z</time></trkpt><trkpt lat="44.7298916" lon="9.2248391"><ele>1111.0</ele><time>2026-04-25T14:12:51.294Z</time></trkpt><trkpt lat="44.7300137" lon="9.2248763"><ele>1111.0</ele><time>2026-04-25T14:12:52.294Z</time></trkpt><trkpt lat="44.7301432" lon="9.2248967"><ele>1102.0</ele><time>2026-04-25T14:12:53.293Z</time></trkpt><trkpt lat="44.7302644" lon="9.2249023"><ele>1093.0</ele><time>2026-04-25T14:12:54.294Z</time></trkpt><trkpt lat="44.7303817" lon="9.2248946"><ele>1084.0</ele><time>2026-04-25T14:12:55.294Z</time></trkpt><trkpt lat="44.7304949" lon="9.2248806"><ele>1075.0</ele><time>2026-04-25T14:12:56.294Z</time></trkpt><trkpt lat="44.7306025" lon="9.224862"><ele>1075.0</ele><time>2026-04-25T14:12:57.294Z</time></trkpt><trkpt lat="44.7306953" lon="9.2248409"><ele>1075.0</ele><time>2026-04-25T14:12:58.294Z</time></trkpt><trkpt lat="44.7307657" lon="9.2248328"><ele>1075.0</ele><time>2026-04-25T14:12:59.293Z</time></trkpt><trkpt lat="44.7308463" lon="9.2248417"><ele>1075.0</ele><time>2026-04-25T14:13:00.294Z</time></trkpt><trkpt lat="44.7309247" lon="9.2248606"><ele>1075.0</ele><time>2026-04-25T14:13:01.293Z</time></trkpt><trkpt lat="44.7310147" lon="9.2248992"><ele>1075.0</ele><time>2026-04-25T14:13:02.294Z</time></trkpt><trkpt lat="44.7310993" lon="9.2249714"><ele>1072.75</ele><time>2026-04-25T14:13:03.294Z</time></trkpt><trkpt lat="44.7311936" lon="9.2250327"><ele>1070.5</ele><time>2026-04-25T14:13:04.294Z</time></trkpt><trkpt lat="44.731309" lon="9.2250761"><ele>1068.25</ele><time>2026-04-25T14:13:05.294Z</time></trkpt><trkpt lat="44.7314429" lon="9.2251049"><ele>1066.0</ele><time>2026-04-25T14:13:06.294Z</time></trkpt><trkpt lat="44.7315901" lon="9.2251225"><ele>1066.0</ele><time>2026-04-25T14:13:07.294Z</time></trkpt><trkpt lat="44.7317421" lon="9.2251215"><ele>1066.0</ele><time>2026-04-25T14:13:08.293Z</time></trkpt><trkpt lat="44.7318739" lon="9.2251407"><ele>1066.0</ele><time>2026-04-25T14:13:09.294Z</time></trkpt><trkpt lat="44.7320124" lon="9.2251486"><ele>1066.0</ele><time>2026-04-25T14:13:10.294Z</time></trkpt><trkpt lat="44.7321318" lon="9.2251692"><ele>1068.0</ele><time>2026-04-25T14:13:11.293Z</time></trkpt><trkpt lat="44.7322463" lon="9.225195"><ele>1070.0</ele><time>2026-04-25T14:13:12.294Z</time></trkpt><trkpt lat="44.7323523" lon="9.2252288"><ele>1072.0</ele><time>2026-04-25T14:13:13.294Z</time></trkpt><trkpt lat="44.7324568" lon="9.225301"><ele>1074.0</ele><time>2026-04-25T14:13:14.294Z</time></trkpt><trkpt lat="44.7325617" lon="9.2254109"><ele>1074.0</ele><time>2026-04-25T14:13:15.294Z</time></trkpt><trkpt lat="44.7326685" lon="9.2255205"><ele>1074.0</ele><time>2026-04-25T14:13:16.293Z</time></trkpt><trkpt lat="44.7327725" lon="9.2256348"><ele>1074.0</ele><time>2026-04-25T14:13:17.293Z</time></trkpt><trkpt lat="44.7328842" lon="9.2257172"><ele>1074.0</ele><time>2026-04-25T14:13:18.294Z</time></trkpt><trkpt lat="44.7330024" lon="9.2257882"><ele>1066.75</ele><time>2026-04-25T14:13:19.294Z</time></trkpt><trkpt lat="44.7331242" lon="9.2258608"><ele>1059.5</ele><time>2026-04-25T14:13:20.294Z</time></trkpt><trkpt lat="44.7332307" lon="9.2259277"><ele>1052.25</ele><time>2026-04-25T14:13:21.294Z</time></trkpt><trkpt lat="44.7333266" lon="9.2260142"><ele>1045.0</ele><time>2026-04-25T14:13:22.294Z</time></trkpt><trkpt lat="44.7334147" lon="9.2261221"><ele>1045.0</ele><time>2026-04-25T14:13:23.294Z</time></trkpt><trkpt lat="44.7335067" lon="9.2262306"><ele>1045.0</ele><time>2026-04-25T14:13:24.293Z</time></trkpt><trkpt lat="44.7336041" lon="9.2263058"><ele>1045.0</ele><time>2026-04-25T14:13:25.294Z</time></trkpt><trkpt lat="44.7336956" lon="9.2263635"><ele>1045.0</ele><time>2026-04-25T14:13:26.294Z</time></trkpt><trkpt lat="44.7337961" lon="9.2263887"><ele>1045.0</ele><time>2026-04-25T14:13:27.294Z</time></trkpt><trkpt lat="44.733904" lon="9.226391"><ele>1044.5</ele><time>2026-04-25T14:13:28.294Z</time></trkpt><trkpt lat="44.7340139" lon="9.2263552"><ele>1044.0</ele><time>2026-04-25T14:13:29.294Z</time></trkpt><trkpt lat="44.7341315" lon="9.2262875"><ele>1043.5</ele><time>2026-04-25T14:13:30.293Z</time></trkpt><trkpt lat="44.7342538" lon="9.2261997"><ele>1043.0</ele><time>2026-04-25T14:13:31.294Z</time></trkpt><trkpt lat="44.7343819" lon="9.2261072"><ele>1035.75</ele><time>2026-04-25T14:13:32.294Z</time></trkpt><trkpt lat="44.7345069" lon="9.2260168"><ele>1028.5</ele><time>2026-04-25T14:13:33.294Z</time></trkpt><trkpt lat="44.7346397" lon="9.2259504"><ele>1021.25</ele><time>2026-04-25T14:13:34.294Z</time></trkpt><trkpt lat="44.7347668" lon="9.2258579"><ele>1014.0</ele><time>2026-04-25T14:13:35.294Z</time></trkpt><trkpt lat="44.7348922" lon="9.2257643"><ele>1014.0</ele><time>2026-04-25T14:13:36.294Z</time></trkpt><trkpt lat="44.7350164" lon="9.2256647"><ele>1014.0</ele><time>2026-04-25T14:13:37.294Z</time></trkpt><trkpt lat="44.7351316" lon="9.2255752"><ele>1014.0</ele><time>2026-04-25T14:13:38.294Z</time></trkpt><trkpt lat="44.7352541" lon="9.2255017"><ele>1014.0</ele><time>2026-04-25T14:13:39.294Z</time></trkpt><trkpt lat="44.735365" lon="9.2254181"><ele>1013.25</ele><time>2026-04-25T14:13:40.294Z</time></trkpt><trkpt lat="44.7354829" lon="9.2253032"><ele>1012.5</ele><time>2026-04-25T14:13:41.293Z</time></trkpt><trkpt lat="44.7356055" lon="9.2251906"><ele>1011.75</ele><time>2026-04-25T14:13:42.294Z</time></trkpt><trkpt lat="44.7357341" lon="9.2250872"><ele>1011.0</ele><time>2026-04-25T14:13:43.294Z</time></trkpt><trkpt lat="44.7358513" lon="9.22499"><ele>1011.0</ele><time>2026-04-25T14:13:44.294Z</time></trkpt><trkpt lat="44.7359513" lon="9.2249039"><ele>1010.9999999999999</ele><time>2026-04-25T14:13:45.294Z</time></trkpt><trkpt lat="44.736031" lon="9.2248157"><ele>1010.9999999999999</ele><time>2026-04-25T14:13:46.294Z</time></trkpt><trkpt lat="44.7361145" lon="9.2247249"><ele>1011.0</ele><time>2026-04-25T14:13:47.294Z</time></trkpt><trkpt lat="44.7361866" lon="9.2246535"><ele>1011.0</ele><time>2026-04-25T14:13:48.294Z</time></trkpt><trkpt lat="44.7362596" lon="9.2245943"><ele>1011.0</ele><time>2026-04-25T14:13:49.294Z</time></trkpt><trkpt lat="44.7363294" lon="9.224573"><ele>1011.0</ele><time>2026-04-25T14:13:50.294Z</time></trkpt><trkpt lat="44.7363966" lon="9.2245964"><ele>1011.0</ele><time>2026-04-25T14:13:51.294Z</time></trkpt><trkpt lat="44.7364421" lon="9.2246633"><ele>1011.0</ele><time>2026-04-25T14:13:52.294Z</time></trkpt><trkpt lat="44.7364659" lon="9.2247744"><ele>1011.0</ele><time>2026-04-25T14:13:53.294Z</time></trkpt><trkpt lat="44.7364911" lon="9.2248907"><ele>1011.0</ele><time>2026-04-25T14:13:54.294Z</time></trkpt><trkpt lat="44.7365349" lon="9.2249766"><ele>1008.4285714285713</ele><time>2026-04-25T14:13:55.294Z</time></trkpt><trkpt lat="44.7365886" lon="9.2250341"><ele>1005.8571428571429</ele><time>2026-04-25T14:13:56.294Z</time></trkpt><trkpt lat="44.7366572" lon="9.2250367"><ele>1003.2857142857142</ele><time>2026-04-25T14:13:57.294Z</time></trkpt><trkpt lat="44.7367428" lon="9.2250098"><ele>1000.7142857142857</ele><time>2026-04-25T14:13:58.294Z</time></trkpt><trkpt lat="44.7368207" lon="9.2250197"><ele>998.1428571428571</ele><time>2026-04-25T14:13:59.294Z</time></trkpt><trkpt lat="44.7368869" lon="9.2250519"><ele>995.5714285714286</ele><time>2026-04-25T14:14:00.294Z</time></trkpt><trkpt lat="44.7369421" lon="9.2251192"><ele>993.0</ele><time>2026-04-25T14:14:01.294Z</time></trkpt><trkpt lat="44.7370006" lon="9.2251753"><ele>991.2</ele><time>2026-04-25T14:14:02.293Z</time></trkpt><trkpt lat="44.7370648" lon="9.2252062"><ele>989.4</ele><time>2026-04-25T14:14:03.294Z</time></trkpt><trkpt lat="44.7371347" lon="9.2252242"><ele>987.6000000000001</ele><time>2026-04-25T14:14:04.294Z</time></trkpt><trkpt lat="44.7372168" lon="9.2252038"><ele>985.8000000000001</ele><time>2026-04-25T14:14:05.294Z</time></trkpt><trkpt lat="44.737324" lon="9.2251523"><ele>984.0</ele><time>2026-04-25T14:14:06.294Z</time></trkpt><trkpt lat="44.7374447" lon="9.2251065"><ele>984.0</ele><time>2026-04-25T14:14:07.294Z</time></trkpt><trkpt lat="44.7375622" lon="9.2250868"><ele>984.0000000000001</ele><time>2026-04-25T14:14:08.294Z</time></trkpt><trkpt lat="44.7376659" lon="9.2251135"><ele>984.0000000000001</ele><time>2026-04-25T14:14:09.294Z</time></trkpt><trkpt lat="44.7377698" lon="9.2251649"><ele>984.0</ele><time>2026-04-25T14:14:10.294Z</time></trkpt><trkpt lat="44.7378667" lon="9.2252303"><ele>984.0</ele><time>2026-04-25T14:14:11.293Z</time></trkpt><trkpt lat="44.7379572" lon="9.2252874"><ele>986.6</ele><time>2026-04-25T14:14:12.294Z</time></trkpt><trkpt lat="44.7380396" lon="9.2253593"><ele>989.2</ele><time>2026-04-25T14:14:13.294Z</time></trkpt><trkpt lat="44.7381102" lon="9.2254512"><ele>991.8000000000001</ele><time>2026-04-25T14:14:14.294Z</time></trkpt><trkpt lat="44.7381596" lon="9.2255785"><ele>994.4000000000001</ele><time>2026-04-25T14:14:15.294Z</time></trkpt><trkpt lat="44.7382109" lon="9.2257297"><ele>997.0</ele><time>2026-04-25T14:14:16.294Z</time></trkpt><trkpt lat="44.738275" lon="9.2258813"><ele>1001.75</ele><time>2026-04-25T14:14:17.294Z</time></trkpt><trkpt lat="44.7383531" lon="9.2260194"><ele>1006.5</ele><time>2026-04-25T14:14:18.294Z</time></trkpt><trkpt lat="44.7384422" lon="9.2261324"><ele>1011.25</ele><time>2026-04-25T14:14:19.294Z</time></trkpt><trkpt lat="44.7385368" lon="9.2262346"><ele>1016.0</ele><time>2026-04-25T14:14:20.294Z</time></trkpt><trkpt lat="44.7386193" lon="9.2263171"><ele>1016.0</ele><time>2026-04-25T14:14:21.294Z</time></trkpt><trkpt lat="44.7386855" lon="9.2263979"><ele>1015.9999999999999</ele><time>2026-04-25T14:14:22.294Z</time></trkpt><trkpt lat="44.7387371" lon="9.2264994"><ele>1015.9999999999999</ele><time>2026-04-25T14:14:23.294Z</time></trkpt><trkpt lat="44.7387766" lon="9.2266343"><ele>1016.0</ele><time>2026-04-25T14:14:24.294Z</time></trkpt><trkpt lat="44.738817" lon="9.2267938"><ele>1016.0</ele><time>2026-04-25T14:14:25.294Z</time></trkpt><trkpt lat="44.7388612" lon="9.2269727"><ele>1009.5</ele><time>2026-04-25T14:14:26.294Z</time></trkpt><trkpt lat="44.7389061" lon="9.227149"><ele>1003.0</ele><time>2026-04-25T14:14:27.294Z</time></trkpt><trkpt lat="44.7389463" lon="9.2273274"><ele>996.5</ele><time>2026-04-25T14:14:28.294Z</time></trkpt><trkpt lat="44.7389783" lon="9.2274975"><ele>990.0</ele><time>2026-04-25T14:14:29.294Z</time></trkpt><trkpt lat="44.7390146" lon="9.2276605"><ele>983.5</ele><time>2026-04-25T14:14:30.294Z</time></trkpt><trkpt lat="44.7390602" lon="9.2278088"><ele>977.0</ele><time>2026-04-25T14:14:31.294Z</time></trkpt><trkpt lat="44.7391217" lon="9.2279713"><ele>970.5</ele><time>2026-04-25T14:14:32.294Z</time></trkpt><trkpt lat="44.7391932" lon="9.228136"><ele>964.0</ele><time>2026-04-25T14:14:33.294Z</time></trkpt><trkpt lat="44.7392655" lon="9.2283145"><ele>956.5</ele><time>2026-04-25T14:14:34.294Z</time></trkpt><trkpt lat="44.7393311" lon="9.2284733"><ele>949.0</ele><time>2026-04-25T14:14:35.294Z</time></trkpt><trkpt lat="44.7393728" lon="9.2286086"><ele>941.5</ele><time>2026-04-25T14:14:36.293Z</time></trkpt><trkpt lat="44.7393854" lon="9.2287562"><ele>934.0</ele><time>2026-04-25T14:14:37.294Z</time></trkpt><trkpt lat="44.7393841" lon="9.2289137"><ele>932.2</ele><time>2026-04-25T14:14:38.294Z</time></trkpt><trkpt lat="44.7393748" lon="9.2290851"><ele>930.4000000000001</ele><time>2026-04-25T14:14:39.294Z</time></trkpt><trkpt lat="44.7393846" lon="9.2292459"><ele>928.6</ele><time>2026-04-25T14:14:40.294Z</time></trkpt><trkpt lat="44.7394109" lon="9.2293946"><ele>926.8</ele><time>2026-04-25T14:14:41.294Z</time></trkpt><trkpt lat="44.7394388" lon="9.2295355"><ele>925.0</ele><time>2026-04-25T14:14:42.293Z</time></trkpt><trkpt lat="44.7394644" lon="9.2296915"><ele>935.0</ele><time>2026-04-25T14:14:43.294Z</time></trkpt><trkpt lat="44.7394743" lon="9.2298671"><ele>945.0</ele><time>2026-04-25T14:14:44.294Z</time></trkpt><trkpt lat="44.7394888" lon="9.2300543"><ele>955.0</ele><time>2026-04-25T14:14:45.294Z</time></trkpt><trkpt lat="44.7395098" lon="9.23025"><ele>965.0</ele><time>2026-04-25T14:14:46.294Z</time></trkpt><trkpt lat="44.7395409" lon="9.2304367"><ele>965.0</ele><time>2026-04-25T14:14:47.294Z</time></trkpt><trkpt lat="44.7395652" lon="9.2305974"><ele>965.0</ele><time>2026-04-25T14:14:48.294Z</time></trkpt><trkpt lat="44.7395796" lon="9.230749"><ele>965.0</ele><time>2026-04-25T14:14:49.293Z</time></trkpt><trkpt lat="44.7395856" lon="9.2308768"><ele>965.0</ele><time>2026-04-25T14:14:50.293Z</time></trkpt><trkpt lat="44.7396002" lon="9.2309774"><ele>965.0</ele><time>2026-04-25T14:14:51.294Z</time></trkpt><trkpt lat="44.7396287" lon="9.2310616"><ele>958.8</ele><time>2026-04-25T14:14:52.294Z</time></trkpt><trkpt lat="44.7396821" lon="9.2311184"><ele>952.6</ele><time>2026-04-25T14:14:53.294Z</time></trkpt><trkpt lat="44.7397438" lon="9.2311477"><ele>946.4000000000001</ele><time>2026-04-25T14:14:54.294Z</time></trkpt><trkpt lat="44.7398344" lon="9.2311374"><ele>940.2</ele><time>2026-04-25T14:14:55.294Z</time></trkpt><trkpt lat="44.7399517" lon="9.2311079"><ele>934.0</ele><time>2026-04-25T14:14:56.294Z</time></trkpt><trkpt lat="44.7400933" lon="9.2310596"><ele>929.6666666666666</ele><time>2026-04-25T14:14:57.294Z</time></trkpt><trkpt lat="44.7402381" lon="9.2310167"><ele>925.3333333333333</ele><time>2026-04-25T14:14:58.294Z</time></trkpt><trkpt lat="44.7403908" lon="9.2309618"><ele>921.0</ele><time>2026-04-25T14:14:59.294Z</time></trkpt><trkpt lat="44.7405362" lon="9.2309225"><ele>921.0</ele><time>2026-04-25T14:15:00.294Z</time></trkpt><trkpt lat="44.7406732" lon="9.2308978"><ele>921.0</ele><time>2026-04-25T14:15:01.294Z</time></trkpt><trkpt lat="44.7408022" lon="9.2308722"><ele>921.0</ele><time>2026-04-25T14:15:02.293Z</time></trkpt><trkpt lat="44.7409265" lon="9.2308224"><ele>921.0</ele><time>2026-04-25T14:15:03.294Z</time></trkpt><trkpt lat="44.7410575" lon="9.2307423"><ele>915.3333333333333</ele><time>2026-04-25T14:15:04.294Z</time></trkpt><trkpt lat="44.7411936" lon="9.2306656"><ele>909.6666666666666</ele><time>2026-04-25T14:15:05.294Z</time></trkpt><trkpt lat="44.7413434" lon="9.2306051"><ele>904.0</ele><time>2026-04-25T14:15:06.294Z</time></trkpt><trkpt lat="44.7414944" lon="9.2305603"><ele>909.25</ele><time>2026-04-25T14:15:07.293Z</time></trkpt><trkpt lat="44.7416313" lon="9.230526"><ele>914.5</ele><time>2026-04-25T14:15:08.294Z</time></trkpt><trkpt lat="44.7417581" lon="9.2304712"><ele>919.75</ele><time>2026-04-25T14:15:09.294Z</time></trkpt><trkpt lat="44.741886" lon="9.2303875"><ele>925.0</ele><time>2026-04-25T14:15:10.294Z</time></trkpt><trkpt lat="44.7420035" lon="9.2303017"><ele>925.0</ele><time>2026-04-25T14:15:11.294Z</time></trkpt><trkpt lat="44.7421107" lon="9.230233"><ele>925.0</ele><time>2026-04-25T14:15:12.294Z</time></trkpt><trkpt lat="44.7422284" lon="9.2301816"><ele>925.0</ele><time>2026-04-25T14:15:13.294Z</time></trkpt><trkpt lat="44.7423516" lon="9.230153"><ele>925.0</ele><time>2026-04-25T14:15:14.294Z</time></trkpt><trkpt lat="44.7424903" lon="9.2301423"><ele>925.0</ele><time>2026-04-25T14:15:15.294Z</time></trkpt><trkpt lat="44.742634" lon="9.2301365"><ele>925.0</ele><time>2026-04-25T14:15:16.294Z</time></trkpt><trkpt lat="44.7427901" lon="9.2301361"><ele>925.0</ele><time>2026-04-25T14:15:17.294Z</time></trkpt><trkpt lat="44.7429533" lon="9.2301331"><ele>922.6666666666666</ele><time>2026-04-25T14:15:18.294Z</time></trkpt><trkpt lat="44.7431178" lon="9.2301079"><ele>920.3333333333333</ele><time>2026-04-25T14:15:19.294Z</time></trkpt><trkpt lat="44.7432634" lon="9.2301007"><ele>918.0</ele><time>2026-04-25T14:15:20.293Z</time></trkpt><trkpt lat="44.7434061" lon="9.230099"><ele>918.0</ele><time>2026-04-25T14:15:21.294Z</time></trkpt><trkpt lat="44.7435353" lon="9.2300851"><ele>918.0</ele><time>2026-04-25T14:15:22.294Z</time></trkpt><trkpt lat="44.7436526" lon="9.2300521"><ele>918.0</ele><time>2026-04-25T14:15:23.294Z</time></trkpt><trkpt lat="44.7437429" lon="9.2299859"><ele>918.0</ele><time>2026-04-25T14:15:24.294Z</time></trkpt><trkpt lat="44.7438148" lon="9.2298934"><ele>918.0</ele><time>2026-04-25T14:15:25.294Z</time></trkpt><trkpt lat="44.7438923" lon="9.2297769"><ele>921.2</ele><time>2026-04-25T14:15:26.294Z</time></trkpt><trkpt lat="44.7439932" lon="9.2296882"><ele>924.4</ele><time>2026-04-25T14:15:27.294Z</time></trkpt><trkpt lat="44.7440943" lon="9.2296354"><ele>927.6000000000001</ele><time>2026-04-25T14:15:28.294Z</time></trkpt><trkpt lat="44.7441698" lon="9.2295655"><ele>930.8000000000001</ele><time>2026-04-25T14:15:29.294Z</time></trkpt><trkpt lat="44.7442301" lon="9.2294544"><ele>934.0</ele><time>2026-04-25T14:15:30.294Z</time></trkpt><trkpt lat="44.7442866" lon="9.2293454"><ele>933.9999999999999</ele><time>2026-04-25T14:15:31.294Z</time></trkpt><trkpt lat="44.7443465" lon="9.2292846"><ele>934.0</ele><time>2026-04-25T14:15:32.294Z</time></trkpt><trkpt lat="44.7444155" lon="9.2292598"><ele>934.0</ele><time>2026-04-25T14:15:33.294Z</time></trkpt><trkpt lat="44.7445048" lon="9.2292652"><ele>934.0</ele><time>2026-04-25T14:15:34.294Z</time></trkpt><trkpt lat="44.7445949" lon="9.229287"><ele>933.9999999999999</ele><time>2026-04-25T14:15:35.294Z</time></trkpt><trkpt lat="44.7446722" lon="9.2293449"><ele>934.0</ele><time>2026-04-25T14:15:36.294Z</time></trkpt><trkpt lat="44.7447248" lon="9.2294473"><ele>933.8000000000001</ele><time>2026-04-25T14:15:37.294Z</time></trkpt><trkpt lat="44.7447767" lon="9.2295452"><ele>933.6000000000001</ele><time>2026-04-25T14:15:38.294Z</time></trkpt><trkpt lat="44.7448358" lon="9.2296357"><ele>933.4</ele><time>2026-04-25T14:15:39.294Z</time></trkpt><trkpt lat="44.7449197" lon="9.2297051"><ele>933.2</ele><time>2026-04-25T14:15:40.293Z</time></trkpt><trkpt lat="44.7450201" lon="9.2297574"><ele>933.0</ele><time>2026-04-25T14:15:41.294Z</time></trkpt><trkpt lat="44.7451346" lon="9.2298039"><ele>923.75</ele><time>2026-04-25T14:15:42.294Z</time></trkpt><trkpt lat="44.7452422" lon="9.2298492"><ele>914.5</ele><time>2026-04-25T14:15:43.294Z</time></trkpt><trkpt lat="44.7453533" lon="9.2298794"><ele>905.25</ele><time>2026-04-25T14:15:44.294Z</time></trkpt><trkpt lat="44.7454634" lon="9.2298843"><ele>896.0</ele><time>2026-04-25T14:15:45.294Z</time></trkpt><trkpt lat="44.7455818" lon="9.2298685"><ele>896.0</ele><time>2026-04-25T14:15:46.294Z</time></trkpt><trkpt lat="44.7456889" lon="9.2298786"><ele>895.9999999999999</ele><time>2026-04-25T14:15:47.294Z</time></trkpt><trkpt lat="44.7457956" lon="9.2299132"><ele>895.9999999999999</ele><time>2026-04-25T14:15:48.294Z</time></trkpt><trkpt lat="44.7459033" lon="9.2299594"><ele>896.0</ele><time>2026-04-25T14:15:49.294Z</time></trkpt><trkpt lat="44.7460118" lon="9.2299788"><ele>896.0</ele><time>2026-04-25T14:15:50.294Z</time></trkpt><trkpt lat="44.7461337" lon="9.229973"><ele>897.4</ele><time>2026-04-25T14:15:51.294Z</time></trkpt><trkpt lat="44.746247" lon="9.2299794"><ele>898.8</ele><time>2026-04-25T14:15:52.294Z</time></trkpt><trkpt lat="44.7463476" lon="9.2300092"><ele>900.1999999999999</ele><time>2026-04-25T14:15:53.294Z</time></trkpt><trkpt lat="44.7464341" lon="9.2300769"><ele>901.5999999999999</ele><time>2026-04-25T14:15:54.293Z</time></trkpt><trkpt lat="44.7465085" lon="9.2301953"><ele>903.0</ele><time>2026-04-25T14:15:55.294Z</time></trkpt><trkpt lat="44.7465606" lon="9.2303408"><ele>903.0</ele><time>2026-04-25T14:15:56.294Z</time></trkpt><trkpt lat="44.7466101" lon="9.2304874"><ele>903.0</ele><time>2026-04-25T14:15:57.294Z</time></trkpt><trkpt lat="44.7466643" lon="9.2305884"><ele>903.0</ele><time>2026-04-25T14:15:58.294Z</time></trkpt><trkpt lat="44.7467325" lon="9.2306644"><ele>903.0</ele><time>2026-04-25T14:15:59.294Z</time></trkpt><trkpt lat="44.746815" lon="9.2307131"><ele>903.0</ele><time>2026-04-25T14:16:00.293Z</time></trkpt><trkpt lat="44.7468962" lon="9.2307342"><ele>902.5999999999999</ele><time>2026-04-25T14:16:01.294Z</time></trkpt><trkpt lat="44.7469746" lon="9.2307178"><ele>902.1999999999999</ele><time>2026-04-25T14:16:02.294Z</time></trkpt><trkpt lat="44.7470454" lon="9.230686"><ele>901.8</ele><time>2026-04-25T14:16:03.294Z</time></trkpt><trkpt lat="44.7471129" lon="9.2306113"><ele>901.4</ele><time>2026-04-25T14:16:04.294Z</time></trkpt><trkpt lat="44.7471937" lon="9.2305417"><ele>901.0</ele><time>2026-04-25T14:16:05.294Z</time></trkpt><trkpt lat="44.7473001" lon="9.2304628"><ele>901.0</ele><time>2026-04-25T14:16:06.293Z</time></trkpt><trkpt lat="44.7474118" lon="9.2304149"><ele>901.0</ele><time>2026-04-25T14:16:07.294Z</time></trkpt><trkpt lat="44.7475353" lon="9.230386"><ele>901.0</ele><time>2026-04-25T14:16:08.294Z</time></trkpt><trkpt lat="44.7476605" lon="9.2304002"><ele>901.0</ele><time>2026-04-25T14:16:09.294Z</time></trkpt><trkpt lat="44.7477797" lon="9.2304609"><ele>897.75</ele><time>2026-04-25T14:16:10.294Z</time></trkpt><trkpt lat="44.7478974" lon="9.2305395"><ele>894.5</ele><time>2026-04-25T14:16:11.294Z</time></trkpt><trkpt lat="44.7480163" lon="9.2306487"><ele>891.25</ele><time>2026-04-25T14:16:12.294Z</time></trkpt><trkpt lat="44.7481331" lon="9.2307782"><ele>888.0</ele><time>2026-04-25T14:16:13.294Z</time></trkpt><trkpt lat="44.7482363" lon="9.2309401"><ele>888.0</ele><time>2026-04-25T14:16:14.294Z</time></trkpt><trkpt lat="44.7483327" lon="9.2311273"><ele>888.0</ele><time>2026-04-25T14:16:15.294Z</time></trkpt><trkpt lat="44.7484245" lon="9.2312916"><ele>888.0</ele><time>2026-04-25T14:16:16.294Z</time></trkpt><trkpt lat="44.7485255" lon="9.2314616"><ele>887.5</ele><time>2026-04-25T14:16:17.294Z</time></trkpt><trkpt lat="44.748628" lon="9.2315832"><ele>887.0</ele><time>2026-04-25T14:16:18.294Z</time></trkpt><trkpt lat="44.7487167" lon="9.2317162"><ele>886.5</ele><time>2026-04-25T14:16:19.294Z</time></trkpt><trkpt lat="44.7487885" lon="9.2318533"><ele>886.0</ele><time>2026-04-25T14:16:20.294Z</time></trkpt><trkpt lat="44.7488432" lon="9.2320078"><ele>886.0</ele><time>2026-04-25T14:16:21.294Z</time></trkpt><trkpt lat="44.7488867" lon="9.2321665"><ele>885.9999999999999</ele><time>2026-04-25T14:16:22.294Z</time></trkpt><trkpt lat="44.7489317" lon="9.2323085"><ele>885.9999999999999</ele><time>2026-04-25T14:16:23.294Z</time></trkpt><trkpt lat="44.7489946" lon="9.2324251"><ele>886.0</ele><time>2026-04-25T14:16:24.294Z</time></trkpt><trkpt lat="44.7490701" lon="9.2325221"><ele>886.0</ele><time>2026-04-25T14:16:25.294Z</time></trkpt><trkpt lat="44.7491587" lon="9.2325888"><ele>882.4</ele><time>2026-04-25T14:16:26.294Z</time></trkpt><trkpt lat="44.7492411" lon="9.2326427"><ele>878.8</ele><time>2026-04-25T14:16:27.294Z</time></trkpt><trkpt lat="44.7493348" lon="9.2326733"><ele>875.1999999999999</ele><time>2026-04-25T14:16:28.294Z</time></trkpt><trkpt lat="44.7494361" lon="9.2326908"><ele>871.5999999999999</ele><time>2026-04-25T14:16:29.293Z</time></trkpt><trkpt lat="44.7495337" lon="9.2327147"><ele>868.0</ele><time>2026-04-25T14:16:30.294Z</time></trkpt><trkpt lat="44.7496234" lon="9.2327496"><ele>868.0</ele><time>2026-04-25T14:16:31.293Z</time></trkpt><trkpt lat="44.7497145" lon="9.2328108"><ele>868.0</ele><time>2026-04-25T14:16:32.294Z</time></trkpt><trkpt lat="44.7498023" lon="9.2328934"><ele>868.0</ele><time>2026-04-25T14:16:33.293Z</time></trkpt><trkpt lat="44.7498892" lon="9.2329888"><ele>868.0</ele><time>2026-04-25T14:16:34.294Z</time></trkpt><trkpt lat="44.7499812" lon="9.2330809"><ele>868.0</ele><time>2026-04-25T14:16:35.294Z</time></trkpt><trkpt lat="44.7500755" lon="9.2331486"><ele>862.5</ele><time>2026-04-25T14:16:36.293Z</time></trkpt><trkpt lat="44.7501732" lon="9.2331998"><ele>857.0</ele><time>2026-04-25T14:16:37.294Z</time></trkpt><trkpt lat="44.750283" lon="9.2332256"><ele>851.5</ele><time>2026-04-25T14:16:38.294Z</time></trkpt><trkpt lat="44.7503997" lon="9.2332451"><ele>846.0</ele><time>2026-04-25T14:16:39.294Z</time></trkpt><trkpt lat="44.7505197" lon="9.2332645"><ele>846.0</ele><time>2026-04-25T14:16:40.294Z</time></trkpt><trkpt lat="44.7506377" lon="9.2332953"><ele>846.0</ele><time>2026-04-25T14:16:41.294Z</time></trkpt><trkpt lat="44.7507537" lon="9.2333303"><ele>846.0</ele><time>2026-04-25T14:16:42.294Z</time></trkpt><trkpt lat="44.7508673" lon="9.2333799"><ele>846.0</ele><time>2026-04-25T14:16:43.294Z</time></trkpt><trkpt lat="44.7509727" lon="9.2334377"><ele>848.0</ele><time>2026-04-25T14:16:44.294Z</time></trkpt><trkpt lat="44.751067" lon="9.2335175"><ele>850.0</ele><time>2026-04-25T14:16:45.293Z</time></trkpt><trkpt lat="44.7511582" lon="9.233615"><ele>852.0</ele><time>2026-04-25T14:16:46.294Z</time></trkpt><trkpt lat="44.7512526" lon="9.2337194"><ele>854.0</ele><time>2026-04-25T14:16:47.294Z</time></trkpt><trkpt lat="44.7513472" lon="9.2338181"><ele>854.0</ele><time>2026-04-25T14:16:48.293Z</time></trkpt><trkpt lat="44.7514433" lon="9.2338914"><ele>854.0000000000001</ele><time>2026-04-25T14:16:49.294Z</time></trkpt><trkpt lat="44.7515382" lon="9.2339402"><ele>854.0000000000001</ele><time>2026-04-25T14:16:50.294Z</time></trkpt><trkpt lat="44.7516253" lon="9.2339744"><ele>854.0</ele><time>2026-04-25T14:16:51.294Z</time></trkpt><trkpt lat="44.7517105" lon="9.2339945"><ele>854.0</ele><time>2026-04-25T14:16:52.294Z</time></trkpt><trkpt lat="44.7517904" lon="9.2339708"><ele>852.0</ele><time>2026-04-25T14:16:53.294Z</time></trkpt><trkpt lat="44.7518762" lon="9.233916"><ele>850.0000000000001</ele><time>2026-04-25T14:16:54.294Z</time></trkpt><trkpt lat="44.751955" lon="9.2338402"><ele>848.0</ele><time>2026-04-25T14:16:55.293Z</time></trkpt><trkpt lat="44.7520422" lon="9.2337638"><ele>846.0</ele><time>2026-04-25T14:16:56.294Z</time></trkpt><trkpt lat="44.7521321" lon="9.2337126"><ele>844.0</ele><time>2026-04-25T14:16:57.294Z</time></trkpt><trkpt lat="44.7522229" lon="9.2336958"><ele>844.0</ele><time>2026-04-25T14:16:58.294Z</time></trkpt><trkpt lat="44.7523195" lon="9.2336871"><ele>844.0</ele><time>2026-04-25T14:16:59.294Z</time></trkpt><trkpt lat="44.7524095" lon="9.2336626"><ele>844.0</ele><time>2026-04-25T14:17:00.294Z</time></trkpt><trkpt lat="44.7524903" lon="9.2336201"><ele>844.0</ele><time>2026-04-25T14:17:01.294Z</time></trkpt><trkpt lat="44.7525605" lon="9.2335518"><ele>844.0</ele><time>2026-04-25T14:17:02.294Z</time></trkpt><trkpt lat="44.752634" lon="9.2334606"><ele>845.6</ele><time>2026-04-25T14:17:03.294Z</time></trkpt><trkpt lat="44.752713" lon="9.2333606"><ele>847.2</ele><time>2026-04-25T14:17:04.294Z</time></trkpt><trkpt lat="44.7527842" lon="9.2332802"><ele>848.8000000000001</ele><time>2026-04-25T14:17:05.294Z</time></trkpt><trkpt lat="44.7528436" lon="9.2332325"><ele>850.4000000000001</ele><time>2026-04-25T14:17:06.293Z</time></trkpt><trkpt lat="44.75296" lon="9.2332569"><ele>852.0</ele><time>2026-04-25T14:17:08.294Z</time></trkpt><trkpt lat="44.753006" lon="9.2333314"><ele>852.0</ele><time>2026-04-25T14:17:09.294Z</time></trkpt><trkpt lat="44.7530378" lon="9.2334553"><ele>852.0</ele><time>2026-04-25T14:17:10.294Z</time></trkpt><trkpt lat="44.75304" lon="9.233613"><ele>852.0</ele><time>2026-04-25T14:17:11.294Z</time></trkpt><trkpt lat="44.753019" lon="9.2338192"><ele>852.0</ele><time>2026-04-25T14:17:12.293Z</time></trkpt><trkpt lat="44.7530049" lon="9.2339978"><ele>847.4000000000001</ele><time>2026-04-25T14:17:13.294Z</time></trkpt><trkpt lat="44.7530104" lon="9.2341343"><ele>842.8000000000001</ele><time>2026-04-25T14:17:14.294Z</time></trkpt><trkpt lat="44.7530454" lon="9.2342362"><ele>838.2</ele><time>2026-04-25T14:17:15.294Z</time></trkpt><trkpt lat="44.7531141" lon="9.2342868"><ele>833.6</ele><time>2026-04-25T14:17:16.294Z</time></trkpt><trkpt lat="44.7532164" lon="9.2343274"><ele>829.0</ele><time>2026-04-25T14:17:17.294Z</time></trkpt><trkpt lat="44.7533478" lon="9.2343857"><ele>829.0</ele><time>2026-04-25T14:17:18.294Z</time></trkpt><trkpt lat="44.7534889" lon="9.2344519"><ele>829.0</ele><time>2026-04-25T14:17:19.294Z</time></trkpt><trkpt lat="44.7536166" lon="9.2345336"><ele>829.0</ele><time>2026-04-25T14:17:20.294Z</time></trkpt><trkpt lat="44.7537355" lon="9.2346102"><ele>829.0</ele><time>2026-04-25T14:17:21.294Z</time></trkpt><trkpt lat="44.7538467" lon="9.2346532"><ele>832.25</ele><time>2026-04-25T14:17:22.294Z</time></trkpt><trkpt lat="44.753958" lon="9.2346778"><ele>835.5</ele><time>2026-04-25T14:17:23.294Z</time></trkpt><trkpt lat="44.7540698" lon="9.2346895"><ele>838.75</ele><time>2026-04-25T14:17:24.293Z</time></trkpt><trkpt lat="44.754191" lon="9.2346768"><ele>842.0</ele><time>2026-04-25T14:17:25.293Z</time></trkpt><trkpt lat="44.7543095" lon="9.2346616"><ele>843.0</ele><time>2026-04-25T14:17:26.294Z</time></trkpt><trkpt lat="44.7544185" lon="9.23466"><ele>844.0</ele><time>2026-04-25T14:17:27.294Z</time></trkpt><trkpt lat="44.7546252" lon="9.2347282"><ele>845.0</ele><time>2026-04-25T14:17:29.293Z</time></trkpt><trkpt lat="44.7547138" lon="9.2348015"><ele>846.0</ele><time>2026-04-25T14:17:30.294Z</time></trkpt><trkpt lat="44.7547973" lon="9.2349007"><ele>837.75</ele><time>2026-04-25T14:17:31.294Z</time></trkpt><trkpt lat="44.754876" lon="9.2350129"><ele>829.5</ele><time>2026-04-25T14:17:32.294Z</time></trkpt><trkpt lat="44.7550274" lon="9.2351916"><ele>821.25</ele><time>2026-04-25T14:17:34.294Z</time></trkpt><trkpt lat="44.7551169" lon="9.2352459"><ele>813.0</ele><time>2026-04-25T14:17:35.294Z</time></trkpt><trkpt lat="44.75523" lon="9.2352519"><ele>813.0</ele><time>2026-04-25T14:17:36.294Z</time></trkpt><trkpt lat="44.7553503" lon="9.2352442"><ele>813.0</ele><time>2026-04-25T14:17:37.294Z</time></trkpt><trkpt lat="44.755459" lon="9.2352468"><ele>813.0</ele><time>2026-04-25T14:17:38.294Z</time></trkpt><trkpt lat="44.7555896" lon="9.2353114"><ele>813.0</ele><time>2026-04-25T14:17:40.294Z</time></trkpt><trkpt lat="44.7556152" lon="9.2354318"><ele>813.0</ele><time>2026-04-25T14:17:42.293Z</time></trkpt><trkpt lat="44.7555688" lon="9.2354993"><ele>813.0</ele><time>2026-04-25T14:17:43.294Z</time></trkpt><trkpt lat="44.7554837" lon="9.2355472"><ele>813.0</ele><time>2026-04-25T14:17:44.294Z</time></trkpt><trkpt lat="44.7553667" lon="9.2355866"><ele>813.0</ele><time>2026-04-25T14:17:45.294Z</time></trkpt><trkpt lat="44.7552361" lon="9.235651"><ele>813.0</ele><time>2026-04-25T14:17:46.294Z</time></trkpt><trkpt lat="44.7550989" lon="9.2357349"><ele>809.25</ele><time>2026-04-25T14:17:47.294Z</time></trkpt><trkpt lat="44.7549751" lon="9.2358162"><ele>805.5</ele><time>2026-04-25T14:17:48.294Z</time></trkpt><trkpt lat="44.7548556" lon="9.2358841"><ele>801.75</ele><time>2026-04-25T14:17:49.294Z</time></trkpt><trkpt lat="44.7547398" lon="9.2359263"><ele>798.0</ele><time>2026-04-25T14:17:50.294Z</time></trkpt><trkpt lat="44.7546315" lon="9.2359274"><ele>798.0</ele><time>2026-04-25T14:17:51.294Z</time></trkpt><trkpt lat="44.7545443" lon="9.2359115"><ele>798.0</ele><time>2026-04-25T14:17:52.294Z</time></trkpt><trkpt lat="44.7544666" lon="9.2359023"><ele>798.0</ele><time>2026-04-25T14:17:53.294Z</time></trkpt><trkpt lat="44.754393" lon="9.235947"><ele>798.0</ele><time>2026-04-25T14:17:55.294Z</time></trkpt><trkpt lat="44.7543662" lon="9.2360448"><ele>798.0</ele><time>2026-04-25T14:17:57.294Z</time></trkpt><trkpt lat="44.7544073" lon="9.23617"><ele>798.0</ele><time>2026-04-25T14:17:59.294Z</time></trkpt><trkpt lat="44.7544635" lon="9.2362293"><ele>798.0</ele><time>2026-04-25T14:18:00.294Z</time></trkpt><trkpt lat="44.7545634" lon="9.2362901"><ele>798.0</ele><time>2026-04-25T14:18:01.294Z</time></trkpt><trkpt lat="44.7546859" lon="9.2363578"><ele>798.0</ele><time>2026-04-25T14:18:02.294Z</time></trkpt><trkpt lat="44.7548104" lon="9.2364103"><ele>798.0</ele><time>2026-04-25T14:18:03.294Z</time></trkpt><trkpt lat="44.7549272" lon="9.2364439"><ele>798.0</ele><time>2026-04-25T14:18:04.294Z</time></trkpt><trkpt lat="44.7550424" lon="9.2364551"><ele>798.0</ele><time>2026-04-25T14:18:05.294Z</time></trkpt><trkpt lat="44.7552726" lon="9.2364329"><ele>798.0</ele><time>2026-04-25T14:18:07.294Z</time></trkpt><trkpt lat="44.7553965" lon="9.2364254"><ele>796.25</ele><time>2026-04-25T14:18:08.294Z</time></trkpt><trkpt lat="44.7555263" lon="9.2364313"><ele>794.5</ele><time>2026-04-25T14:18:09.294Z</time></trkpt><trkpt lat="44.7556517" lon="9.2364475"><ele>792.75</ele><time>2026-04-25T14:18:10.294Z</time></trkpt><trkpt lat="44.7557749" lon="9.236478"><ele>791.0</ele><time>2026-04-25T14:18:11.294Z</time></trkpt><trkpt lat="44.7558939" lon="9.2365149"><ele>787.3333333333334</ele><time>2026-04-25T14:18:12.294Z</time></trkpt><trkpt lat="44.7560134" lon="9.236551"><ele>783.6666666666667</ele><time>2026-04-25T14:18:13.294Z</time></trkpt><trkpt lat="44.7561305" lon="9.236579"><ele>780.0</ele><time>2026-04-25T14:18:14.294Z</time></trkpt><trkpt lat="44.7563391" lon="9.2366092"><ele>781.75</ele><time>2026-04-25T14:18:16.294Z</time></trkpt><trkpt lat="44.7565429" lon="9.2365701"><ele>783.5</ele><time>2026-04-25T14:18:18.294Z</time></trkpt><trkpt lat="44.7566494" lon="9.2365232"><ele>785.25</ele><time>2026-04-25T14:18:19.294Z</time></trkpt><trkpt lat="44.7567481" lon="9.2364509"><ele>787.0</ele><time>2026-04-25T14:18:20.294Z</time></trkpt><trkpt lat="44.7568282" lon="9.2363574"><ele>784.25</ele><time>2026-04-25T14:18:21.294Z</time></trkpt><trkpt lat="44.7568932" lon="9.2362345"><ele>781.5</ele><time>2026-04-25T14:18:22.294Z</time></trkpt><trkpt lat="44.7569544" lon="9.2361196"><ele>778.75</ele><time>2026-04-25T14:18:23.294Z</time></trkpt><trkpt lat="44.7571112" lon="9.2359959"><ele>776.0</ele><time>2026-04-25T14:18:25.294Z</time></trkpt><trkpt lat="44.7572189" lon="9.2359884"><ele>776.0</ele><time>2026-04-25T14:18:26.294Z</time></trkpt><trkpt lat="44.7573316" lon="9.2359917"><ele>776.0</ele><time>2026-04-25T14:18:27.294Z</time></trkpt><trkpt lat="44.7574418" lon="9.235987"><ele>776.0</ele><time>2026-04-25T14:18:28.294Z</time></trkpt><trkpt lat="44.7576863" lon="9.2359497"><ele>777.6666666666667</ele><time>2026-04-25T14:18:30.294Z</time></trkpt><trkpt lat="44.7578245" lon="9.2359073"><ele>779.3333333333333</ele><time>2026-04-25T14:18:31.294Z</time></trkpt><trkpt lat="44.7580688" lon="9.2357297"><ele>781.0</ele><time>2026-04-25T14:18:33.294Z</time></trkpt><trkpt lat="44.7581952" lon="9.235614"><ele>781.0</ele><time>2026-04-25T14:18:34.294Z</time></trkpt><trkpt lat="44.7583129" lon="9.2355038"><ele>781.0</ele><time>2026-04-25T14:18:35.294Z</time></trkpt><trkpt lat="44.7584239" lon="9.2354008"><ele>781.0</ele><time>2026-04-25T14:18:36.294Z</time></trkpt><trkpt lat="44.7585331" lon="9.2353025"><ele>781.0</ele><time>2026-04-25T14:18:37.294Z</time></trkpt><trkpt lat="44.7586415" lon="9.2352115"><ele>776.0</ele><time>2026-04-25T14:18:38.293Z</time></trkpt><trkpt lat="44.7587483" lon="9.2351386"><ele>771.0</ele><time>2026-04-25T14:18:39.294Z</time></trkpt><trkpt lat="44.7588557" lon="9.2350751"><ele>766.0</ele><time>2026-04-25T14:18:40.294Z</time></trkpt><trkpt lat="44.7589658" lon="9.2350097"><ele>761.0</ele><time>2026-04-25T14:18:41.294Z</time></trkpt><trkpt lat="44.7590692" lon="9.2349565"><ele>761.0</ele><time>2026-04-25T14:18:42.293Z</time></trkpt><trkpt lat="44.7591733" lon="9.2349403"><ele>761.0</ele><time>2026-04-25T14:18:43.294Z</time></trkpt><trkpt lat="44.7592757" lon="9.2349618"><ele>761.0</ele><time>2026-04-25T14:18:44.294Z</time></trkpt><trkpt lat="44.7593708" lon="9.2350241"><ele>761.0</ele><time>2026-04-25T14:18:45.294Z</time></trkpt><trkpt lat="44.7594591" lon="9.2351274"><ele>761.0</ele><time>2026-04-25T14:18:46.294Z</time></trkpt><trkpt lat="44.7595406" lon="9.235214"><ele>757.25</ele><time>2026-04-25T14:18:47.294Z</time></trkpt><trkpt lat="44.7596137" lon="9.2352681"><ele>753.5</ele><time>2026-04-25T14:18:48.294Z</time></trkpt><trkpt lat="44.7596847" lon="9.2352892"><ele>749.75</ele><time>2026-04-25T14:18:49.294Z</time></trkpt><trkpt lat="44.7597579" lon="9.2352712"><ele>746.0</ele><time>2026-04-25T14:18:50.294Z</time></trkpt><trkpt lat="44.7599296" lon="9.2350566"><ele>746.0</ele><time>2026-04-25T14:18:52.294Z</time></trkpt><trkpt lat="44.7600103" lon="9.2349457"><ele>746.0</ele><time>2026-04-25T14:18:53.294Z</time></trkpt><trkpt lat="44.7600868" lon="9.2348511"><ele>746.0</ele><time>2026-04-25T14:18:54.294Z</time></trkpt><trkpt lat="44.7601714" lon="9.2347889"><ele>746.0</ele><time>2026-04-25T14:18:55.294Z</time></trkpt><trkpt lat="44.7602605" lon="9.2347634"><ele>746.0</ele><time>2026-04-25T14:18:56.294Z</time></trkpt><trkpt lat="44.7603635" lon="9.2347793"><ele>749.0</ele><time>2026-04-25T14:18:57.294Z</time></trkpt><trkpt lat="44.7604716" lon="9.2347985"><ele>752.0</ele><time>2026-04-25T14:18:58.294Z</time></trkpt><trkpt lat="44.760587" lon="9.234808"><ele>755.0</ele><time>2026-04-25T14:18:59.294Z</time></trkpt><trkpt lat="44.7607063" lon="9.234808"><ele>758.0</ele><time>2026-04-25T14:19:00.294Z</time></trkpt><trkpt lat="44.7608222" lon="9.2348052"><ele>755.2</ele><time>2026-04-25T14:19:01.294Z</time></trkpt><trkpt lat="44.7609413" lon="9.2348053"><ele>752.4</ele><time>2026-04-25T14:19:02.293Z</time></trkpt><trkpt lat="44.7610547" lon="9.2347979"><ele>749.6</ele><time>2026-04-25T14:19:03.293Z</time></trkpt><trkpt lat="44.7611627" lon="9.2347814"><ele>746.8000000000001</ele><time>2026-04-25T14:19:04.294Z</time></trkpt><trkpt lat="44.7612631" lon="9.2347593"><ele>744.0</ele><time>2026-04-25T14:19:05.294Z</time></trkpt><trkpt lat="44.7613631" lon="9.2347326"><ele>744.0</ele><time>2026-04-25T14:19:06.294Z</time></trkpt><trkpt lat="44.7614654" lon="9.2346999"><ele>744.0</ele><time>2026-04-25T14:19:07.294Z</time></trkpt><trkpt lat="44.7615684" lon="9.2346643"><ele>744.0</ele><time>2026-04-25T14:19:08.294Z</time></trkpt><trkpt lat="44.7616674" lon="9.2346117"><ele>744.0</ele><time>2026-04-25T14:19:09.294Z</time></trkpt><trkpt lat="44.7617624" lon="9.2345535"><ele>744.0</ele><time>2026-04-25T14:19:10.294Z</time></trkpt><trkpt lat="44.7618535" lon="9.2344694"><ele>740.8000000000001</ele><time>2026-04-25T14:19:11.293Z</time></trkpt><trkpt lat="44.7619339" lon="9.234371"><ele>737.6</ele><time>2026-04-25T14:19:12.294Z</time></trkpt><trkpt lat="44.7620223" lon="9.2342757"><ele>734.4</ele><time>2026-04-25T14:19:13.294Z</time></trkpt><trkpt lat="44.762119" lon="9.2342006"><ele>731.2</ele><time>2026-04-25T14:19:14.294Z</time></trkpt><trkpt lat="44.7622276" lon="9.2341695"><ele>728.0</ele><time>2026-04-25T14:19:15.294Z</time></trkpt><trkpt lat="44.7623449" lon="9.2341786"><ele>728.0</ele><time>2026-04-25T14:19:16.294Z</time></trkpt><trkpt lat="44.7624618" lon="9.2342191"><ele>728.0</ele><time>2026-04-25T14:19:17.294Z</time></trkpt><trkpt lat="44.7625831" lon="9.2342635"><ele>728.0</ele><time>2026-04-25T14:19:18.294Z</time></trkpt><trkpt lat="44.7627015" lon="9.234311"><ele>728.0</ele><time>2026-04-25T14:19:19.294Z</time></trkpt><trkpt lat="44.7628065" lon="9.2343623"><ele>726.0</ele><time>2026-04-25T14:19:20.294Z</time></trkpt><trkpt lat="44.7628972" lon="9.234408"><ele>724.0</ele><time>2026-04-25T14:19:21.293Z</time></trkpt><trkpt lat="44.7629804" lon="9.2344355"><ele>722.0</ele><time>2026-04-25T14:19:22.294Z</time></trkpt><trkpt lat="44.7630536" lon="9.2344421"><ele>720.0</ele><time>2026-04-25T14:19:23.294Z</time></trkpt><trkpt lat="44.7631294" lon="9.2344094"><ele>718.0</ele><time>2026-04-25T14:19:24.293Z</time></trkpt><trkpt lat="44.7631972" lon="9.234345"><ele>716.0</ele><time>2026-04-25T14:19:25.294Z</time></trkpt><trkpt lat="44.763272" lon="9.2342495"><ele>716.0</ele><time>2026-04-25T14:19:26.294Z</time></trkpt><trkpt lat="44.7633544" lon="9.2341417"><ele>716.0</ele><time>2026-04-25T14:19:27.294Z</time></trkpt><trkpt lat="44.763455" lon="9.234016"><ele>716.0</ele><time>2026-04-25T14:19:28.294Z</time></trkpt><trkpt lat="44.7635648" lon="9.2338935"><ele>716.0</ele><time>2026-04-25T14:19:29.294Z</time></trkpt><trkpt lat="44.763841" lon="9.2336597"><ele>716.0</ele><time>2026-04-25T14:19:31.293Z</time></trkpt><trkpt lat="44.7640055" lon="9.2335473"><ele>716.0</ele><time>2026-04-25T14:19:32.294Z</time></trkpt><trkpt lat="44.7641741" lon="9.2334399"><ele>716.0</ele><time>2026-04-25T14:19:33.294Z</time></trkpt><trkpt lat="44.7643336" lon="9.2333391"><ele>713.6666666666666</ele><time>2026-04-25T14:19:34.294Z</time></trkpt><trkpt lat="44.7644775" lon="9.2332411"><ele>711.3333333333334</ele><time>2026-04-25T14:19:35.294Z</time></trkpt><trkpt lat="44.7646107" lon="9.2331386"><ele>709.0</ele><time>2026-04-25T14:19:36.293Z</time></trkpt><trkpt lat="44.7647443" lon="9.2330372"><ele>709.0</ele><time>2026-04-25T14:19:37.294Z</time></trkpt><trkpt lat="44.7648744" lon="9.2329486"><ele>709.0</ele><time>2026-04-25T14:19:38.294Z</time></trkpt><trkpt lat="44.7649988" lon="9.2328422"><ele>709.0</ele><time>2026-04-25T14:19:39.294Z</time></trkpt><trkpt lat="44.765104" lon="9.2327121"><ele>709.0</ele><time>2026-04-25T14:19:40.294Z</time></trkpt><trkpt lat="44.7651867" lon="9.232564"><ele>704.8000000000001</ele><time>2026-04-25T14:19:41.294Z</time></trkpt><trkpt lat="44.7652609" lon="9.2324016"><ele>700.6</ele><time>2026-04-25T14:19:42.294Z</time></trkpt><trkpt lat="44.765325" lon="9.2322597"><ele>696.4</ele><time>2026-04-25T14:19:43.294Z</time></trkpt><trkpt lat="44.7653779" lon="9.2321521"><ele>692.2</ele><time>2026-04-25T14:19:44.294Z</time></trkpt><trkpt lat="44.7654233" lon="9.2320792"><ele>688.0</ele><time>2026-04-25T14:19:45.294Z</time></trkpt><trkpt lat="44.7655208" lon="9.2320637"><ele>688.0</ele><time>2026-04-25T14:19:47.294Z</time></trkpt><trkpt lat="44.7655428" lon="9.2322288"><ele>688.0</ele><time>2026-04-25T14:19:49.294Z</time></trkpt><trkpt lat="44.7655061" lon="9.2323434"><ele>688.0</ele><time>2026-04-25T14:19:50.294Z</time></trkpt><trkpt lat="44.7654267" lon="9.2325117"><ele>688.0</ele><time>2026-04-25T14:19:51.294Z</time></trkpt><trkpt lat="44.7653633" lon="9.2326667"><ele>688.5</ele><time>2026-04-25T14:19:52.294Z</time></trkpt><trkpt lat="44.76529" lon="9.2328517"><ele>689.0</ele><time>2026-04-25T14:19:53.294Z</time></trkpt><trkpt lat="44.7652267" lon="9.2330083"><ele>689.5</ele><time>2026-04-25T14:19:54.294Z</time></trkpt><trkpt lat="44.7651533" lon="9.2331517"><ele>690.0</ele><time>2026-04-25T14:19:55.294Z</time></trkpt><trkpt lat="44.7650783" lon="9.2332683"><ele>690.0</ele><time>2026-04-25T14:19:56.294Z</time></trkpt><trkpt lat="44.765" lon="9.2333633"><ele>690.0</ele><time>2026-04-25T14:19:57.294Z</time></trkpt><trkpt lat="44.7649167" lon="9.2334217"><ele>690.0</ele><time>2026-04-25T14:19:58.294Z</time></trkpt><trkpt lat="44.7648183" lon="9.2334583"><ele>690.0</ele><time>2026-04-25T14:19:59.294Z</time></trkpt><trkpt lat="44.7647167" lon="9.23352"><ele>690.0</ele><time>2026-04-25T14:20:00.294Z</time></trkpt><trkpt lat="44.7646183" lon="9.2335867"><ele>690.0</ele><time>2026-04-25T14:20:01.294Z</time></trkpt><trkpt lat="44.7645333" lon="9.2336767"><ele>690.0</ele><time>2026-04-25T14:20:02.294Z</time></trkpt><trkpt lat="44.7644483" lon="9.23377"><ele>690.0</ele><time>2026-04-25T14:20:03.294Z</time></trkpt><trkpt lat="44.7643683" lon="9.2338683"><ele>690.0</ele><time>2026-04-25T14:20:04.294Z</time></trkpt><trkpt lat="44.7642833" lon="9.2339733"><ele>690.0</ele><time>2026-04-25T14:20:05.294Z</time></trkpt><trkpt lat="44.7642017" lon="9.23409"><ele>689.5</ele><time>2026-04-25T14:20:06.294Z</time></trkpt><trkpt lat="44.7641267" lon="9.23422"><ele>689.0</ele><time>2026-04-25T14:20:07.294Z</time></trkpt><trkpt lat="44.7640667" lon="9.23437"><ele>688.5</ele><time>2026-04-25T14:20:08.294Z</time></trkpt><trkpt lat="44.7640083" lon="9.2345267"><ele>688.0</ele><time>2026-04-25T14:20:09.294Z</time></trkpt><trkpt lat="44.7639633" lon="9.23471"><ele>684.25</ele><time>2026-04-25T14:20:10.294Z</time></trkpt><trkpt lat="44.76392" lon="9.234905"><ele>680.5</ele><time>2026-04-25T14:20:11.294Z</time></trkpt><trkpt lat="44.763885" lon="9.2351033"><ele>676.75</ele><time>2026-04-25T14:20:12.294Z</time></trkpt><trkpt lat="44.7638483" lon="9.2353"><ele>673.0</ele><time>2026-04-25T14:20:13.294Z</time></trkpt><trkpt lat="44.7638133" lon="9.2354967"><ele>670.5999999999999</ele><time>2026-04-25T14:20:14.293Z</time></trkpt><trkpt lat="44.7637883" lon="9.23567"><ele>668.1999999999999</ele><time>2026-04-25T14:20:15.294Z</time></trkpt><trkpt lat="44.7637517" lon="9.23582"><ele>665.8</ele><time>2026-04-25T14:20:16.294Z</time></trkpt><trkpt lat="44.7637" lon="9.2359433"><ele>663.4</ele><time>2026-04-25T14:20:17.294Z</time></trkpt><trkpt lat="44.7636417" lon="9.2360383"><ele>661.0</ele><time>2026-04-25T14:20:18.293Z</time></trkpt><trkpt lat="44.7635633" lon="9.236105"><ele>664.25</ele><time>2026-04-25T14:20:19.294Z</time></trkpt><trkpt lat="44.7634517" lon="9.236165"><ele>667.5</ele><time>2026-04-25T14:20:20.294Z</time></trkpt><trkpt lat="44.76334" lon="9.2362417"><ele>670.75</ele><time>2026-04-25T14:20:21.294Z</time></trkpt><trkpt lat="44.76323" lon="9.23634"><ele>674.0</ele><time>2026-04-25T14:20:22.294Z</time></trkpt><trkpt lat="44.7631333" lon="9.2364467"><ele>670.25</ele><time>2026-04-25T14:20:23.294Z</time></trkpt><trkpt lat="44.7630433" lon="9.2365567"><ele>666.5</ele><time>2026-04-25T14:20:24.294Z</time></trkpt><trkpt lat="44.76295" lon="9.2366683"><ele>662.75</ele><time>2026-04-25T14:20:25.293Z</time></trkpt><trkpt lat="44.762845" lon="9.2367967"><ele>659.0</ele><time>2026-04-25T14:20:26.294Z</time></trkpt><trkpt lat="44.762725" lon="9.23693"><ele>662.0</ele><time>2026-04-25T14:20:27.294Z</time></trkpt><trkpt lat="44.7625967" lon="9.2370717"><ele>665.0</ele><time>2026-04-25T14:20:28.294Z</time></trkpt><trkpt lat="44.7624583" lon="9.2372183"><ele>668.0</ele><time>2026-04-25T14:20:29.294Z</time></trkpt><trkpt lat="44.7623183" lon="9.237375"><ele>661.3333333333333</ele><time>2026-04-25T14:20:30.294Z</time></trkpt><trkpt lat="44.762175" lon="9.23751"><ele>654.6666666666666</ele><time>2026-04-25T14:20:31.294Z</time></trkpt><trkpt lat="44.7620133" lon="9.2376383"><ele>648.0</ele><time>2026-04-25T14:20:32.294Z</time></trkpt><trkpt lat="44.76187" lon="9.2377583"><ele>651.0</ele><time>2026-04-25T14:20:33.294Z</time></trkpt><trkpt lat="44.7617467" lon="9.2378667"><ele>654.0</ele><time>2026-04-25T14:20:34.294Z</time></trkpt><trkpt lat="44.7615467" lon="9.2380983"><ele>657.0</ele><time>2026-04-25T14:20:36.294Z</time></trkpt><trkpt lat="44.7614767" lon="9.2382267"><ele>653.8333333333334</ele><time>2026-04-25T14:20:37.294Z</time></trkpt><trkpt lat="44.7614233" lon="9.2383417"><ele>650.6666666666666</ele><time>2026-04-25T14:20:38.294Z</time></trkpt><trkpt lat="44.7613733" lon="9.2384017"><ele>647.5</ele><time>2026-04-25T14:20:39.294Z</time></trkpt><trkpt lat="44.7613" lon="9.2384383"><ele>644.3333333333333</ele><time>2026-04-25T14:20:40.294Z</time></trkpt><trkpt lat="44.7612117" lon="9.238455"><ele>641.1666666666666</ele><time>2026-04-25T14:20:41.294Z</time></trkpt><trkpt lat="44.7611267" lon="9.2384883"><ele>638.0</ele><time>2026-04-25T14:20:42.294Z</time></trkpt><trkpt lat="44.7610617" lon="9.2385333"><ele>638.0</ele><time>2026-04-25T14:20:43.294Z</time></trkpt><trkpt lat="44.7610383" lon="9.2386917"><ele>638.0</ele><time>2026-04-25T14:20:45.294Z</time></trkpt><trkpt lat="44.7610717" lon="9.2387717"><ele>638.0</ele><time>2026-04-25T14:20:46.294Z</time></trkpt><trkpt lat="44.7611233" lon="9.2388333"><ele>638.0</ele><time>2026-04-25T14:20:47.294Z</time></trkpt><trkpt lat="44.761205" lon="9.2388483"><ele>638.0</ele><time>2026-04-25T14:20:48.294Z</time></trkpt><trkpt lat="44.7613117" lon="9.2388233"><ele>638.0</ele><time>2026-04-25T14:20:49.294Z</time></trkpt><trkpt lat="44.76141" lon="9.2387433"><ele>638.0</ele><time>2026-04-25T14:20:50.294Z</time></trkpt><trkpt lat="44.7615083" lon="9.2386117"><ele>638.0</ele><time>2026-04-25T14:20:51.294Z</time></trkpt><trkpt lat="44.76162" lon="9.2384283"><ele>638.0</ele><time>2026-04-25T14:20:52.294Z</time></trkpt><trkpt lat="44.7617217" lon="9.238305"><ele>638.0</ele><time>2026-04-25T14:20:53.294Z</time></trkpt><trkpt lat="44.7618333" lon="9.2381917"><ele>640.5</ele><time>2026-04-25T14:20:54.294Z</time></trkpt><trkpt lat="44.7619617" lon="9.23811"><ele>643.0</ele><time>2026-04-25T14:20:55.293Z</time></trkpt><trkpt lat="44.762085" lon="9.2380517"><ele>645.5</ele><time>2026-04-25T14:20:56.294Z</time></trkpt><trkpt lat="44.762195" lon="9.2380133"><ele>648.0</ele><time>2026-04-25T14:20:57.294Z</time></trkpt><trkpt lat="44.7622817" lon="9.2380033"><ele>648.0</ele><time>2026-04-25T14:20:58.294Z</time></trkpt><trkpt lat="44.76236" lon="9.23802"><ele>648.0</ele><time>2026-04-25T14:20:59.294Z</time></trkpt><trkpt lat="44.76243" lon="9.2381033"><ele>648.0</ele><time>2026-04-25T14:21:01.294Z</time></trkpt><trkpt lat="44.762435" lon="9.2381917"><ele>648.0</ele><time>2026-04-25T14:21:02.294Z</time></trkpt><trkpt lat="44.7623683" lon="9.2382883"><ele>648.0</ele><time>2026-04-25T14:21:03.294Z</time></trkpt><trkpt lat="44.7622567" lon="9.2383967"><ele>640.3333333333334</ele><time>2026-04-25T14:21:04.294Z</time></trkpt><trkpt lat="44.762115" lon="9.23851"><ele>632.6666666666667</ele><time>2026-04-25T14:21:05.294Z</time></trkpt><trkpt lat="44.7619917" lon="9.2386567"><ele>625.0</ele><time>2026-04-25T14:21:06.294Z</time></trkpt><trkpt lat="44.7619" lon="9.238825"><ele>625.25</ele><time>2026-04-25T14:21:07.294Z</time></trkpt><trkpt lat="44.76182" lon="9.2390167"><ele>625.5</ele><time>2026-04-25T14:21:08.294Z</time></trkpt><trkpt lat="44.7617617" lon="9.2391983"><ele>625.75</ele><time>2026-04-25T14:21:09.294Z</time></trkpt><trkpt lat="44.7617133" lon="9.2393533"><ele>626.0</ele><time>2026-04-25T14:21:10.294Z</time></trkpt><trkpt lat="44.7616667" lon="9.2395117"><ele>626.0</ele><time>2026-04-25T14:21:11.294Z</time></trkpt><trkpt lat="44.761615" lon="9.23965"><ele>626.0</ele><time>2026-04-25T14:21:12.294Z</time></trkpt><trkpt lat="44.7615333" lon="9.2397817"><ele>626.0</ele><time>2026-04-25T14:21:13.294Z</time></trkpt><trkpt lat="44.7614367" lon="9.2398617"><ele>626.0</ele><time>2026-04-25T14:21:14.294Z</time></trkpt><trkpt lat="44.7613517" lon="9.2399333"><ele>626.0</ele><time>2026-04-25T14:21:15.293Z</time></trkpt><trkpt lat="44.76127" lon="9.2400017"><ele>622.75</ele><time>2026-04-25T14:21:16.294Z</time></trkpt><trkpt lat="44.7611583" lon="9.240205"><ele>619.5</ele><time>2026-04-25T14:21:18.294Z</time></trkpt><trkpt lat="44.7611383" lon="9.240355"><ele>616.25</ele><time>2026-04-25T14:21:19.294Z</time></trkpt><trkpt lat="44.7611133" lon="9.240505"><ele>613.0</ele><time>2026-04-25T14:21:20.293Z</time></trkpt><trkpt lat="44.7610833" lon="9.2406433"><ele>612.8333333333334</ele><time>2026-04-25T14:21:21.294Z</time></trkpt><trkpt lat="44.7610483" lon="9.240775"><ele>612.6666666666667</ele><time>2026-04-25T14:21:22.294Z</time></trkpt><trkpt lat="44.7609983" lon="9.2408783"><ele>612.5</ele><time>2026-04-25T14:21:23.294Z</time></trkpt><trkpt lat="44.76093" lon="9.2409033"><ele>612.3333333333334</ele><time>2026-04-25T14:21:24.294Z</time></trkpt><trkpt lat="44.7608517" lon="9.2409133"><ele>612.1666666666666</ele><time>2026-04-25T14:21:25.294Z</time></trkpt><trkpt lat="44.76076" lon="9.2408717"><ele>612.0</ele><time>2026-04-25T14:21:26.293Z</time></trkpt><trkpt lat="44.7606783" lon="9.2408517"><ele>612.0</ele><time>2026-04-25T14:21:27.294Z</time></trkpt><trkpt lat="44.76061" lon="9.2408833"><ele>612.0</ele><time>2026-04-25T14:21:28.294Z</time></trkpt><trkpt lat="44.7605" lon="9.2410367"><ele>612.0</ele><time>2026-04-25T14:21:31.294Z</time></trkpt><trkpt lat="44.7604983" lon="9.2411433"><ele>612.0</ele><time>2026-04-25T14:21:34.294Z</time></trkpt><trkpt lat="44.7605967" lon="9.2411433"><ele>612.0</ele><time>2026-04-25T14:21:36.294Z</time></trkpt><trkpt lat="44.76066" lon="9.241155"><ele>612.0</ele><time>2026-04-25T14:21:37.294Z</time></trkpt><trkpt lat="44.7607267" lon="9.2411633"><ele>612.0</ele><time>2026-04-25T14:21:38.294Z</time></trkpt><trkpt lat="44.7607917" lon="9.2411733"><ele>612.0</ele><time>2026-04-25T14:21:39.294Z</time></trkpt><trkpt lat="44.7609067" lon="9.2411917"><ele>612.0</ele><time>2026-04-25T14:21:41.294Z</time></trkpt><trkpt lat="44.761025" lon="9.24115"><ele>612.0</ele><time>2026-04-25T14:21:43.294Z</time></trkpt><trkpt lat="44.7611333" lon="9.241065"><ele>612.2</ele><time>2026-04-25T14:21:45.294Z</time></trkpt><trkpt lat="44.761215" lon="9.240955"><ele>612.4000000000001</ele><time>2026-04-25T14:21:47.294Z</time></trkpt><trkpt lat="44.7612983" lon="9.240815"><ele>612.5999999999999</ele><time>2026-04-25T14:21:49.294Z</time></trkpt><trkpt lat="44.7613617" lon="9.2407383"><ele>612.8</ele><time>2026-04-25T14:21:50.294Z</time></trkpt><trkpt lat="44.7614217" lon="9.2406667"><ele>613.0</ele><time>2026-04-25T14:21:51.294Z</time></trkpt><trkpt lat="44.76152" lon="9.240585"><ele>613.0</ele><time>2026-04-25T14:21:52.294Z</time></trkpt><trkpt lat="44.761635" lon="9.2405417"><ele>613.0</ele><time>2026-04-25T14:21:53.294Z</time></trkpt><trkpt lat="44.761775" lon="9.2405233"><ele>613.0</ele><time>2026-04-25T14:21:54.294Z</time></trkpt><trkpt lat="44.7618967" lon="9.2405533"><ele>613.0</ele><time>2026-04-25T14:21:55.294Z</time></trkpt><trkpt lat="44.7620467" lon="9.2405517"><ele>609.75</ele><time>2026-04-25T14:21:56.294Z</time></trkpt><trkpt lat="44.7621833" lon="9.2405467"><ele>606.5</ele><time>2026-04-25T14:21:57.294Z</time></trkpt><trkpt lat="44.762315" lon="9.240535"><ele>603.25</ele><time>2026-04-25T14:21:58.294Z</time></trkpt><trkpt lat="44.762435" lon="9.2405167"><ele>600.0</ele><time>2026-04-25T14:21:59.294Z</time></trkpt><trkpt lat="44.762555" lon="9.240455"><ele>600.0</ele><time>2026-04-25T14:22:00.293Z</time></trkpt><trkpt lat="44.7626583" lon="9.240355"><ele>600.0</ele><time>2026-04-25T14:22:01.294Z</time></trkpt><trkpt lat="44.762785" lon="9.240235"><ele>600.0</ele><time>2026-04-25T14:22:02.294Z</time></trkpt><trkpt lat="44.7629117" lon="9.2400967"><ele>600.0</ele><time>2026-04-25T14:22:03.294Z</time></trkpt><trkpt lat="44.7630333" lon="9.2399667"><ele>599.6666666666666</ele><time>2026-04-25T14:22:04.294Z</time></trkpt><trkpt lat="44.7631617" lon="9.2398817"><ele>599.3333333333333</ele><time>2026-04-25T14:22:05.294Z</time></trkpt><trkpt lat="44.7633117" lon="9.2398067"><ele>599.0</ele><time>2026-04-25T14:22:06.294Z</time></trkpt><trkpt lat="44.7634683" lon="9.239775"><ele>595.6666666666666</ele><time>2026-04-25T14:22:07.294Z</time></trkpt><trkpt lat="44.763635" lon="9.2397867"><ele>592.3333333333334</ele><time>2026-04-25T14:22:08.294Z</time></trkpt><trkpt lat="44.763805" lon="9.23981"><ele>589.0</ele><time>2026-04-25T14:22:09.294Z</time></trkpt><trkpt lat="44.7639783" lon="9.2398333"><ele>586.5</ele><time>2026-04-25T14:22:10.294Z</time></trkpt><trkpt lat="44.7641433" lon="9.2398467"><ele>584.0</ele><time>2026-04-25T14:22:11.294Z</time></trkpt><trkpt lat="44.764285" lon="9.23984"><ele>581.5</ele><time>2026-04-25T14:22:12.294Z</time></trkpt><trkpt lat="44.7644117" lon="9.2397933"><ele>579.0</ele><time>2026-04-25T14:22:13.294Z</time></trkpt><trkpt lat="44.7645167" lon="9.2397217"><ele>576.75</ele><time>2026-04-25T14:22:14.294Z</time></trkpt><trkpt lat="44.7645967" lon="9.2396133"><ele>574.5</ele><time>2026-04-25T14:22:15.294Z</time></trkpt><trkpt lat="44.7646383" lon="9.2394683"><ele>572.25</ele><time>2026-04-25T14:22:16.294Z</time></trkpt><trkpt lat="44.7646433" lon="9.2393033"><ele>570.0</ele><time>2026-04-25T14:22:17.294Z</time></trkpt><trkpt lat="44.76464" lon="9.2391233"><ele>573.75</ele><time>2026-04-25T14:22:18.294Z</time></trkpt><trkpt lat="44.76465" lon="9.2389367"><ele>577.5</ele><time>2026-04-25T14:22:19.294Z</time></trkpt><trkpt lat="44.7646783" lon="9.238785"><ele>581.25</ele><time>2026-04-25T14:22:20.294Z</time></trkpt><trkpt lat="44.764745" lon="9.238665"><ele>585.0</ele><time>2026-04-25T14:22:21.294Z</time></trkpt><trkpt lat="44.76485" lon="9.238585"><ele>585.0</ele><time>2026-04-25T14:22:22.294Z</time></trkpt><trkpt lat="44.76496" lon="9.238555"><ele>585.0</ele><time>2026-04-25T14:22:23.294Z</time></trkpt><trkpt lat="44.7650783" lon="9.2385233"><ele>585.0</ele><time>2026-04-25T14:22:24.294Z</time></trkpt><trkpt lat="44.7652067" lon="9.2384783"><ele>585.0</ele><time>2026-04-25T14:22:25.294Z</time></trkpt><trkpt lat="44.7653333" lon="9.238415"><ele>581.75</ele><time>2026-04-25T14:22:26.293Z</time></trkpt><trkpt lat="44.7654617" lon="9.238315"><ele>578.5</ele><time>2026-04-25T14:22:27.294Z</time></trkpt><trkpt lat="44.7655867" lon="9.2382283"><ele>575.25</ele><time>2026-04-25T14:22:28.294Z</time></trkpt><trkpt lat="44.7657133" lon="9.2381667"><ele>572.0</ele><time>2026-04-25T14:22:29.294Z</time></trkpt><trkpt lat="44.7658433" lon="9.238115"><ele>574.0</ele><time>2026-04-25T14:22:30.294Z</time></trkpt><trkpt lat="44.7659833" lon="9.23808"><ele>576.0</ele><time>2026-04-25T14:22:31.294Z</time></trkpt><trkpt lat="44.7661383" lon="9.2380383"><ele>578.0</ele><time>2026-04-25T14:22:32.293Z</time></trkpt><trkpt lat="44.766275" lon="9.2380067"><ele>580.0</ele><time>2026-04-25T14:22:33.294Z</time></trkpt><trkpt lat="44.7664017" lon="9.23798"><ele>580.0</ele><time>2026-04-25T14:22:34.293Z</time></trkpt><trkpt lat="44.7665283" lon="9.237965"><ele>580.0</ele><time>2026-04-25T14:22:35.294Z</time></trkpt><trkpt lat="44.7666667" lon="9.2379717"><ele>580.0</ele><time>2026-04-25T14:22:36.294Z</time></trkpt><trkpt lat="44.7667967" lon="9.2380067"><ele>580.0</ele><time>2026-04-25T14:22:37.294Z</time></trkpt><trkpt lat="44.76694" lon="9.2380383"><ele>577.0</ele><time>2026-04-25T14:22:38.294Z</time></trkpt><trkpt lat="44.7670933" lon="9.23808"><ele>574.0</ele><time>2026-04-25T14:22:39.294Z</time></trkpt><trkpt lat="44.767245" lon="9.2381267"><ele>571.0</ele><time>2026-04-25T14:22:40.294Z</time></trkpt><trkpt lat="44.767385" lon="9.23817"><ele>569.2</ele><time>2026-04-25T14:22:41.294Z</time></trkpt><trkpt lat="44.767515" lon="9.2382067"><ele>567.4000000000001</ele><time>2026-04-25T14:22:42.294Z</time></trkpt><trkpt lat="44.7676317" lon="9.2382333"><ele>565.6</ele><time>2026-04-25T14:22:43.293Z</time></trkpt><trkpt lat="44.7677233" lon="9.23828"><ele>563.8000000000001</ele><time>2026-04-25T14:22:44.294Z</time></trkpt><trkpt lat="44.7677917" lon="9.2383583"><ele>562.0</ele><time>2026-04-25T14:22:45.293Z</time></trkpt><trkpt lat="44.7678533" lon="9.2384483"><ele>561.6</ele><time>2026-04-25T14:22:46.294Z</time></trkpt><trkpt lat="44.7679" lon="9.2385533"><ele>561.2</ele><time>2026-04-25T14:22:47.293Z</time></trkpt><trkpt lat="44.7679283" lon="9.2386833"><ele>560.8</ele><time>2026-04-25T14:22:48.294Z</time></trkpt><trkpt lat="44.7679567" lon="9.2388183"><ele>560.4</ele><time>2026-04-25T14:22:49.294Z</time></trkpt><trkpt lat="44.767965" lon="9.239005"><ele>560.0</ele><time>2026-04-25T14:22:50.294Z</time></trkpt><trkpt lat="44.7679783" lon="9.2391733"><ele>558.8333333333333</ele><time>2026-04-25T14:22:51.294Z</time></trkpt><trkpt lat="44.767995" lon="9.2393167"><ele>557.6666666666666</ele><time>2026-04-25T14:22:52.294Z</time></trkpt><trkpt lat="44.7680117" lon="9.239435"><ele>556.5</ele><time>2026-04-25T14:22:53.294Z</time></trkpt><trkpt lat="44.768035" lon="9.2395217"><ele>555.3333333333334</ele><time>2026-04-25T14:22:54.294Z</time></trkpt><trkpt lat="44.7681167" lon="9.2395667"><ele>554.1666666666667</ele><time>2026-04-25T14:22:56.294Z</time></trkpt><trkpt lat="44.768185" lon="9.2395383"><ele>553.0</ele><time>2026-04-25T14:22:57.294Z</time></trkpt><trkpt lat="44.7682767" lon="9.2395"><ele>553.0</ele><time>2026-04-25T14:22:58.294Z</time></trkpt><trkpt lat="44.7683833" lon="9.239465"><ele>553.0</ele><time>2026-04-25T14:22:59.294Z</time></trkpt><trkpt lat="44.7685017" lon="9.239435"><ele>553.0</ele><time>2026-04-25T14:23:00.294Z</time></trkpt><trkpt lat="44.7686433" lon="9.239405"><ele>553.0</ele><time>2026-04-25T14:23:01.294Z</time></trkpt><trkpt lat="44.7687933" lon="9.2393783"><ele>552.0</ele><time>2026-04-25T14:23:02.294Z</time></trkpt><trkpt lat="44.7689467" lon="9.2393517"><ele>551.0</ele><time>2026-04-25T14:23:03.294Z</time></trkpt><trkpt lat="44.7691133" lon="9.239325"><ele>550.0</ele><time>2026-04-25T14:23:04.294Z</time></trkpt><trkpt lat="44.7692817" lon="9.2392983"><ele>548.6666666666667</ele><time>2026-04-25T14:23:05.294Z</time></trkpt><trkpt lat="44.7694533" lon="9.2392867"><ele>547.3333333333334</ele><time>2026-04-25T14:23:06.294Z</time></trkpt><trkpt lat="44.7696333" lon="9.239285"><ele>546.0</ele><time>2026-04-25T14:23:07.294Z</time></trkpt><trkpt lat="44.7698167" lon="9.2392867"><ele>546.0</ele><time>2026-04-25T14:23:08.294Z</time></trkpt><trkpt lat="44.7699967" lon="9.2393033"><ele>546.0</ele><time>2026-04-25T14:23:09.294Z</time></trkpt><trkpt lat="44.7701783" lon="9.239325"><ele>546.0</ele><time>2026-04-25T14:23:10.294Z</time></trkpt><trkpt lat="44.77036" lon="9.2393417"><ele>545.3333333333334</ele><time>2026-04-25T14:23:11.294Z</time></trkpt><trkpt lat="44.77054" lon="9.23936"><ele>544.6666666666667</ele><time>2026-04-25T14:23:12.294Z</time></trkpt><trkpt lat="44.7707067" lon="9.2393717"><ele>544.0</ele><time>2026-04-25T14:23:13.294Z</time></trkpt><trkpt lat="44.7708667" lon="9.239385"><ele>544.0</ele><time>2026-04-25T14:23:14.294Z</time></trkpt><trkpt lat="44.7710233" lon="9.2393867"><ele>544.0</ele><time>2026-04-25T14:23:15.294Z</time></trkpt><trkpt lat="44.7711817" lon="9.2393983"><ele>544.0</ele><time>2026-04-25T14:23:16.294Z</time></trkpt><trkpt lat="44.7713383" lon="9.2394133"><ele>543.6666666666667</ele><time>2026-04-25T14:23:17.293Z</time></trkpt><trkpt lat="44.7714983" lon="9.2394383"><ele>543.3333333333334</ele><time>2026-04-25T14:23:18.294Z</time></trkpt><trkpt lat="44.7716583" lon="9.23946"><ele>543.0</ele><time>2026-04-25T14:23:19.294Z</time></trkpt><trkpt lat="44.771825" lon="9.2394917"><ele>542.0</ele><time>2026-04-25T14:23:20.294Z</time></trkpt><trkpt lat="44.7719833" lon="9.23956"><ele>541.0</ele><time>2026-04-25T14:23:21.294Z</time></trkpt><trkpt lat="44.7721367" lon="9.23965"><ele>540.0</ele><time>2026-04-25T14:23:22.294Z</time></trkpt><trkpt lat="44.7722867" lon="9.2397433"><ele>541.3333333333334</ele><time>2026-04-25T14:23:23.294Z</time></trkpt><trkpt lat="44.7724367" lon="9.2398417"><ele>542.6666666666667</ele><time>2026-04-25T14:23:24.294Z</time></trkpt><trkpt lat="44.7725967" lon="9.2399417"><ele>544.0</ele><time>2026-04-25T14:23:25.294Z</time></trkpt><trkpt lat="44.7727483" lon="9.240045"><ele>544.6666666666667</ele><time>2026-04-25T14:23:26.294Z</time></trkpt><trkpt lat="44.7728967" lon="9.2401417"><ele>545.3333333333334</ele><time>2026-04-25T14:23:27.294Z</time></trkpt><trkpt lat="44.7730483" lon="9.2402233"><ele>546.0</ele><time>2026-04-25T14:23:28.294Z</time></trkpt><trkpt lat="44.7732033" lon="9.2402683"><ele>546.0</ele><time>2026-04-25T14:23:29.294Z</time></trkpt><trkpt lat="44.773365" lon="9.2402733"><ele>546.0</ele><time>2026-04-25T14:23:30.293Z</time></trkpt><trkpt lat="44.773525" lon="9.2402617"><ele>546.0</ele><time>2026-04-25T14:23:31.294Z</time></trkpt><trkpt lat="44.7736683" lon="9.24024"><ele>547.5</ele><time>2026-04-25T14:23:32.294Z</time></trkpt><trkpt lat="44.7737933" lon="9.2402"><ele>549.0</ele><time>2026-04-25T14:23:33.294Z</time></trkpt><trkpt lat="44.7739083" lon="9.240135"><ele>550.5</ele><time>2026-04-25T14:23:34.294Z</time></trkpt><trkpt lat="44.7740217" lon="9.2400417"><ele>552.0</ele><time>2026-04-25T14:23:35.294Z</time></trkpt><trkpt lat="44.7741317" lon="9.2399517"><ele>552.0</ele><time>2026-04-25T14:23:36.294Z</time></trkpt><trkpt lat="44.77424" lon="9.2398467"><ele>552.0</ele><time>2026-04-25T14:23:37.294Z</time></trkpt><trkpt lat="44.7743367" lon="9.2397417"><ele>552.0</ele><time>2026-04-25T14:23:38.294Z</time></trkpt><trkpt lat="44.7744217" lon="9.2396283"><ele>552.0</ele><time>2026-04-25T14:23:39.294Z</time></trkpt><trkpt lat="44.7745133" lon="9.239505"><ele>551.5</ele><time>2026-04-25T14:23:40.294Z</time></trkpt><trkpt lat="44.7746133" lon="9.2393817"><ele>551.0</ele><time>2026-04-25T14:23:41.294Z</time></trkpt><trkpt lat="44.774715" lon="9.2392583"><ele>550.5</ele><time>2026-04-25T14:23:42.294Z</time></trkpt><trkpt lat="44.7748217" lon="9.2391483"><ele>550.0</ele><time>2026-04-25T14:23:43.294Z</time></trkpt><trkpt lat="44.7749317" lon="9.2390517"><ele>547.5</ele><time>2026-04-25T14:23:44.294Z</time></trkpt><trkpt lat="44.7750533" lon="9.2389517"><ele>545.0</ele><time>2026-04-25T14:23:45.294Z</time></trkpt><trkpt lat="44.7751817" lon="9.23888"><ele>542.5</ele><time>2026-04-25T14:23:46.294Z</time></trkpt><trkpt lat="44.7753217" lon="9.2388217"><ele>540.0</ele><time>2026-04-25T14:23:47.294Z</time></trkpt><trkpt lat="44.7754617" lon="9.23878"><ele>540.0</ele><time>2026-04-25T14:23:48.294Z</time></trkpt><trkpt lat="44.7756033" lon="9.2387367"><ele>540.0</ele><time>2026-04-25T14:23:49.294Z</time></trkpt><trkpt lat="44.7757417" lon="9.2386983"><ele>540.0</ele><time>2026-04-25T14:23:50.294Z</time></trkpt><trkpt lat="44.7758683" lon="9.238695"><ele>540.0</ele><time>2026-04-25T14:23:51.294Z</time></trkpt><trkpt lat="44.7760017" lon="9.2387433"><ele>538.0</ele><time>2026-04-25T14:23:52.294Z</time></trkpt><trkpt lat="44.7761383" lon="9.2388183"><ele>536.0</ele><time>2026-04-25T14:23:53.294Z</time></trkpt><trkpt lat="44.77628" lon="9.2389183"><ele>534.0</ele><time>2026-04-25T14:23:54.294Z</time></trkpt><trkpt lat="44.7764217" lon="9.23902"><ele>538.0</ele><time>2026-04-25T14:23:55.294Z</time></trkpt><trkpt lat="44.7765517" lon="9.2391083"><ele>542.0</ele><time>2026-04-25T14:23:56.294Z</time></trkpt><trkpt lat="44.7766733" lon="9.2391967"><ele>546.0</ele><time>2026-04-25T14:23:57.294Z</time></trkpt><trkpt lat="44.7767817" lon="9.23925"><ele>550.0</ele><time>2026-04-25T14:23:58.294Z</time></trkpt><trkpt lat="44.776885" lon="9.2392467"><ele>550.6</ele><time>2026-04-25T14:23:59.294Z</time></trkpt><trkpt lat="44.776985" lon="9.23921"><ele>551.2</ele><time>2026-04-25T14:24:00.294Z</time></trkpt><trkpt lat="44.777075" lon="9.239155"><ele>551.8</ele><time>2026-04-25T14:24:01.294Z</time></trkpt><trkpt lat="44.7771733" lon="9.2390817"><ele>552.4</ele><time>2026-04-25T14:24:02.293Z</time></trkpt><trkpt lat="44.7772817" lon="9.2389883"><ele>553.0</ele><time>2026-04-25T14:24:03.294Z</time></trkpt><trkpt lat="44.7774067" lon="9.2388733"><ele>550.3333333333334</ele><time>2026-04-25T14:24:04.294Z</time></trkpt><trkpt lat="44.7775383" lon="9.2387683"><ele>547.6666666666666</ele><time>2026-04-25T14:24:05.294Z</time></trkpt><trkpt lat="44.777675" lon="9.2386817"><ele>545.0</ele><time>2026-04-25T14:24:06.294Z</time></trkpt><trkpt lat="44.77783" lon="9.2386067"><ele>545.0</ele><time>2026-04-25T14:24:07.294Z</time></trkpt><trkpt lat="44.7779917" lon="9.23855"><ele>545.0</ele><time>2026-04-25T14:24:08.294Z</time></trkpt><trkpt lat="44.7781533" lon="9.2384933"><ele>545.0</ele><time>2026-04-25T14:24:09.294Z</time></trkpt><trkpt lat="44.7783033" lon="9.238455"><ele>545.0</ele><time>2026-04-25T14:24:10.294Z</time></trkpt><trkpt lat="44.778445" lon="9.2384283"><ele>545.0</ele><time>2026-04-25T14:24:11.294Z</time></trkpt><trkpt lat="44.7785833" lon="9.23841"><ele>545.0</ele><time>2026-04-25T14:24:12.294Z</time></trkpt><trkpt lat="44.7787083" lon="9.23841"><ele>545.0</ele><time>2026-04-25T14:24:13.294Z</time></trkpt><trkpt lat="44.77883" lon="9.2383967"><ele>544.25</ele><time>2026-04-25T14:24:14.294Z</time></trkpt><trkpt lat="44.778945" lon="9.2383467"><ele>543.5</ele><time>2026-04-25T14:24:15.294Z</time></trkpt><trkpt lat="44.7790567" lon="9.2382633"><ele>542.75</ele><time>2026-04-25T14:24:16.294Z</time></trkpt><trkpt lat="44.7791483" lon="9.2381683"><ele>542.0</ele><time>2026-04-25T14:24:17.294Z</time></trkpt><trkpt lat="44.779225" lon="9.2380433"><ele>542.0</ele><time>2026-04-25T14:24:18.294Z</time></trkpt><trkpt lat="44.77929" lon="9.2379033"><ele>542.0</ele><time>2026-04-25T14:24:19.294Z</time></trkpt><trkpt lat="44.7793483" lon="9.2377317"><ele>542.0</ele><time>2026-04-25T14:24:20.294Z</time></trkpt><trkpt lat="44.779395" lon="9.237545"><ele>542.0</ele><time>2026-04-25T14:24:21.294Z</time></trkpt><trkpt lat="44.779435" lon="9.23734"><ele>543.75</ele><time>2026-04-25T14:24:22.294Z</time></trkpt><trkpt lat="44.7794717" lon="9.23715"><ele>545.5</ele><time>2026-04-25T14:24:23.294Z</time></trkpt><trkpt lat="44.7795017" lon="9.2369733"><ele>547.25</ele><time>2026-04-25T14:24:24.294Z</time></trkpt><trkpt lat="44.779545" lon="9.2368183"><ele>549.0</ele><time>2026-04-25T14:24:25.293Z</time></trkpt><trkpt lat="44.779605" lon="9.2366767"><ele>549.0</ele><time>2026-04-25T14:24:26.294Z</time></trkpt><trkpt lat="44.7796817" lon="9.236535"><ele>549.0</ele><time>2026-04-25T14:24:27.294Z</time></trkpt><trkpt lat="44.7797617" lon="9.2364"><ele>549.0</ele><time>2026-04-25T14:24:28.294Z</time></trkpt><trkpt lat="44.7798467" lon="9.236255"><ele>549.0</ele><time>2026-04-25T14:24:29.293Z</time></trkpt><trkpt lat="44.7799417" lon="9.2361367"><ele>547.25</ele><time>2026-04-25T14:24:30.294Z</time></trkpt><trkpt lat="44.78004" lon="9.2360233"><ele>545.5</ele><time>2026-04-25T14:24:31.294Z</time></trkpt><trkpt lat="44.7801567" lon="9.2359083"><ele>543.75</ele><time>2026-04-25T14:24:32.294Z</time></trkpt><trkpt lat="44.7802833" lon="9.235795"><ele>542.0</ele><time>2026-04-25T14:24:33.294Z</time></trkpt><trkpt lat="44.780405" lon="9.23568"><ele>538.75</ele><time>2026-04-25T14:24:34.294Z</time></trkpt><trkpt lat="44.7805367" lon="9.235575"><ele>535.5</ele><time>2026-04-25T14:24:35.294Z</time></trkpt><trkpt lat="44.7806433" lon="9.235485"><ele>532.25</ele><time>2026-04-25T14:24:36.294Z</time></trkpt><trkpt lat="44.78075" lon="9.235405"><ele>529.0</ele><time>2026-04-25T14:24:37.294Z</time></trkpt><trkpt lat="44.7808417" lon="9.2353683"><ele>529.0</ele><time>2026-04-25T14:24:38.294Z</time></trkpt><trkpt lat="44.7809283" lon="9.2354017"><ele>529.0</ele><time>2026-04-25T14:24:39.294Z</time></trkpt><trkpt lat="44.7810267" lon="9.2354617"><ele>529.0</ele><time>2026-04-25T14:24:40.294Z</time></trkpt><trkpt lat="44.7811183" lon="9.2355117"><ele>529.0</ele><time>2026-04-25T14:24:41.294Z</time></trkpt><trkpt lat="44.78122" lon="9.2355217"><ele>529.0</ele><time>2026-04-25T14:24:42.294Z</time></trkpt><trkpt lat="44.7813067" lon="9.23548"><ele>530.25</ele><time>2026-04-25T14:24:43.294Z</time></trkpt><trkpt lat="44.7813717" lon="9.23539"><ele>531.5</ele><time>2026-04-25T14:24:44.293Z</time></trkpt><trkpt lat="44.7814083" lon="9.23525"><ele>532.75</ele><time>2026-04-25T14:24:45.294Z</time></trkpt><trkpt lat="44.7814367" lon="9.2350817"><ele>534.0</ele><time>2026-04-25T14:24:46.294Z</time></trkpt><trkpt lat="44.7814567" lon="9.2349"><ele>532.0</ele><time>2026-04-25T14:24:47.293Z</time></trkpt><trkpt lat="44.7814667" lon="9.2347133"><ele>530.0</ele><time>2026-04-25T14:24:48.294Z</time></trkpt><trkpt lat="44.78148" lon="9.23453"><ele>528.0</ele><time>2026-04-25T14:24:49.293Z</time></trkpt><trkpt lat="44.7815133" lon="9.234365"><ele>526.0</ele><time>2026-04-25T14:24:50.294Z</time></trkpt><trkpt lat="44.7815833" lon="9.23422"><ele>526.0</ele><time>2026-04-25T14:24:51.294Z</time></trkpt><trkpt lat="44.7816733" lon="9.23409"><ele>526.0</ele><time>2026-04-25T14:24:52.294Z</time></trkpt><trkpt lat="44.7817717" lon="9.2339667"><ele>526.0</ele><time>2026-04-25T14:24:53.293Z</time></trkpt><trkpt lat="44.7818617" lon="9.2338617"><ele>526.0</ele><time>2026-04-25T14:24:54.294Z</time></trkpt><trkpt lat="44.7819317" lon="9.2337817"><ele>524.8333333333334</ele><time>2026-04-25T14:24:55.294Z</time></trkpt><trkpt lat="44.7820083" lon="9.233745"><ele>523.6666666666667</ele><time>2026-04-25T14:24:56.294Z</time></trkpt><trkpt lat="44.78209" lon="9.2337333"><ele>522.5</ele><time>2026-04-25T14:24:57.294Z</time></trkpt><trkpt lat="44.782175" lon="9.2337383"><ele>521.3333333333334</ele><time>2026-04-25T14:24:58.293Z</time></trkpt><trkpt lat="44.7822683" lon="9.2337467"><ele>520.1666666666666</ele><time>2026-04-25T14:24:59.294Z</time></trkpt><trkpt lat="44.78236" lon="9.2337617"><ele>519.0</ele><time>2026-04-25T14:25:00.293Z</time></trkpt><trkpt lat="44.7824517" lon="9.2337767"><ele>519.0</ele><time>2026-04-25T14:25:01.294Z</time></trkpt><trkpt lat="44.7825483" lon="9.2338333"><ele>519.0</ele><time>2026-04-25T14:25:02.294Z</time></trkpt><trkpt lat="44.782635" lon="9.2338767"><ele>519.0</ele><time>2026-04-25T14:25:03.293Z</time></trkpt><trkpt lat="44.782725" lon="9.2339117"><ele>519.0</ele><time>2026-04-25T14:25:04.294Z</time></trkpt><trkpt lat="44.7828083" lon="9.2339433"><ele>519.0</ele><time>2026-04-25T14:25:05.294Z</time></trkpt><trkpt lat="44.7828933" lon="9.2339517"><ele>518.8333333333334</ele><time>2026-04-25T14:25:06.294Z</time></trkpt><trkpt lat="44.7829567" lon="9.2339517"><ele>518.6666666666666</ele><time>2026-04-25T14:25:07.293Z</time></trkpt><trkpt lat="44.7830467" lon="9.2339367"><ele>518.5</ele><time>2026-04-25T14:25:09.294Z</time></trkpt><trkpt lat="44.7831233" lon="9.23385"><ele>518.3333333333333</ele><time>2026-04-25T14:26:13.294Z</time></trkpt><trkpt lat="44.7832" lon="9.2338317"><ele>518.1666666666666</ele><time>2026-04-25T14:26:14.293Z</time></trkpt><trkpt lat="44.7833083" lon="9.2338017"><ele>518.0</ele><time>2026-04-25T14:26:15.294Z</time></trkpt><trkpt lat="44.7834367" lon="9.23376"><ele>519.25</ele><time>2026-04-25T14:26:16.294Z</time></trkpt><trkpt lat="44.783565" lon="9.2337083"><ele>520.5</ele><time>2026-04-25T14:26:17.294Z</time></trkpt><trkpt lat="44.7836933" lon="9.23364"><ele>521.75</ele><time>2026-04-25T14:26:18.294Z</time></trkpt><trkpt lat="44.783825" lon="9.2335383"><ele>523.0</ele><time>2026-04-25T14:26:19.294Z</time></trkpt><trkpt lat="44.78394" lon="9.23343"><ele>523.0</ele><time>2026-04-25T14:26:20.294Z</time></trkpt><trkpt lat="44.7840433" lon="9.23329"><ele>523.0</ele><time>2026-04-25T14:26:21.294Z</time></trkpt><trkpt lat="44.7841383" lon="9.23314"><ele>523.0</ele><time>2026-04-25T14:26:22.294Z</time></trkpt><trkpt lat="44.7842533" lon="9.2329783"><ele>523.0</ele><time>2026-04-25T14:26:23.294Z</time></trkpt><trkpt lat="44.7843667" lon="9.232815"><ele>522.0</ele><time>2026-04-25T14:26:24.294Z</time></trkpt><trkpt lat="44.7844833" lon="9.2326467"><ele>521.0</ele><time>2026-04-25T14:26:25.294Z</time></trkpt><trkpt lat="44.7846083" lon="9.2324833"><ele>520.0</ele><time>2026-04-25T14:26:26.294Z</time></trkpt><trkpt lat="44.784735" lon="9.23231"><ele>517.6666666666667</ele><time>2026-04-25T14:26:27.294Z</time></trkpt><trkpt lat="44.78485" lon="9.2321433"><ele>515.3333333333334</ele><time>2026-04-25T14:26:28.294Z</time></trkpt><trkpt lat="44.7849583" lon="9.231995"><ele>513.0</ele><time>2026-04-25T14:26:29.294Z</time></trkpt><trkpt lat="44.785065" lon="9.23184"><ele>513.0</ele><time>2026-04-25T14:26:30.294Z</time></trkpt><trkpt lat="44.7851667" lon="9.2316917"><ele>513.0</ele><time>2026-04-25T14:26:31.293Z</time></trkpt><trkpt lat="44.7852667" lon="9.2315567"><ele>513.0</ele><time>2026-04-25T14:26:32.294Z</time></trkpt><trkpt lat="44.7853567" lon="9.2314533"><ele>513.0</ele><time>2026-04-25T14:26:33.294Z</time></trkpt><trkpt lat="44.785445" lon="9.231395"><ele>513.8</ele><time>2026-04-25T14:26:34.294Z</time></trkpt><trkpt lat="44.7855317" lon="9.2314017"><ele>514.5999999999999</ele><time>2026-04-25T14:26:35.293Z</time></trkpt><trkpt lat="44.78562" lon="9.2314483"><ele>515.4000000000001</ele><time>2026-04-25T14:26:36.294Z</time></trkpt><trkpt lat="44.7857117" lon="9.2315383"><ele>516.2</ele><time>2026-04-25T14:26:37.294Z</time></trkpt><trkpt lat="44.78581" lon="9.231625"><ele>517.0</ele><time>2026-04-25T14:26:38.294Z</time></trkpt><trkpt lat="44.7859233" lon="9.2316483"><ele>517.6</ele><time>2026-04-25T14:26:39.294Z</time></trkpt><trkpt lat="44.786045" lon="9.231645"><ele>518.2</ele><time>2026-04-25T14:26:40.294Z</time></trkpt><trkpt lat="44.786165" lon="9.2316117"><ele>518.8</ele><time>2026-04-25T14:26:41.294Z</time></trkpt><trkpt lat="44.7862683" lon="9.2315733"><ele>519.4</ele><time>2026-04-25T14:26:42.294Z</time></trkpt><trkpt lat="44.7863483" lon="9.2315217"><ele>520.0</ele><time>2026-04-25T14:26:43.294Z</time></trkpt><trkpt lat="44.786405" lon="9.2314267"><ele>517.75</ele><time>2026-04-25T14:26:44.294Z</time></trkpt><trkpt lat="44.7864333" lon="9.231295"><ele>515.5</ele><time>2026-04-25T14:26:45.294Z</time></trkpt><trkpt lat="44.7864517" lon="9.2311317"><ele>513.25</ele><time>2026-04-25T14:26:46.294Z</time></trkpt><trkpt lat="44.7864767" lon="9.2309433"><ele>511.0</ele><time>2026-04-25T14:26:47.294Z</time></trkpt><trkpt lat="44.7865167" lon="9.230745"><ele>510.0</ele><time>2026-04-25T14:26:48.294Z</time></trkpt><trkpt lat="44.7865767" lon="9.230575"><ele>509.0</ele><time>2026-04-25T14:26:49.294Z</time></trkpt><trkpt lat="44.786665" lon="9.2304167"><ele>508.0</ele><time>2026-04-25T14:26:50.294Z</time></trkpt><trkpt lat="44.7867667" lon="9.230275"><ele>507.0</ele><time>2026-04-25T14:26:51.294Z</time></trkpt><trkpt lat="44.78687" lon="9.230145"><ele>507.0</ele><time>2026-04-25T14:26:52.294Z</time></trkpt><trkpt lat="44.7869733" lon="9.2300583"><ele>507.00000000000006</ele><time>2026-04-25T14:26:53.294Z</time></trkpt><trkpt lat="44.787045" lon="9.2299917"><ele>507.00000000000006</ele><time>2026-04-25T14:26:54.294Z</time></trkpt><trkpt lat="44.7871017" lon="9.2299333"><ele>507.0</ele><time>2026-04-25T14:26:56.294Z</time></trkpt><trkpt lat="44.78721" lon="9.229845"><ele>507.0</ele><time>2026-04-25T14:27:40.294Z</time></trkpt><trkpt lat="44.7873017" lon="9.2298017"><ele>504.75</ele><time>2026-04-25T14:27:41.294Z</time></trkpt><trkpt lat="44.7874183" lon="9.2297733"><ele>502.5</ele><time>2026-04-25T14:27:42.294Z</time></trkpt><trkpt lat="44.7875383" lon="9.2297583"><ele>500.25</ele><time>2026-04-25T14:27:43.294Z</time></trkpt><trkpt lat="44.7876617" lon="9.2297417"><ele>498.0</ele><time>2026-04-25T14:27:44.294Z</time></trkpt><trkpt lat="44.78779" lon="9.22972"><ele>498.0</ele><time>2026-04-25T14:27:45.294Z</time></trkpt><trkpt lat="44.7879133" lon="9.229695"><ele>498.0</ele><time>2026-04-25T14:27:46.294Z</time></trkpt><trkpt lat="44.7880367" lon="9.229695"><ele>498.0</ele><time>2026-04-25T14:27:47.294Z</time></trkpt><trkpt lat="44.7881783" lon="9.2297217"><ele>498.0</ele><time>2026-04-25T14:27:48.294Z</time></trkpt><trkpt lat="44.7883017" lon="9.22981"><ele>499.75</ele><time>2026-04-25T14:27:49.294Z</time></trkpt><trkpt lat="44.7884283" lon="9.2298967"><ele>501.5</ele><time>2026-04-25T14:27:50.294Z</time></trkpt><trkpt lat="44.788565" lon="9.2299317"><ele>503.25</ele><time>2026-04-25T14:27:51.294Z</time></trkpt><trkpt lat="44.7887217" lon="9.22993"><ele>505.0</ele><time>2026-04-25T14:27:52.294Z</time></trkpt><trkpt lat="44.78888" lon="9.22995"><ele>505.0</ele><time>2026-04-25T14:27:53.293Z</time></trkpt><trkpt lat="44.7890217" lon="9.2299333"><ele>505.0</ele><time>2026-04-25T14:27:54.294Z</time></trkpt><trkpt lat="44.78914" lon="9.2298983"><ele>505.0</ele><time>2026-04-25T14:27:55.294Z</time></trkpt><trkpt lat="44.7892433" lon="9.2298233"><ele>505.0</ele><time>2026-04-25T14:27:56.294Z</time></trkpt><trkpt lat="44.78934" lon="9.2296867"><ele>504.75</ele><time>2026-04-25T14:27:57.293Z</time></trkpt><trkpt lat="44.7894233" lon="9.2295433"><ele>504.5</ele><time>2026-04-25T14:27:58.293Z</time></trkpt><trkpt lat="44.7895067" lon="9.2293883"><ele>504.25</ele><time>2026-04-25T14:27:59.293Z</time></trkpt><trkpt lat="44.7895933" lon="9.22924"><ele>504.0</ele><time>2026-04-25T14:28:00.294Z</time></trkpt><trkpt lat="44.78968" lon="9.2290967"><ele>504.0</ele><time>2026-04-25T14:28:01.294Z</time></trkpt><trkpt lat="44.7897733" lon="9.2289883"><ele>504.0</ele><time>2026-04-25T14:28:02.294Z</time></trkpt><trkpt lat="44.7898717" lon="9.2289017"><ele>504.0</ele><time>2026-04-25T14:28:03.294Z</time></trkpt><trkpt lat="44.7899733" lon="9.22885"><ele>504.0</ele><time>2026-04-25T14:28:04.294Z</time></trkpt><trkpt lat="44.7900833" lon="9.228835"><ele>504.75</ele><time>2026-04-25T14:28:05.294Z</time></trkpt><trkpt lat="44.7902133" lon="9.2288367"><ele>505.5</ele><time>2026-04-25T14:28:06.294Z</time></trkpt><trkpt lat="44.7903517" lon="9.228885"><ele>506.25</ele><time>2026-04-25T14:28:07.294Z</time></trkpt><trkpt lat="44.790495" lon="9.2289417"><ele>507.0</ele><time>2026-04-25T14:28:08.294Z</time></trkpt><trkpt lat="44.79064" lon="9.2290033"><ele>507.0</ele><time>2026-04-25T14:28:09.294Z</time></trkpt><trkpt lat="44.7907733" lon="9.2290667"><ele>507.0</ele><time>2026-04-25T14:28:10.294Z</time></trkpt><trkpt lat="44.7908933" lon="9.2291283"><ele>507.0</ele><time>2026-04-25T14:28:11.294Z</time></trkpt><trkpt lat="44.7910083" lon="9.2291567"><ele>507.0</ele><time>2026-04-25T14:28:12.294Z</time></trkpt><trkpt lat="44.791125" lon="9.2291467"><ele>509.0</ele><time>2026-04-25T14:28:13.294Z</time></trkpt><trkpt lat="44.7912267" lon="9.2290667"><ele>511.0</ele><time>2026-04-25T14:28:14.294Z</time></trkpt><trkpt lat="44.79133" lon="9.22895"><ele>513.0</ele><time>2026-04-25T14:28:15.294Z</time></trkpt><trkpt lat="44.791445" lon="9.22882"><ele>515.0</ele><time>2026-04-25T14:28:16.294Z</time></trkpt><trkpt lat="44.79157" lon="9.22874"><ele>510.25</ele><time>2026-04-25T14:28:17.294Z</time></trkpt><trkpt lat="44.7917033" lon="9.2286683"><ele>505.5</ele><time>2026-04-25T14:28:18.294Z</time></trkpt><trkpt lat="44.7918283" lon="9.2285983"><ele>500.75</ele><time>2026-04-25T14:28:19.293Z</time></trkpt><trkpt lat="44.7919517" lon="9.22853"><ele>496.0</ele><time>2026-04-25T14:28:20.293Z</time></trkpt><trkpt lat="44.7920717" lon="9.2285033"><ele>495.5</ele><time>2026-04-25T14:28:21.294Z</time></trkpt><trkpt lat="44.7921883" lon="9.2285333"><ele>495.0</ele><time>2026-04-25T14:28:22.294Z</time></trkpt><trkpt lat="44.7923233" lon="9.2285983"><ele>494.5</ele><time>2026-04-25T14:28:23.294Z</time></trkpt><trkpt lat="44.79246" lon="9.2286467"><ele>494.0</ele><time>2026-04-25T14:28:24.294Z</time></trkpt><trkpt lat="44.7925983" lon="9.22867"><ele>495.25</ele><time>2026-04-25T14:28:25.294Z</time></trkpt><trkpt lat="44.7927367" lon="9.2287017"><ele>496.5</ele><time>2026-04-25T14:28:26.294Z</time></trkpt><trkpt lat="44.7928733" lon="9.2287817"><ele>497.75</ele><time>2026-04-25T14:28:27.294Z</time></trkpt><trkpt lat="44.7929917" lon="9.2289033"><ele>499.0</ele><time>2026-04-25T14:28:28.294Z</time></trkpt><trkpt lat="44.793105" lon="9.2290417"><ele>499.0</ele><time>2026-04-25T14:28:29.293Z</time></trkpt><trkpt lat="44.793225" lon="9.2291683"><ele>499.0</ele><time>2026-04-25T14:28:30.293Z</time></trkpt><trkpt lat="44.7933467" lon="9.2292683"><ele>499.0</ele><time>2026-04-25T14:28:31.293Z</time></trkpt><trkpt lat="44.79348" lon="9.2293467"><ele>499.0</ele><time>2026-04-25T14:28:32.293Z</time></trkpt><trkpt lat="44.7936217" lon="9.2294167"><ele>494.6666666666667</ele><time>2026-04-25T14:28:33.293Z</time></trkpt><trkpt lat="44.7937617" lon="9.2294933"><ele>490.33333333333337</ele><time>2026-04-25T14:28:34.293Z</time></trkpt><trkpt lat="44.7938967" lon="9.2296"><ele>486.0</ele><time>2026-04-25T14:28:35.293Z</time></trkpt><trkpt lat="44.79403" lon="9.2297083"><ele>487.25</ele><time>2026-04-25T14:28:36.293Z</time></trkpt><trkpt lat="44.7941583" lon="9.2298117"><ele>488.5</ele><time>2026-04-25T14:28:37.293Z</time></trkpt><trkpt lat="44.7942767" lon="9.229925"><ele>489.75</ele><time>2026-04-25T14:28:38.293Z</time></trkpt><trkpt lat="44.7943983" lon="9.2300233"><ele>491.0</ele><time>2026-04-25T14:28:39.293Z</time></trkpt><trkpt lat="44.7945217" lon="9.2301333"><ele>491.0</ele><time>2026-04-25T14:28:40.293Z</time></trkpt><trkpt lat="44.7946383" lon="9.2302567"><ele>491.0</ele><time>2026-04-25T14:28:41.292Z</time></trkpt><trkpt lat="44.7947483" lon="9.2303617"><ele>491.0</ele><time>2026-04-25T14:28:42.293Z</time></trkpt><trkpt lat="44.7948383" lon="9.2304367"><ele>491.0</ele><time>2026-04-25T14:28:43.292Z</time></trkpt><trkpt lat="44.7949283" lon="9.2304733"><ele>491.0</ele><time>2026-04-25T14:28:44.293Z</time></trkpt><trkpt lat="44.7950267" lon="9.2304867"><ele>491.0</ele><time>2026-04-25T14:28:45.293Z</time></trkpt><trkpt lat="44.795125" lon="9.2305133"><ele>491.0</ele><time>2026-04-25T14:28:46.292Z</time></trkpt><trkpt lat="44.7952267" lon="9.23058"><ele>491.0</ele><time>2026-04-25T14:28:47.292Z</time></trkpt><trkpt lat="44.7953167" lon="9.23066"><ele>491.0</ele><time>2026-04-25T14:28:48.293Z</time></trkpt><trkpt lat="44.7953983" lon="9.230735"><ele>489.6</ele><time>2026-04-25T14:28:49.293Z</time></trkpt><trkpt lat="44.7954833" lon="9.2307717"><ele>488.20000000000005</ele><time>2026-04-25T14:28:50.293Z</time></trkpt><trkpt lat="44.79557" lon="9.230765"><ele>486.79999999999995</ele><time>2026-04-25T14:28:51.293Z</time></trkpt><trkpt lat="44.7956633" lon="9.2307183"><ele>485.4</ele><time>2026-04-25T14:28:52.293Z</time></trkpt><trkpt lat="44.79577" lon="9.23064"><ele>484.0</ele><time>2026-04-25T14:28:53.293Z</time></trkpt><trkpt lat="44.7958867" lon="9.230555"><ele>484.0</ele><time>2026-04-25T14:28:54.293Z</time></trkpt><trkpt lat="44.796" lon="9.2305033"><ele>484.0</ele><time>2026-04-25T14:28:55.292Z</time></trkpt><trkpt lat="44.7960967" lon="9.230485"><ele>484.0</ele><time>2026-04-25T14:28:56.293Z</time></trkpt><trkpt lat="44.7961817" lon="9.2305167"><ele>484.0</ele><time>2026-04-25T14:28:57.293Z</time></trkpt><trkpt lat="44.7962717" lon="9.2305833"><ele>484.0</ele><time>2026-04-25T14:28:58.293Z</time></trkpt><trkpt lat="44.7963717" lon="9.2306583"><ele>486.6666666666667</ele><time>2026-04-25T14:28:59.293Z</time></trkpt><trkpt lat="44.79651" lon="9.2307267"><ele>489.33333333333337</ele><time>2026-04-25T14:29:00.293Z</time></trkpt><trkpt lat="44.79667" lon="9.230745"><ele>492.0</ele><time>2026-04-25T14:29:01.292Z</time></trkpt><trkpt lat="44.7968217" lon="9.2307467"><ele>489.75</ele><time>2026-04-25T14:29:02.293Z</time></trkpt><trkpt lat="44.7969517" lon="9.230725"><ele>487.5</ele><time>2026-04-25T14:29:03.293Z</time></trkpt><trkpt lat="44.7970667" lon="9.2306767"><ele>485.25</ele><time>2026-04-25T14:29:04.293Z</time></trkpt><trkpt lat="44.797155" lon="9.2305583"><ele>483.0</ele><time>2026-04-25T14:29:05.293Z</time></trkpt><trkpt lat="44.797235" lon="9.2303917"><ele>480.75</ele><time>2026-04-25T14:29:06.293Z</time></trkpt><trkpt lat="44.79733" lon="9.2302333"><ele>478.5</ele><time>2026-04-25T14:29:07.293Z</time></trkpt><trkpt lat="44.79744" lon="9.2300917"><ele>476.25</ele><time>2026-04-25T14:29:08.293Z</time></trkpt><trkpt lat="44.797565" lon="9.23"><ele>474.0</ele><time>2026-04-25T14:29:09.293Z</time></trkpt><trkpt lat="44.797695" lon="9.22995"><ele>473.0</ele><time>2026-04-25T14:29:10.293Z</time></trkpt><trkpt lat="44.7978333" lon="9.22995"><ele>472.0</ele><time>2026-04-25T14:29:11.293Z</time></trkpt><trkpt lat="44.79799" lon="9.2299717"><ele>471.0</ele><time>2026-04-25T14:29:12.292Z</time></trkpt><trkpt lat="44.7981383" lon="9.23"><ele>470.0</ele><time>2026-04-25T14:29:13.293Z</time></trkpt><trkpt lat="44.7982867" lon="9.230015"><ele>470.0</ele><time>2026-04-25T14:29:14.292Z</time></trkpt><trkpt lat="44.7984283" lon="9.2300217"><ele>470.0</ele><time>2026-04-25T14:29:15.293Z</time></trkpt><trkpt lat="44.7985817" lon="9.2300033"><ele>470.0</ele><time>2026-04-25T14:29:16.293Z</time></trkpt><trkpt lat="44.7987317" lon="9.229965"><ele>470.0</ele><time>2026-04-25T14:29:17.293Z</time></trkpt><trkpt lat="44.7988833" lon="9.229895"><ele>469.3333333333333</ele><time>2026-04-25T14:29:18.292Z</time></trkpt><trkpt lat="44.7990417" lon="9.2298083"><ele>468.66666666666663</ele><time>2026-04-25T14:29:19.293Z</time></trkpt><trkpt lat="44.7991933" lon="9.2297283"><ele>468.0</ele><time>2026-04-25T14:29:20.293Z</time></trkpt><trkpt lat="44.7993467" lon="9.2296417"><ele>467.33333333333337</ele><time>2026-04-25T14:29:21.293Z</time></trkpt><trkpt lat="44.79951" lon="9.229555"><ele>466.6666666666667</ele><time>2026-04-25T14:29:22.293Z</time></trkpt><trkpt lat="44.79967" lon="9.229465"><ele>466.0</ele><time>2026-04-25T14:29:23.292Z</time></trkpt><trkpt lat="44.7998317" lon="9.2293933"><ele>466.0</ele><time>2026-04-25T14:29:24.293Z</time></trkpt><trkpt lat="44.7999967" lon="9.2293183"><ele>466.0</ele><time>2026-04-25T14:29:25.293Z</time></trkpt><trkpt lat="44.8001433" lon="9.2293017"><ele>466.0</ele><time>2026-04-25T14:29:26.292Z</time></trkpt><trkpt lat="44.800285" lon="9.2292967"><ele>465.75</ele><time>2026-04-25T14:29:27.293Z</time></trkpt><trkpt lat="44.8004267" lon="9.229335"><ele>465.5</ele><time>2026-04-25T14:29:28.293Z</time></trkpt><trkpt lat="44.8005733" lon="9.2293617"><ele>465.25</ele><time>2026-04-25T14:29:29.292Z</time></trkpt><trkpt lat="44.8007233" lon="9.2293917"><ele>465.0</ele><time>2026-04-25T14:29:30.292Z</time></trkpt><trkpt lat="44.800855" lon="9.229415"><ele>465.0</ele><time>2026-04-25T14:29:31.293Z</time></trkpt><trkpt lat="44.80098" lon="9.2294367"><ele>465.0</ele><time>2026-04-25T14:29:32.293Z</time></trkpt><trkpt lat="44.80108" lon="9.2294667"><ele>465.0</ele><time>2026-04-25T14:29:33.293Z</time></trkpt><trkpt lat="44.8011533" lon="9.22955"><ele>465.0</ele><time>2026-04-25T14:29:34.293Z</time></trkpt><trkpt lat="44.8011967" lon="9.229675"><ele>465.0</ele><time>2026-04-25T14:29:35.293Z</time></trkpt><trkpt lat="44.8012233" lon="9.2298083"><ele>465.2</ele><time>2026-04-25T14:29:36.293Z</time></trkpt><trkpt lat="44.8012533" lon="9.229945"><ele>465.4</ele><time>2026-04-25T14:29:37.293Z</time></trkpt><trkpt lat="44.80129" lon="9.2300717"><ele>465.6</ele><time>2026-04-25T14:29:38.293Z</time></trkpt><trkpt lat="44.8013233" lon="9.2301667"><ele>465.8</ele><time>2026-04-25T14:29:39.293Z</time></trkpt><trkpt lat="44.8014333" lon="9.23024"><ele>466.0</ele><time>2026-04-25T14:29:41.293Z</time></trkpt><trkpt lat="44.8015117" lon="9.2302267"><ele>466.00000000000006</ele><time>2026-04-25T14:29:42.293Z</time></trkpt><trkpt lat="44.8015933" lon="9.2302017"><ele>466.0</ele><time>2026-04-25T14:29:43.293Z</time></trkpt><trkpt lat="44.80169" lon="9.2301667"><ele>466.0</ele><time>2026-04-25T14:29:44.293Z</time></trkpt><trkpt lat="44.80179" lon="9.2301383"><ele>466.0</ele><time>2026-04-25T14:29:45.293Z</time></trkpt><trkpt lat="44.8018767" lon="9.2301117"><ele>466.00000000000006</ele><time>2026-04-25T14:29:46.293Z</time></trkpt><trkpt lat="44.8019367" lon="9.2300733"><ele>466.0</ele><time>2026-04-25T14:29:47.293Z</time></trkpt><trkpt lat="44.8019833" lon="9.2299383"><ele>466.33333333333337</ele><time>2026-04-25T14:29:49.293Z</time></trkpt><trkpt lat="44.8019567" lon="9.2298217"><ele>466.6666666666667</ele><time>2026-04-25T14:29:50.293Z</time></trkpt><trkpt lat="44.8019183" lon="9.2297017"><ele>467.0</ele><time>2026-04-25T14:29:51.293Z</time></trkpt><trkpt lat="44.8018817" lon="9.2295883"><ele>467.33333333333337</ele><time>2026-04-25T14:29:52.293Z</time></trkpt><trkpt lat="44.80188" lon="9.2294967"><ele>467.6666666666667</ele><time>2026-04-25T14:29:53.293Z</time></trkpt><trkpt lat="44.80191" lon="9.2294183"><ele>468.0</ele><time>2026-04-25T14:29:54.293Z</time></trkpt><trkpt lat="44.8020267" lon="9.2293867"><ele>468.0</ele><time>2026-04-25T14:29:56.292Z</time></trkpt><trkpt lat="44.8021283" lon="9.2294083"><ele>468.0</ele><time>2026-04-25T14:29:57.293Z</time></trkpt><trkpt lat="44.8022483" lon="9.22943"><ele>468.0</ele><time>2026-04-25T14:29:58.293Z</time></trkpt><trkpt lat="44.80237" lon="9.2294467"><ele>468.0</ele><time>2026-04-25T14:29:59.293Z</time></trkpt><trkpt lat="44.8024967" lon="9.229445"><ele>468.0</ele><time>2026-04-25T14:30:00.293Z</time></trkpt><trkpt lat="44.802635" lon="9.2294217"><ele>468.0</ele><time>2026-04-25T14:30:01.293Z</time></trkpt><trkpt lat="44.8027733" lon="9.2293717"><ele>468.0</ele><time>2026-04-25T14:30:02.293Z</time></trkpt><trkpt lat="44.8029133" lon="9.2293"><ele>468.0</ele><time>2026-04-25T14:30:03.293Z</time></trkpt><trkpt lat="44.80305" lon="9.22922"><ele>468.0</ele><time>2026-04-25T14:30:04.293Z</time></trkpt><trkpt lat="44.8031883" lon="9.2291333"><ele>468.0</ele><time>2026-04-25T14:30:05.293Z</time></trkpt><trkpt lat="44.803335" lon="9.2290733"><ele>468.0</ele><time>2026-04-25T14:30:06.293Z</time></trkpt><trkpt lat="44.8034833" lon="9.2290233"><ele>468.0</ele><time>2026-04-25T14:30:07.293Z</time></trkpt><trkpt lat="44.8036283" lon="9.2289683"><ele>468.0</ele><time>2026-04-25T14:30:08.293Z</time></trkpt><trkpt lat="44.8037733" lon="9.2288967"><ele>468.0</ele><time>2026-04-25T14:30:09.293Z</time></trkpt><trkpt lat="44.803915" lon="9.228815"><ele>468.0</ele><time>2026-04-25T14:30:10.293Z</time></trkpt><trkpt lat="44.80406" lon="9.2287317"><ele>468.0</ele><time>2026-04-25T14:30:11.293Z</time></trkpt><trkpt lat="44.8041867" lon="9.2286433"><ele>468.0</ele><time>2026-04-25T14:30:12.293Z</time></trkpt><trkpt lat="44.8043217" lon="9.228565"><ele>468.0</ele><time>2026-04-25T14:30:13.293Z</time></trkpt><trkpt lat="44.8044583" lon="9.22849"><ele>471.25</ele><time>2026-04-25T14:30:14.293Z</time></trkpt><trkpt lat="44.804595" lon="9.22842"><ele>474.5</ele><time>2026-04-25T14:30:15.293Z</time></trkpt><trkpt lat="44.8047267" lon="9.2283533"><ele>477.75</ele><time>2026-04-25T14:30:16.292Z</time></trkpt><trkpt lat="44.8048383" lon="9.2282567"><ele>481.0</ele><time>2026-04-25T14:30:17.293Z</time></trkpt><trkpt lat="44.8049517" lon="9.2281267"><ele>481.5</ele><time>2026-04-25T14:30:18.293Z</time></trkpt><trkpt lat="44.805065" lon="9.2279867"><ele>482.0</ele><time>2026-04-25T14:30:19.293Z</time></trkpt><trkpt lat="44.805175" lon="9.2278633"><ele>482.5</ele><time>2026-04-25T14:30:20.293Z</time></trkpt><trkpt lat="44.8052633" lon="9.22779"><ele>483.0</ele><time>2026-04-25T14:30:21.293Z</time></trkpt><trkpt lat="44.805345" lon="9.2277617"><ele>494.0</ele><time>2026-04-25T14:30:22.293Z</time></trkpt><trkpt lat="44.8054117" lon="9.2277583"><ele>494.0</ele><time>2026-04-25T14:30:23.293Z</time></trkpt><trkpt lat="44.805535" lon="9.2277433"><ele>494.0</ele><time>2026-04-25T14:30:25.293Z</time></trkpt><trkpt lat="44.8056683" lon="9.2277067"><ele>494.0</ele><time>2026-04-25T14:30:27.292Z</time></trkpt><trkpt lat="44.8057633" lon="9.22767"><ele>494.0</ele><time>2026-04-25T14:30:29.293Z</time></trkpt></trkseg></trk></gpx>